Provisional Data: North Branch Muddy Creek near Muddy Creek Forks, PA


Please select a monitoring station.
Please select start date.
Please select start date.

Toggle Unit: C/F Toggle Unit: C/F
Sample Time Temperature (C) Temperature (F) Specific Conductivity (mS/cm) pH   Turbidity (NTU+) DO (mg/L)
6/22/2021 12:00:00 AM 22.33 72.194 0.16 13.78 78.7 -99999.99
6/22/2021 12:15:00 AM 22.25 72.05 0.16 21.41 79 -99999.99
6/22/2021 12:30:00 AM 22.18 71.924 0.161 17.21 79.2 -99999.99
6/22/2021 12:45:00 AM 22.11 71.798 0.161 15.34 79.3 -99999.99
6/22/2021 1:00:00 AM 22.04 71.672 0.162 18.33 79.3 -99999.99
6/22/2021 1:15:00 AM 21.97 71.546 0.162 14.67 79.4 -99999.99
6/22/2021 1:30:00 AM 21.91 71.438 0.163 10.85 79.7 -99999.99
6/22/2021 1:45:00 AM 21.85 71.33 0.163 13.46 80.1 -99999.99
6/22/2021 2:00:00 AM 21.8 71.24 0.164 11.77 80 -99999.99
6/22/2021 2:15:00 AM 21.73 71.114 0.164 10.37 79.6 -99999.99
6/22/2021 2:30:00 AM 21.67 71.006 0.164 12 80 -99999.99
6/22/2021 2:45:00 AM 21.6 70.88 0.164 11.48 79.9 -99999.99
6/22/2021 3:00:00 AM 21.54 70.772 0.164 9.52 79.9 -99999.99
6/22/2021 3:15:00 AM 21.49 70.682 0.164 10.72 80.1 -99999.99
6/22/2021 3:30:00 AM 21.43 70.574 0.164 11.18 79.8 -99999.99
6/22/2021 3:45:00 AM 21.37 70.466 0.164 11.94 79.9 -99999.99
6/22/2021 4:00:00 AM 21.33 70.394 0.164 8.63 80 -99999.99
6/22/2021 4:15:00 AM 21.28 70.304 0.164 11.32 79.5 -99999.99
6/22/2021 4:30:00 AM 21.23 70.214 0.164 10.28 79.8 -99999.99
6/22/2021 4:45:00 AM 21.18 70.124 0.164 11.13 79.8 -99999.99
6/22/2021 5:00:00 AM 21.13 70.034 0.165 14.89 80.4 -99999.99
6/22/2021 5:15:00 AM 21.08 69.944 0.164 12.8 80.4 -99999.99
6/22/2021 5:30:00 AM 21.03 69.854 0.164 11.8 80.4 -99999.99
6/22/2021 5:45:00 AM 20.99 69.782 0.164 10.31 80.5 -99999.99
6/22/2021 6:00:00 AM 20.94 69.692 0.164 11.3 80.5 -99999.99
6/22/2021 6:15:00 AM 20.9 69.62 0.164 13.72 80.6 -99999.99
6/22/2021 6:30:00 AM 20.86 69.548 0.164 12.28 80.8 -99999.99
6/22/2021 6:45:00 AM 20.82 69.476 0.165 12.35 81.2 -99999.99
6/22/2021 7:00:00 AM 20.79 69.422 0.165 12.66 81.5 -99999.99
6/22/2021 7:15:00 AM 20.77 69.386 0.165 12.52 81.9 -99999.99
6/22/2021 7:30:00 AM 20.75 69.35 0.165 11.97 82.3 -99999.99
6/22/2021 7:45:00 AM 20.73 69.314 0.165 11.72 82.5 -99999.99
6/22/2021 8:00:00 AM 20.71 69.278 0.165 12.56 82.7 -99999.99
6/22/2021 8:15:00 AM 20.7 69.26 0.165 12.08 83.2 -99999.99
6/22/2021 8:30:00 AM 20.69 69.242 0.165 10.48 83.5 -99999.99
6/22/2021 8:45:00 AM 20.69 69.242 0.165 11.41 83.9 -99999.99
6/22/2021 9:00:00 AM 20.69 69.242 0.164 10.84 84.3 -99999.99
6/22/2021 9:15:00 AM 20.67 69.206 0.164 13.74 84.8 -99999.99
6/22/2021 9:30:00 AM 20.65 69.17 0.164 10.73 85.2 -99999.99
6/22/2021 9:45:00 AM 20.64 69.152 0.164 9.59 85.6 -99999.99
6/22/2021 10:00:00 AM 20.62 69.116 0.164 10.92 85.8 -99999.99
6/22/2021 10:15:00 AM 20.58 69.044 0.164 9.86 86.1 -99999.99
6/22/2021 10:30:00 AM 20.54 68.972 0.164 10.79 86.1 -99999.99
6/22/2021 10:45:00 AM 20.5 68.9 0.165 9.48 86.3 -99999.99
6/22/2021 11:00:00 AM 20.46 68.828 0.165 10.91 86.4 -99999.99
6/22/2021 11:15:00 AM 20.43 68.774 0.165 10.31 86.7 -99999.99
6/22/2021 11:30:00 AM 20.39 68.702 0.165 10.38 86.9 -99999.99
6/22/2021 11:45:00 AM 20.36 68.648 0.164 10.1 87.1 -99999.99
6/22/2021 12:00:00 PM 20.32 68.576 0.164 10.67 87.2 -99999.99
6/22/2021 12:15:00 PM 20.28 68.504 0.164 10.5 87.3 -99999.99
6/22/2021 12:30:00 PM 20.26 68.468 0.164 9.94 88.4 -99999.99
6/22/2021 12:45:00 PM 20.25 68.45 0.164 10.69 89 -99999.99
6/22/2021 1:00:00 PM 20.25 68.45 0.163 10.17 89.9 -99999.99
6/22/2021 1:15:00 PM 20.25 68.45 0.163 10.61 91 -99999.99
6/22/2021 1:30:00 PM 20.25 68.45 0.163 9.11 92 -99999.99
6/22/2021 1:45:00 PM 20.24 68.432 0.164 10.33 92.7 -99999.99
6/22/2021 2:00:00 PM 20.22 68.396 0.164 10.94 92.7 -99999.99
6/22/2021 2:15:00 PM 20.2 68.36 0.164 9.51 92.9 -99999.99
6/22/2021 2:30:00 PM 20.18 68.324 0.164 11.82 92.7 -99999.99
6/22/2021 2:45:00 PM 20.15 68.27 0.164 10.61 92.5 -99999.99
6/22/2021 3:00:00 PM 20.13 68.234 0.164 10.03 92.4 -99999.99
6/22/2021 3:15:00 PM 20.12 68.216 0.164 10.23 92.4 -99999.99
6/22/2021 3:30:00 PM 20.11 68.198 0.164 11.07 92.7 -99999.99
6/22/2021 3:45:00 PM 20.1 68.18 0.164 11.11 93 -99999.99
6/22/2021 4:00:00 PM 20.07 68.126 0.164 12.05 93.4 -99999.99
6/22/2021 4:15:00 PM 20.05 68.09 0.164 12.52 93.6 -99999.99
6/22/2021 4:30:00 PM 20.02 68.036 0.164 12.12 93.6 -99999.99
6/22/2021 4:45:00 PM 20.02 68.036 0.164 13.11 93.8 -99999.99
6/22/2021 5:00:00 PM 20 68 0.164 11.47 94 -99999.99
6/22/2021 5:15:00 PM 19.96 67.92799 0.164 12.09 93.9 -99999.99
6/22/2021 5:30:00 PM 19.93 67.874 0.163 11.97 93.9 -99999.99
6/22/2021 5:45:00 PM 19.89 67.802 0.164 11.47 93.3 -99999.99
6/22/2021 6:00:00 PM 19.83 67.694 0.164 11.99 92.8 -99999.99
6/22/2021 6:15:00 PM 19.8 67.64 0.164 12.62 92.5 -99999.99
6/22/2021 6:30:00 PM 19.75 67.55 0.164 15.29 92.2 -99999.99
6/22/2021 6:45:00 PM 19.72 67.496 0.164 13.24 92.2 -99999.99
6/22/2021 7:00:00 PM 19.68 67.424 0.164 14.89 92.2 -99999.99
6/22/2021 7:15:00 PM 19.63 67.334 0.164 13.46 92.1 -99999.99
6/22/2021 7:30:00 PM 19.57 67.226 0.164 17.6 91.8 -99999.99
6/22/2021 7:45:00 PM 19.49 67.082 0.164 15.92 91.2 -99999.99
6/22/2021 8:00:00 PM 19.41 66.938 0.164 17.57 90.6 -99999.99
6/22/2021 8:15:00 PM 19.34 66.812 0.164 18.39 90.2 -99999.99
6/22/2021 8:30:00 PM 19.26 66.668 0.164 19.04 89.9 -99999.99
6/22/2021 8:45:00 PM 19.17 66.506 0.164 18.55 89.4 -99999.99
6/22/2021 9:00:00 PM 19.09 66.362 0.164 30.78 88.8 -99999.99
6/22/2021 9:15:00 PM 18.98 66.164 0.164 21.34 88.2 -99999.99
6/22/2021 9:30:00 PM 18.88 65.984 0.164 19.61 87.9 -99999.99
6/22/2021 9:45:00 PM 18.78 65.804 0.164 21.19 87.4 -99999.99
6/22/2021 10:00:00 PM 18.67 65.606 0.164 20.95 86.9 -99999.99
6/22/2021 10:15:00 PM 18.59 65.462 0.164 16.6 86.8 -99999.99
6/22/2021 10:30:00 PM 18.48 65.264 0.165 18.72 86.4 -99999.99
6/22/2021 10:45:00 PM 18.39 65.102 0.165 18.96 86.1 -99999.99
6/22/2021 11:00:00 PM 18.28 64.904 0.165 16.96 86 -99999.99
6/22/2021 11:15:00 PM 18.16 64.688 0.165 23.23 86.1 -99999.99
6/22/2021 11:30:00 PM 18.07 64.526 0.165 23.56 86 -99999.99
6/22/2021 11:45:00 PM 17.97 64.346 0.166 21.08 86 -99999.99
6/23/2021 12:00:00 AM 17.87 64.166 0.165 21.27 85.9 -99999.99
6/23/2021 12:15:00 AM 17.78 64.004 0.165 18.63 85.8 -99999.99
6/23/2021 12:30:00 AM 17.68 63.824 0.165 17.13 85.8 -99999.99
6/23/2021 12:45:00 AM 17.6 63.68 0.165 18.2 85.8 -99999.99
6/23/2021 1:00:00 AM 17.5 63.5 0.165 18.88 85.7 -99999.99
6/23/2021 1:15:00 AM 17.42 63.356 0.165 18.12 85.9 -99999.99
6/23/2021 1:30:00 AM 17.32 63.176 0.165 18.52 85.5 -99999.99
6/23/2021 1:45:00 AM 17.23 63.014 0.165 17.94 85.8 -99999.99
6/23/2021 2:00:00 AM 17.14 62.852 0.165 30.62 85.8 -99999.99
6/23/2021 2:15:00 AM 17.05 62.69 0.165 20.61 85.9 -99999.99
6/23/2021 2:30:00 AM 16.95 62.51 0.165 22.98 85.9 -99999.99
6/23/2021 2:45:00 AM 16.86 62.348 0.166 22.93 86 -99999.99
6/23/2021 3:00:00 AM 16.77 62.186 0.166 21.95 85.8 -99999.99
6/23/2021 3:15:00 AM 16.68 62.024 0.166 20.24 86 -99999.99
6/23/2021 3:30:00 AM 16.59 61.862 0.166 23.26 86 -99999.99
6/23/2021 3:45:00 AM 16.5 61.7 0.166 25.08 86.1 -99999.99
6/23/2021 4:00:00 AM 16.41 61.538 0.166 21.13 86.1 -99999.99
6/23/2021 4:15:00 AM 16.33 61.394 0.166 21.12 86.2 -99999.99
6/23/2021 4:30:00 AM 16.24 61.232 0.166 21.78 86.2 -99999.99
6/23/2021 4:45:00 AM 16.15 61.07 0.166 22.45 86.4 -99999.99
6/23/2021 5:00:00 AM 16.06 60.908 0.166 22.93 86.3 -99999.99
6/23/2021 5:15:00 AM 15.98 60.764 0.166 21.48 86.5 -99999.99
6/23/2021 5:30:00 AM 15.9 60.62 0.166 21.79 86.5 -99999.99
6/23/2021 5:45:00 AM 15.83 60.494 0.166 22.44 86.6 -99999.99
6/23/2021 6:00:00 AM 15.76 60.368 0.166 20.09 86.6 -99999.99
6/23/2021 6:15:00 AM 15.67 60.206 0.166 21.9 86.6 -99999.99
6/23/2021 6:30:00 AM 15.6 60.08 0.166 21.97 86.9 -99999.99
6/23/2021 6:45:00 AM 15.52 59.936 0.166 19.41 86.9 -99999.99
6/23/2021 7:00:00 AM 15.44 59.792 0.166 21.08 87.2 -99999.99
6/23/2021 7:15:00 AM 15.37 59.666 0.166 21.23 87.3 -99999.99
6/23/2021 7:30:00 AM 15.32 59.576 0.166 21.7 87.6 -99999.99
6/23/2021 7:45:00 AM 15.27 59.486 0.166 21.76 87.9 -99999.99
6/23/2021 8:00:00 AM 15.24 59.432 0.166 20 88.1 -99999.99
6/23/2021 8:15:00 AM 15.21 59.378 0.166 19.14 88.3 -99999.99
6/23/2021 8:30:00 AM 15.2 59.36 0.166 20.13 88.7 -99999.99
6/23/2021 8:45:00 AM 15.21 59.378 0.166 20.29 89 -99999.99
6/23/2021 9:00:00 AM 15.23 59.414 0.166 21.27 89.3 -99999.99
6/23/2021 9:15:00 AM 15.26 59.468 0.166 19.73 89.9 -99999.99
6/23/2021 9:30:00 AM 15.3 59.54 0.166 23.71 90.2 -99999.99
6/23/2021 9:45:00 AM 15.35 59.63 0.166 23.99 90.6 -99999.99
6/23/2021 10:00:00 AM 15.41 59.738 0.166 21.16 91.1 -99999.99
6/23/2021 10:15:00 AM 15.48 59.864 0.165 23.29 91.7 -99999.99
6/23/2021 10:30:00 AM 15.58 60.044 0.165 26.79 92.4 -99999.99
6/23/2021 10:45:00 AM 15.7 60.26 0.165 27.17 93 -99999.99
6/23/2021 11:00:00 AM 15.82 60.476 0.165 20.74 93.7 -99999.99
6/23/2021 11:15:00 AM 16 60.8 0.165 21.91 94.6 -99999.99
6/23/2021 11:30:00 AM 16.21 61.178 0.164 21.45 95.3 -99999.99
6/23/2021 11:45:00 AM 16.41 61.538 0.164 20.67 95.9 -99999.99
6/23/2021 12:00:00 PM 16.64 61.952 0.164 24.25 96.6 -99999.99
6/23/2021 12:15:00 PM 16.98 62.564 0.164 21.93 97.7 -99999.99
6/23/2021 12:30:00 PM 17.24 63.032 0.164 23.2 97.3 -99999.99
6/23/2021 12:45:00 PM 17.67 63.806 0.163 22.58 98.2 -99999.99
6/23/2021 1:00:00 PM 18.04 64.472 0.164 22.38 99.2 -99999.99
6/23/2021 1:15:00 PM 18.46 65.228 0.164 21.49 99.3 -99999.99
6/23/2021 1:30:00 PM 18.9 66.02 0.164 21.43 100 -99999.99
6/23/2021 1:45:00 PM 19.31 66.758 0.164 21.62 101 -99999.99
6/23/2021 2:00:00 PM 19.73 67.514 0.164 22.64 101.3 -99999.99
6/23/2021 2:15:00 PM 20.02 68.036 0.164 23.38 100.7 -99999.99
6/23/2021 2:30:00 PM 20.38 68.684 0.165 21.94 99.4 -99999.99
6/23/2021 2:45:00 PM 20.66 69.188 0.165 21.81 100.8 -99999.99
6/23/2021 3:00:00 PM 21.03 69.854 0.165 21.72 102 -99999.99
6/23/2021 3:15:00 PM 21.2 70.16 0.165 22.4 102.6 -99999.99
6/23/2021 3:30:00 PM 21.27 70.286 0.165 21.62 101.9 -99999.99
6/23/2021 3:45:00 PM 21.48 70.664 0.165 22.23 101 -99999.99
6/23/2021 4:00:00 PM 21.48 70.664 0.166 23.53 101 -99999.99
6/23/2021 4:15:00 PM 21.55 70.79 0.166 22.9 100.1 -99999.99
6/23/2021 4:30:00 PM 21.66 70.988 0.166 23.27 99 -99999.99
6/23/2021 4:45:00 PM 21.61 70.898 0.166 23.88 97.6 -99999.99
6/23/2021 5:00:00 PM 21.46 70.628 0.167 25.23 97.4 -99999.99
6/23/2021 5:15:00 PM 21.4 70.52 0.167 24.13 96.2 -99999.99
6/23/2021 5:30:00 PM 21.29 70.32201 0.167 23.66 94.9 -99999.99
6/23/2021 5:45:00 PM 21.16 70.088 0.167 23.2 93.9 -99999.99
6/23/2021 6:00:00 PM 21.01 69.818 0.167 24.31 93 -99999.99
6/23/2021 6:15:00 PM 20.87 69.566 0.167 25.24 91.4 -99999.99
6/23/2021 6:30:00 PM 20.76 69.368 0.167 25.72 89.3 -99999.99
6/23/2021 6:45:00 PM 20.65 69.17 0.167 26.24 87.1 -99999.99
6/23/2021 7:00:00 PM 20.56 69.008 0.167 25.69 85.6 -99999.99
6/23/2021 7:15:00 PM 20.46 68.828 0.167 29.64 88.3 -99999.99
6/23/2021 7:30:00 PM 20.38 68.684 0.168 24.29 90.3 -99999.99
6/23/2021 7:45:00 PM 20.27 68.486 0.168 24.57 90 -99999.99
6/23/2021 8:00:00 PM 20.14 68.252 0.168 23.67 89.7 -99999.99
6/23/2021 8:15:00 PM 19.99 67.982 0.168 24.16 89.2 -99999.99
6/23/2021 8:30:00 PM 19.84 67.712 0.168 25.19 88.3 -99999.99
6/23/2021 8:45:00 PM 19.67 67.406 0.168 26.03 88.2 -99999.99
6/23/2021 9:00:00 PM 19.5 67.1 0.168 26.13 87.9 -99999.99
6/23/2021 9:15:00 PM 19.33 66.794 0.168 26.56 87.5 -99999.99
6/23/2021 9:30:00 PM 19.17 66.506 0.168 19.38 87 -99999.99
6/23/2021 9:45:00 PM 19.04 66.272 0.168 20.18 86.9 -99999.99
6/23/2021 10:00:00 PM 18.93 66.074 0.168 21.06 86.5 -99999.99
6/23/2021 10:15:00 PM 18.8 65.84 0.168 21.93 86.4 -99999.99
6/23/2021 10:30:00 PM 18.69 65.642 0.167 23.86 86.3 -99999.99
6/23/2021 10:45:00 PM 18.58 65.444 0.167 21.93 86.2 -99999.99
6/23/2021 11:00:00 PM 18.47 65.246 0.167 21.92 85.9 -99999.99
6/23/2021 11:15:00 PM 18.38 65.084 0.167 21.83 85.8 -99999.99
6/23/2021 11:30:00 PM 18.27 64.886 0.167 24.42 85.9 -99999.99
6/23/2021 11:45:00 PM 18.19 64.742 0.167 23.66 85.7 -99999.99
6/24/2021 12:00:00 AM 18.11 64.598 0.167 23.29 85.7 -99999.99
6/24/2021 12:15:00 AM 18.03 64.454 0.167 24.22 85.5 -99999.99
6/24/2021 12:30:00 AM 17.94 64.292 0.167 26.97 85.6 -99999.99
6/24/2021 12:45:00 AM 17.86 64.148 0.167 25.18 85.6 -99999.99
6/24/2021 1:00:00 AM 17.77 63.986 0.167 29.7 85.5 -99999.99
6/24/2021 1:15:00 AM 17.68 63.824 0.167 27.67 85.6 -99999.99
6/24/2021 1:30:00 AM 17.6 63.68 0.167 26.78 85.9 -99999.99
6/24/2021 1:45:00 AM 17.49 63.482 0.166 27.74 85.4 -99999.99
6/24/2021 2:00:00 AM 17.41 63.338 0.166 28.09 84.7 -99999.99
6/24/2021 2:15:00 AM 17.31 63.158 0.166 29.23 85.3 -99999.99
6/24/2021 2:30:00 AM 17.21 62.978 0.166 26.57 85.4 -99999.99
6/24/2021 2:45:00 AM 17.11 62.798 0.166 26.72 85.5 -99999.99
6/24/2021 3:00:00 AM 17.01 62.618 0.166 27.11 85.8 -99999.99
6/24/2021 3:15:00 AM 16.91 62.438 0.166 26.66 85.8 -99999.99
6/24/2021 3:30:00 AM 16.82 62.276 0.166 27.44 86 -99999.99
6/24/2021 3:45:00 AM 16.71 62.078 0.166 29.05 86.1 -99999.99
6/24/2021 4:00:00 AM 16.61 61.898 0.166 28.33 86 -99999.99
6/24/2021 4:15:00 AM 16.52 61.736 0.166 30.86 86.4 -99999.99
6/24/2021 4:30:00 AM 16.42 61.556 0.166 29.88 86.2 -99999.99
6/24/2021 4:45:00 AM 16.35 61.43 0.166 28.68 86.4 -99999.99
6/24/2021 5:00:00 AM 16.28 61.304 0.166 28.24 86.4 -99999.99
6/24/2021 5:15:00 AM 16.19 61.142 0.166 28.14 86.4 -99999.99
6/24/2021 5:30:00 AM 16.11 60.998 0.166 32.03 86.3 -99999.99
6/24/2021 5:45:00 AM 16.03 60.854 0.166 88 86.4 -99999.99
6/24/2021 6:00:00 AM 15.96 60.728 0.166 63.54 86.5 -99999.99
6/24/2021 6:15:00 AM 15.91 60.638 0.166 54.33 86.7 -99999.99
6/24/2021 6:30:00 AM 15.85 60.53 0.166 39.24 87.1 -99999.99
6/24/2021 6:45:00 AM 15.8 60.44 0.166 34.01 86.9 -99999.99
6/24/2021 7:00:00 AM 15.76 60.368 0.166 31.43 87.2 -99999.99
6/24/2021 7:15:00 AM 15.76 60.368 0.166 29.13 87.3 -99999.99
6/24/2021 7:30:00 AM 15.73 60.314 0.166 33.98 88 -99999.99
6/24/2021 7:45:00 AM 15.68 60.224 0.166 31.27 88.6 -99999.99
6/24/2021 8:00:00 AM 15.69 60.242 0.166 31.78 89.2 -99999.99
6/24/2021 8:15:00 AM 15.66 60.188 0.166 32.44 89.6 -99999.99
6/24/2021 8:30:00 AM 15.65 60.17 0.166 31.56 89.8 -99999.99
6/24/2021 8:45:00 AM 15.67 60.206 0.166 31.83 90.2 -99999.99
6/24/2021 9:00:00 AM 15.7 60.26 0.166 32.42 89.9 -99999.99
6/24/2021 9:15:00 AM 15.73 60.314 0.166 32.27 90.2 -99999.99
6/24/2021 9:30:00 AM 15.78 60.404 0.166 31.07 90.7 -99999.99
6/24/2021 9:45:00 AM 15.85 60.53 0.166 28.3 91.2 -99999.99
6/24/2021 10:00:00 AM 15.92 60.656 0.166 30.02 91.4 -99999.99
6/24/2021 10:15:00 AM 16.02 60.836 0.165 30.82 91.8 -99999.99
6/24/2021 10:30:00 AM 16.15 61.07 0.165 30.04 92 -99999.99
6/24/2021 10:45:00 AM 16.29 61.322 0.165 30.01 93.3 -99999.99
6/24/2021 11:00:00 AM 16.45 61.61 0.165 29.9 94.1 -99999.99
6/24/2021 11:15:00 AM 16.64 61.952 0.165 30 94.7 -99999.99
6/24/2021 11:30:00 AM 16.85 62.33 0.165 29.94 95.8 -99999.99
6/24/2021 11:45:00 AM 17.15 62.87 0.165 27.41 96.8 -99999.99
6/24/2021 12:00:00 PM 17.39 63.302 0.165 30.81 98.1 -99999.99
6/24/2021 12:15:00 PM 17.67 63.806 0.165 27.12 99 -99999.99
6/24/2021 12:30:00 PM 17.94 64.292 0.165 27.28 100.2 -99999.99
6/24/2021 12:45:00 PM 18.29 64.922 0.165 26.57 100.7 -99999.99
6/24/2021 1:00:00 PM 18.54 65.372 0.165 26.95 101.9 -99999.99
6/24/2021 1:15:00 PM 18.88 65.984 0.165 27.04 102.5 -99999.99
6/24/2021 1:30:00 PM 19.21 66.578 0.165 28.07 103 -99999.99
6/24/2021 1:45:00 PM 19.54 67.172 0.165 27.47 103.3 -99999.99
6/24/2021 2:00:00 PM 19.78 67.604 0.165 30.36 104.2 -99999.99
6/24/2021 2:15:00 PM 20.21 68.378 0.165 28.15 104.4 -99999.99
6/24/2021 2:30:00 PM 20.58 69.044 0.165 26.78 105 -99999.99
6/24/2021 2:45:00 PM 20.95 69.71 0.165 27.1 106 -99999.99
6/24/2021 3:00:00 PM 21.37 70.466 0.165 27.05 106.7 -99999.99
6/24/2021 3:15:00 PM 21.68 71.024 0.165 28.92 107.5 -99999.99
6/24/2021 3:30:00 PM 21.86 71.348 0.165 27.63 107.1 -99999.99
6/24/2021 3:45:00 PM 22.01 71.618 0.165 28.35 106.9 -99999.99
6/24/2021 4:00:00 PM 22.05 71.69 0.166 28.71 106.4 -99999.99
6/24/2021 4:15:00 PM 22.01 71.618 0.166 27.99 105.6 -99999.99
6/24/2021 4:30:00 PM 21.97 71.546 0.166 29.47 104.8 -99999.99
6/24/2021 4:45:00 PM 21.98 71.564 0.166 29.37 104.1 -99999.99
6/24/2021 5:00:00 PM 21.94 71.492 0.166 29.89 103.2 -99999.99
6/24/2021 5:15:00 PM 21.91 71.438 0.166 29.17 102.2 -99999.99
6/24/2021 5:30:00 PM 21.89 71.402 0.166 29.8 101.1 -99999.99
6/24/2021 5:45:00 PM 21.87 71.366 0.166 28.33 99.3 -99999.99
6/24/2021 6:00:00 PM 21.85 71.33 0.166 30.24 98.1 -99999.99
6/24/2021 6:15:00 PM 21.81 71.258 0.167 28.16 97.2 -99999.99
6/24/2021 6:30:00 PM 21.77 71.186 0.167 29 96 -99999.99
6/24/2021 6:45:00 PM 21.68 71.024 0.167 28.48 95.4 -99999.99
6/24/2021 7:00:00 PM 21.54 70.772 0.167 28.36 94 -99999.99
6/24/2021 7:15:00 PM 21.42 70.556 0.167 28.39 93 -99999.99
6/24/2021 7:30:00 PM 21.29 70.32201 0.168 29.04 91.9 -99999.99
6/24/2021 7:45:00 PM 21.13 70.034 0.168 30.91 91.1 -99999.99
6/24/2021 8:00:00 PM 20.98 69.764 0.168 28.11 90.4 -99999.99
6/24/2021 8:15:00 PM 20.82 69.476 0.168 29.88 89.6 -99999.99
6/24/2021 8:30:00 PM 20.66 69.188 0.168 42.25 88.9 -99999.99
6/24/2021 8:45:00 PM 20.5 68.9 0.169 28.94 88.6 -99999.99
6/24/2021 9:00:00 PM 20.35 68.63 0.169 28.74 88.4 -99999.99
6/24/2021 9:15:00 PM 20.19 68.342 0.169 29.45 87.7 -99999.99
6/24/2021 9:30:00 PM 20.05 68.09 0.169 29.08 87.3 -99999.99
6/24/2021 9:45:00 PM 19.88 67.784 0.169 28.8 86.8 -99999.99
6/24/2021 10:00:00 PM 19.74 67.532 0.169 29.21 86.5 -99999.99
6/24/2021 10:15:00 PM 19.6 67.28 0.169 29.33 86.3 -99999.99
6/24/2021 10:30:00 PM 19.46 67.028 0.169 28.94 85.9 -99999.99
6/24/2021 10:45:00 PM 19.33 66.794 0.169 30.17 85.9 -99999.99
6/24/2021 11:00:00 PM 19.19 66.542 0.169 28.58 85.7 -99999.99
6/24/2021 11:15:00 PM 19.07 66.326 0.169 28.8 85.8 -99999.99
6/24/2021 11:30:00 PM 18.95 66.11 0.169 28.87 85.6 -99999.99
6/24/2021 11:45:00 PM 18.84 65.912 0.169 30.07 85.7 -99999.99
6/25/2021 12:00:00 AM 18.73 65.714 0.169 29.23 85.7 -99999.99
6/25/2021 12:15:00 AM 18.62 65.516 0.169 29.36 85.6 -99999.99
6/25/2021 12:30:00 AM 18.52 65.336 0.169 29.97 85.5 -99999.99
6/25/2021 12:45:00 AM 18.41 65.138 0.169 29.24 85.5 -99999.99
6/25/2021 1:00:00 AM 18.3 64.94 0.169 29.89 85.5 -99999.99
6/25/2021 1:15:00 AM 18.21 64.778 0.169 28.45 85.6 -99999.99
6/25/2021 1:30:00 AM 18.1 64.58 0.169 30.26 85.7 -99999.99
6/25/2021 1:45:00 AM 18.02 64.436 0.169 28.12 85.7 -99999.99
6/25/2021 2:00:00 AM 17.91 64.238 0.169 28.9 85.7 -99999.99
6/25/2021 2:15:00 AM 17.82 64.076 0.169 28.71 85.8 -99999.99
6/25/2021 2:30:00 AM 17.72 63.896 0.169 29.09 85.9 -99999.99
6/25/2021 2:45:00 AM 17.6 63.68 0.168 28.53 85.9 -99999.99
6/25/2021 3:00:00 AM 17.51 63.518 0.168 28.95 86.1 -99999.99
6/25/2021 3:15:00 AM 17.41 63.338 0.168 29.29 86.1 -99999.99
6/25/2021 3:30:00 AM 17.3 63.14 0.168 28.51 86.3 -99999.99
6/25/2021 3:45:00 AM 17.2 62.96 0.168 28.99 86.1 -99999.99
6/25/2021 4:00:00 AM 17.1 62.78 0.168 28.76 86.4 -99999.99
6/25/2021 4:15:00 AM 17.01 62.618 0.168 29.12 86.6 -99999.99
6/25/2021 4:30:00 AM 16.91 62.438 0.168 30.2 86.7 -99999.99
6/25/2021 4:45:00 AM 16.82 62.276 0.168 27.89 86.8 -99999.99
6/25/2021 5:00:00 AM 16.71 62.078 0.168 29.68 86.9 -99999.99
6/25/2021 5:15:00 AM 16.62 61.916 0.168 29.97 86.9 -99999.99
6/25/2021 5:30:00 AM 16.54 61.772 0.168 29.15 86.8 -99999.99
6/25/2021 5:45:00 AM 16.47 61.646 0.168 29.04 86.9 -99999.99
6/25/2021 6:00:00 AM 16.38 61.484 0.168 26.66 86.9 -99999.99
6/25/2021 6:15:00 AM 16.29 61.322 0.168 25.58 86.9 -99999.99
6/25/2021 6:30:00 AM 16.23 61.214 0.168 25.42 87.1 -99999.99
6/25/2021 6:45:00 AM 16.15 61.07 0.168 29.09 87.1 -99999.99
6/25/2021 7:00:00 AM 16.11 60.998 0.168 26.67 87.1 -99999.99
6/25/2021 7:15:00 AM 16.05 60.89 0.168 28.92 87.2 -99999.99
6/25/2021 7:30:00 AM 15.99 60.782 0.168 28.73 87.8 -99999.99
6/25/2021 7:45:00 AM 15.94 60.692 0.168 27.02 88.2 -99999.99
6/25/2021 8:00:00 AM 15.92 60.656 0.168 27.37 88.4 -99999.99
6/25/2021 8:15:00 AM 15.9 60.62 0.168 26.66 88.7 -99999.99
6/25/2021 8:30:00 AM 15.9 60.62 0.168 27.03 89.2 -99999.99
6/25/2021 8:45:00 AM 15.91 60.638 0.168 26.72 89.5 -99999.99
6/25/2021 9:00:00 AM 15.94 60.692 0.168 26.24 89.9 -99999.99
6/25/2021 9:15:00 AM 15.99 60.782 0.168 25.53 90.3 -99999.99
6/25/2021 9:30:00 AM 16.05 60.89 0.168 26.49 91.2 -99999.99
6/25/2021 9:45:00 AM 16.11 60.998 0.168 26.8 91.4 -99999.99
6/25/2021 10:00:00 AM 16.19 61.142 0.167 26.41 91.5 -99999.99
6/25/2021 10:15:00 AM 16.29 61.322 0.167 27.38 92.5 -99999.99
6/25/2021 10:30:00 AM 16.43 61.574 0.167 25.92 93.7 -99999.99
6/25/2021 10:45:00 AM 16.59 61.862 0.167 26.47 94.3 -99999.99
6/25/2021 11:00:00 AM 16.75 62.15 0.167 26.26 95.9 -99999.99
6/25/2021 11:15:00 AM 16.93 62.474 0.166 26.24 97.2 -99999.99
6/25/2021 11:30:00 AM 17.11 62.798 0.166 25.7 98.7 -99999.99
6/25/2021 11:45:00 AM 17.34 63.212 0.166 27.2 99.6 -99999.99
6/25/2021 12:00:00 PM 17.56 63.608 0.166 27.43 100.3 -99999.99
6/25/2021 12:15:00 PM 17.84 64.112 0.166 27.12 101 -99999.99
6/25/2021 12:30:00 PM 18.16 64.688 0.166 26.5 102.1 -99999.99
6/25/2021 12:45:00 PM 18.53 65.354 0.166 28.79 103 -99999.99
6/25/2021 1:00:00 PM 18.89 66.002 0.166 26.51 104.2 -99999.99
6/25/2021 1:15:00 PM 19.3 66.74 0.166 26.75 105.2 -99999.99
6/25/2021 1:30:00 PM 19.76 67.568 0.166 27.56 105.8 -99999.99
6/25/2021 1:45:00 PM 20.22 68.396 0.166 27.24 106.6 -99999.99
6/25/2021 2:00:00 PM 20.65 69.17 0.166 28.26 107 -99999.99
6/25/2021 2:15:00 PM 21.08 69.944 0.166 26.86 107.8 -99999.99
6/25/2021 2:30:00 PM 21.48 70.664 0.166 26.38 108.7 -99999.99
6/25/2021 2:45:00 PM 21.85 71.33 0.166 26.86 109.1 -99999.99
6/25/2021 3:00:00 PM 22.18 71.924 0.166 27.18 109.3 -99999.99
6/25/2021 3:15:00 PM 22.41 72.338 0.166 27.14 109.1 -99999.99
6/25/2021 3:30:00 PM 22.56 72.608 0.166 27.1 109.1 -99999.99
6/25/2021 3:45:00 PM 22.71 72.878 0.166 26.67 108.5 -99999.99
6/25/2021 4:00:00 PM 22.78 73.004 0.167 27 107.4 -99999.99
6/25/2021 4:15:00 PM 22.79 73.022 0.167 26.42 107.3 -99999.99
6/25/2021 4:30:00 PM 22.78 73.004 0.167 26.72 106.6 -99999.99
6/25/2021 4:45:00 PM 22.75 72.95 0.167 26.99 105.8 -99999.99
6/25/2021 5:00:00 PM 22.73 72.914 0.167 26.91 105 -99999.99
6/25/2021 5:15:00 PM 22.71 72.878 0.167 27.84 104.1 -99999.99
6/25/2021 5:30:00 PM 22.69 72.842 0.167 27.53 103 -99999.99
6/25/2021 5:45:00 PM 22.66 72.788 0.167 26.85 101.7 -99999.99
6/25/2021 6:00:00 PM 22.64 72.752 0.168 26.62 100.5 -99999.99
6/25/2021 6:15:00 PM 22.58 72.644 0.168 27.06 99.3 -99999.99
6/25/2021 6:30:00 PM 22.53 72.554 0.168 27.61 98.3 -99999.99
6/25/2021 6:45:00 PM 22.43 72.374 0.168 27.7 96.7 -99999.99
6/25/2021 7:00:00 PM 22.27 72.086 0.169 28.56 95.3 -99999.99
6/25/2021 7:15:00 PM 22.15 71.87 0.169 28.12 93.9 -99999.99
6/25/2021 7:30:00 PM 22.01 71.618 0.169 27.63 92.7 -99999.99
6/25/2021 7:45:00 PM 21.83 71.294 0.17 29.04 91.4 -99999.99
6/25/2021 8:00:00 PM 21.7 71.06 0.17 30.91 90.5 -99999.99
6/25/2021 8:15:00 PM 21.53 70.754 0.17 29.49 89.6 -99999.99
6/25/2021 8:30:00 PM 21.38 70.484 0.17 35.21 89.3 -99999.99
6/25/2021 8:45:00 PM 21.22 70.196 0.17 27.44 88.7 -99999.99
6/25/2021 9:00:00 PM 21.09 69.962 0.17 28.03 88 -99999.99
6/25/2021 9:15:00 PM 20.95 69.71 0.17 28.12 87.5 -99999.99
6/25/2021 9:30:00 PM 20.82 69.476 0.171 27.57 87.1 -99999.99
6/25/2021 9:45:00 PM 20.69 69.242 0.17 26.63 86.5 -99999.99
6/25/2021 10:00:00 PM 20.57 69.026 0.17 27.24 86.2 -99999.99
6/25/2021 10:15:00 PM 20.44 68.792 0.17 26.98 85.8 -99999.99
6/25/2021 10:30:00 PM 20.32 68.576 0.171 28.39 85.4 -99999.99
6/25/2021 10:45:00 PM 20.21 68.378 0.171 28 85.2 -99999.99
6/25/2021 11:00:00 PM 20.09 68.162 0.171 28.43 84.8 -99999.99
6/25/2021 11:15:00 PM 19.98 67.964 0.171 28.26 84.8 -99999.99
6/25/2021 11:30:00 PM 19.87 67.766 0.171 29.39 84.5 -99999.99
6/25/2021 11:45:00 PM 19.76 67.568 0.171 29.31 84.7 -99999.99
6/26/2021 12:00:00 AM 19.67 67.406 0.171 28.37 84.6 -99999.99
6/26/2021 12:15:00 AM 19.58 67.244 0.171 27.12 84.7 -99999.99
6/26/2021 12:30:00 AM 19.49 67.082 0.17 27.36 84.6 -99999.99
6/26/2021 12:45:00 AM 19.41 66.938 0.17 26.66 84.7 -99999.99
6/26/2021 1:00:00 AM 19.33 66.794 0.17 26.76 84.4 -99999.99
6/26/2021 1:15:00 AM 19.25 66.65 0.17 27.67 84.7 -99999.99
6/26/2021 1:30:00 AM 19.18 66.524 0.17 27.14 84.6 -99999.99
6/26/2021 1:45:00 AM 19.12 66.416 0.17 27.25 84.5 -99999.99
6/26/2021 2:00:00 AM 19.06 66.308 0.17 27.1 84.7 -99999.99
6/26/2021 2:15:00 AM 19.01 66.218 0.17 26.88 84.8 -99999.99
6/26/2021 2:30:00 AM 18.96 66.128 0.17 27.83 84.9 -99999.99
6/26/2021 2:45:00 AM 18.9 66.02 0.17 28.81 84.7 -99999.99
6/26/2021 3:00:00 AM 18.85 65.93 0.17 28.45 85.1 -99999.99
6/26/2021 3:15:00 AM 18.8 65.84 0.17 27.26 85 -99999.99
6/26/2021 3:30:00 AM 18.74 65.732 0.17 28.06 84.8 -99999.99
6/26/2021 3:45:00 AM 18.68 65.624 0.17 27.96 85.3 -99999.99
6/26/2021 4:00:00 AM 18.64 65.552 0.169 27.88 85.2 -99999.99
6/26/2021 4:15:00 AM 18.59 65.462 0.169 27.91 85.3 -99999.99
6/26/2021 4:30:00 AM 18.55 65.39 0.169 28.3 85.2 -99999.99
6/26/2021 4:45:00 AM 18.52 65.336 0.169 27.62 85.3 -99999.99
6/26/2021 5:00:00 AM 18.47 65.246 0.169 29.41 85.5 -99999.99
6/26/2021 5:15:00 AM 18.43 65.174 0.169 32.24 85.6 -99999.99
6/26/2021 5:30:00 AM 18.41 65.138 0.169 28.12 85.2 -99999.99
6/26/2021 5:45:00 AM 18.37 65.066 0.169 28.51 85.1 -99999.99
6/26/2021 6:00:00 AM 18.33 64.994 0.169 28.4 85.2 -99999.99
6/26/2021 6:15:00 AM 18.3 64.94 0.169 28.39 85.3 -99999.99
6/26/2021 6:30:00 AM 18.28 64.904 0.169 27.84 85.4 -99999.99
6/26/2021 6:45:00 AM 18.27 64.886 0.169 27.69 85.3 -99999.99
6/26/2021 7:00:00 AM 18.26 64.868 0.169 26.45 85.7 -99999.99
6/26/2021 7:15:00 AM 18.24 64.832 0.169 27.13 86.2 -99999.99
6/26/2021 7:30:00 AM 18.24 64.832 0.169 26.85 86.4 -99999.99
6/26/2021 7:45:00 AM 18.24 64.832 0.169 29.71 86.7 -99999.99
6/26/2021 8:00:00 AM 18.24 64.832 0.169 26.64 87 -99999.99
6/26/2021 8:15:00 AM 18.26 64.868 0.169 27.61 87.4 -99999.99
6/26/2021 8:30:00 AM 18.29 64.922 0.169 26.21 88 -99999.99
6/26/2021 8:45:00 AM 18.34 65.012 0.169 27.04 88.7 -99999.99
6/26/2021 9:00:00 AM 18.41 65.138 0.168 26.2 90 -99999.99
6/26/2021 9:15:00 AM 18.5 65.3 0.168 25.82 90.5 -99999.99
6/26/2021 9:30:00 AM 18.58 65.444 0.168 26.15 91.8 -99999.99
6/26/2021 9:45:00 AM 18.65 65.57 0.168 25.9 93.3 -99999.99
6/26/2021 10:00:00 AM 18.75 65.75 0.168 26.53 94.2 -99999.99
6/26/2021 10:15:00 AM 18.85 65.93 0.168 26.09 94.2 -99999.99
6/26/2021 10:30:00 AM 18.96 66.128 0.167 25.68 95.8 -99999.99
6/26/2021 10:45:00 AM 19.07 66.326 0.167 26.25 96.3 -99999.99
6/26/2021 11:00:00 AM 19.19 66.542 0.167 25.32 97.5 -99999.99
6/26/2021 11:15:00 AM 19.3 66.74 0.167 25.71 98.6 -99999.99
6/26/2021 11:30:00 AM 19.42 66.956 0.167 25.22 99.2 -99999.99
6/26/2021 11:45:00 AM 19.5 67.1 0.167 25.62 99.7 -99999.99
6/26/2021 12:00:00 PM 19.62 67.316 0.167 25.44 100.2 -99999.99
6/26/2021 12:15:00 PM 19.71 67.478 0.167 25.59 100.4 -99999.99
6/26/2021 12:30:00 PM 19.81 67.658 0.167 25.75 100.4 -99999.99
6/26/2021 12:45:00 PM 19.95 67.91 0.167 25.94 100.6 -99999.99
6/26/2021 1:00:00 PM 20.12 68.216 0.167 25.6 101.4 -99999.99
6/26/2021 1:15:00 PM 20.29 68.522 0.167 25.45 102.7 -99999.99
6/26/2021 1:30:00 PM 20.46 68.828 0.167 25.53 103.3 -99999.99
6/26/2021 1:45:00 PM 20.62 69.116 0.166 25.77 104.4 -99999.99
6/26/2021 2:00:00 PM 20.73 69.314 0.166 25.85 104.7 -99999.99
6/26/2021 2:15:00 PM 20.84 69.512 0.167 25.39 104.6 -99999.99
6/26/2021 2:30:00 PM 20.93 69.674 0.167 25.83 104.2 -99999.99
6/26/2021 2:45:00 PM 20.96 69.728 0.167 25.06 103.4 -99999.99
6/26/2021 3:00:00 PM 20.99 69.782 0.167 31.41 102 -99999.99
6/26/2021 3:15:00 PM 21 69.8 0.167 29.87 101 -99999.99
6/26/2021 3:30:00 PM 21.03 69.854 0.167 33.66 99.4 -99999.99
6/26/2021 3:45:00 PM 21.04 69.872 0.168 38.34 98.7 -99999.99
6/26/2021 4:00:00 PM 21.11 69.998 0.168 42.17 98 -99999.99
6/26/2021 4:15:00 PM 21.16 70.088 0.168 39.61 98.5 -99999.99
6/26/2021 4:30:00 PM 21.18 70.124 0.168 41.18 98.7 -99999.99
6/26/2021 4:45:00 PM 21.21 70.17799 0.168 41.59 98.6 -99999.99
6/26/2021 5:00:00 PM 21.23 70.214 0.168 42.12 97.7 -99999.99
6/26/2021 5:15:00 PM 21.27 70.286 0.168 45.66 97.3 -99999.99
6/26/2021 5:30:00 PM 21.3 70.34 0.168 50.55 97.5 -99999.99
6/26/2021 5:45:00 PM 21.32 70.376 0.168 46.23 97.2 -99999.99
6/26/2021 6:00:00 PM 21.34 70.412 0.168 45.82 96.4 -99999.99
6/26/2021 6:15:00 PM 21.38 70.484 0.168 48.66 95 -99999.99
6/26/2021 6:30:00 PM 21.39 70.502 0.168 54 95.6 -99999.99
6/26/2021 6:45:00 PM 21.41 70.538 0.168 53.9 95.9 -99999.99
6/26/2021 7:00:00 PM 21.42 70.556 0.168 58.09 95.5 -99999.99
6/26/2021 7:15:00 PM 21.41 70.538 0.169 63.25 94.9 -99999.99
6/26/2021 7:30:00 PM 21.39 70.502 0.169 68.37 94 -99999.99
6/26/2021 7:45:00 PM 21.35 70.43 0.169 75.47 92.7 -99999.99
6/26/2021 8:00:00 PM 21.31 70.358 0.169 74.55 92.4 -99999.99
6/26/2021 8:15:00 PM 21.28 70.304 0.169 83.13 91.4 -99999.99
6/26/2021 8:30:00 PM 21.23 70.214 0.169 84.08 90.6 -99999.99
6/26/2021 8:45:00 PM 21.17 70.106 0.17 85.74 89.5 -99999.99
6/26/2021 9:00:00 PM 21.13 70.034 0.17 90.21 88.6 -99999.99
6/26/2021 9:15:00 PM 21.07 69.926 0.17 102.2 88 -99999.99
6/26/2021 9:30:00 PM 21.02 69.836 0.17 55.76 87.3 -99999.99
6/26/2021 9:45:00 PM 20.97 69.746 0.17 56.7 86.8 -99999.99
6/26/2021 10:00:00 PM 20.92 69.656 0.17 55.58 86.2 -99999.99
6/26/2021 10:15:00 PM 20.87 69.566 0.17 81.33 85.9 -99999.99
6/26/2021 10:30:00 PM 20.82 69.476 0.17 84.69 85.7 -99999.99
6/26/2021 10:45:00 PM 20.77 69.386 0.17 106.9 84.5 -99999.99
6/26/2021 11:00:00 PM 20.72 69.296 0.17 112.5 84.9 -99999.99
6/26/2021 11:15:00 PM 20.68 69.224 0.17 100.9 84.7 -99999.99
6/26/2021 11:30:00 PM 20.64 69.152 0.17 109.9 84.7 -99999.99
6/26/2021 11:45:00 PM 20.59 69.062 0.17 113.6 84.6 -99999.99
6/27/2021 12:00:00 AM 20.54 68.972 0.17 113.8 84.2 -99999.99
6/27/2021 12:15:00 AM 20.5 68.9 0.17 141.6 84.4 -99999.99
6/27/2021 12:30:00 AM 20.46 68.828 0.17 118.6 84.1 -99999.99
6/27/2021 12:45:00 AM 20.4 68.72 0.17 126.9 84.2 -99999.99
6/27/2021 1:00:00 AM 20.36 68.648 0.17 124 84 -99999.99
6/27/2021 1:15:00 AM 20.32 68.576 0.17 125.1 84 -99999.99
6/27/2021 1:30:00 AM 20.28 68.504 0.17 123.6 83.8 -99999.99
6/27/2021 1:45:00 AM 20.23 68.414 0.171 128.9 83.9 -99999.99
6/27/2021 2:00:00 AM 20.19 68.342 0.17 123.7 83.8 -99999.99
6/27/2021 2:15:00 AM 20.15 68.27 0.17 123.5 83.7 -99999.99
6/27/2021 2:30:00 AM 20.1 68.18 0.17 124.3 83.9 -99999.99
6/27/2021 2:45:00 AM 20.05 68.09 0.17 136.1 83.9 -99999.99
6/27/2021 3:00:00 AM 20.03 68.054 0.17 126.8 83.7 -99999.99
6/27/2021 3:15:00 AM 19.98 67.964 0.17 125.6 83.8 -99999.99
6/27/2021 3:30:00 AM 19.95 67.91 0.17 123 83.9 -99999.99
6/27/2021 3:45:00 AM 19.9 67.82 0.17 108.5 83.8 -99999.99
6/27/2021 4:00:00 AM 19.86 67.748 0.17 123.5 83.8 -99999.99
6/27/2021 4:15:00 AM 19.81 67.658 0.17 123.3 83.9 -99999.99
6/27/2021 4:30:00 AM 19.77 67.586 0.17 122.4 84.1 -99999.99
6/27/2021 4:45:00 AM 19.73 67.514 0.17 121 84.2 -99999.99
6/27/2021 5:00:00 AM 19.69 67.442 0.17 120.1 84.3 -99999.99
6/27/2021 5:15:00 AM 19.65 67.37 0.17 120.5 84.2 -99999.99
6/27/2021 5:30:00 AM 19.62 67.316 0.17 129 83.7 -99999.99
6/27/2021 5:45:00 AM 19.58 67.244 0.17 127.2 83.8 -99999.99
6/27/2021 6:00:00 AM 19.55 67.19 0.17 132.4 83.8 -99999.99
6/27/2021 6:15:00 AM 19.52 67.136 0.17 115.5 84 -99999.99
6/27/2021 6:30:00 AM 19.49 67.082 0.17 109.6 84.2 -99999.99
6/27/2021 6:45:00 AM 19.47 67.046 0.17 117.1 84 -99999.99
6/27/2021 7:00:00 AM 19.46 67.028 0.17 121.9 84.3 -99999.99
6/27/2021 7:15:00 AM 19.45 67.01 0.17 128.1 84.2 -99999.99
6/27/2021 7:30:00 AM 19.44 66.992 0.169 122.5 84.9 -99999.99
6/27/2021 7:45:00 AM 19.45 67.01 0.169 125.4 84.9 -99999.99
6/27/2021 8:00:00 AM 19.46 67.028 0.169 124.7 85.3 -99999.99
6/27/2021 8:15:00 AM 19.47 67.046 0.169 122.6 85.6 -99999.99
6/27/2021 8:30:00 AM 19.5 67.1 0.169 135.4 86.3 -99999.99
6/27/2021 8:45:00 AM 19.54 67.172 0.169 131.4 86.9 -99999.99
6/27/2021 9:00:00 AM 19.58 67.244 0.169 130.6 87.5 -99999.99
6/27/2021 9:15:00 AM 19.65 67.37 0.169 126.4 87.9 -99999.99
6/27/2021 9:30:00 AM 19.71 67.478 0.169 130.9 89.5 -99999.99
6/27/2021 9:45:00 AM 19.77 67.586 0.169 124 89.9 -99999.99
6/27/2021 10:00:00 AM 19.86 67.748 0.169 128.8 91.7 -99999.99
6/27/2021 10:15:00 AM 19.96 67.92799 0.168 125.8 92.9 -99999.99
6/27/2021 10:30:00 AM 20.04 68.07201 0.168 126.1 93.9 -99999.99
6/27/2021 10:45:00 AM 20.14 68.252 0.168 127.4 94.9 -99999.99
6/27/2021 11:00:00 AM 20.27 68.486 0.168 126.2 95.6 -99999.99
6/27/2021 11:15:00 AM 20.46 68.828 0.168 126.3 96.4 -99999.99
6/27/2021 11:30:00 AM 20.68 69.224 0.168 125.9 97.2 -99999.99
6/27/2021 11:45:00 AM 20.92 69.656 0.168 131.5 98.5 -99999.99
6/27/2021 12:00:00 PM 21.13 70.034 0.168 129.6 99.6 -99999.99
6/27/2021 12:15:00 PM 21.35 70.43 0.168 131.6 101.3 -99999.99
6/27/2021 12:30:00 PM 21.57 70.826 0.168 132.2 102.3 -99999.99
6/27/2021 12:45:00 PM 21.83 71.294 0.168 217.5 103.5 -99999.99
6/27/2021 1:00:00 PM 22.07 71.726 0.168 142.1 104.4 -99999.99
6/27/2021 1:15:00 PM 22.41 72.338 0.168 143 105.3 -99999.99
6/27/2021 1:30:00 PM 22.73 72.914 0.168 143.2 106.1 -99999.99
6/27/2021 1:45:00 PM 23.14 73.652 0.168 141.3 107.3 -99999.99
6/27/2021 2:00:00 PM 23.56 74.408 0.168 140.6 108 -99999.99
6/27/2021 2:15:00 PM 23.93 75.074 0.168 126.3 108.7 -99999.99
6/27/2021 2:30:00 PM 24.29 75.722 0.168 149.6 109.1 -99999.99
6/27/2021 2:45:00 PM 24.65 76.37 0.168 164.2 110 -99999.99
6/27/2021 3:00:00 PM 24.93 76.874 0.168 146.6 110.5 -99999.99
6/27/2021 3:15:00 PM 25.2 77.36 0.168 148 110.2 -99999.99
6/27/2021 3:30:00 PM 25.41 77.738 0.168 162.3 109.9 -99999.99
6/27/2021 3:45:00 PM 25.53 77.954 0.168 165.2 107.6 -99999.99
6/27/2021 4:00:00 PM 25.61 78.098 0.168 156.8 107.3 -99999.99
6/27/2021 4:15:00 PM 25.69 78.242 0.168 176.5 106.3 -99999.99
6/27/2021 4:30:00 PM 25.72 78.296 0.169 145 105.1 -99999.99
6/27/2021 4:45:00 PM 25.74 78.332 0.169 187.6 102.3 -99999.99
6/27/2021 5:00:00 PM 25.71 78.278 0.169 145.8 100.8 -99999.99
6/27/2021 5:15:00 PM 25.65 78.17 0.169 166.3 101.2 -99999.99
6/27/2021 5:30:00 PM 25.58 78.044 0.169 167.2 99.8 -99999.99
6/27/2021 5:45:00 PM 25.51 77.918 0.169 166.8 98.5 -99999.99
6/27/2021 6:00:00 PM 25.46 77.828 0.169 168.3 97.5 -99999.99
6/27/2021 6:15:00 PM 25.4 77.72 0.169 180.2 96.1 -99999.99
6/27/2021 6:30:00 PM 25.34 77.612 0.17 196.7 95.2 -99999.99
6/27/2021 6:45:00 PM 25.27 77.486 0.17 191.3 94.9 -99999.99
6/27/2021 7:00:00 PM 25.2 77.36 0.17 176.5 93.4 -99999.99
6/27/2021 7:15:00 PM 25.17 77.306 0.17 177.3 92.3 -99999.99
6/27/2021 7:30:00 PM 25.1 77.18 0.17 188.5 91.6 -99999.99
6/27/2021 7:45:00 PM 25.02 77.036 0.17 195.5 90.7 -99999.99
6/27/2021 8:00:00 PM 24.92 76.856 0.171 191.5 89.9 -99999.99
6/27/2021 8:15:00 PM 24.81 76.658 0.171 229.6 89.1 -99999.99
6/27/2021 8:30:00 PM 24.7 76.46 0.171 188.9 88.2 -99999.99
6/27/2021 8:45:00 PM 24.61 76.298 0.171 297.5 87.4 -99999.99
6/27/2021 9:00:00 PM 24.5 76.1 0.171 192.6 86.1 -99999.99
6/27/2021 9:15:00 PM 24.41 75.938 0.171 211.3 85.6 -99999.99
6/27/2021 9:30:00 PM 24.32 75.776 0.171 208.7 84.5 -99999.99
6/27/2021 9:45:00 PM 24.21 75.578 0.171 212.3 83.8 -99999.99
6/27/2021 10:00:00 PM 24.12 75.416 0.172 219.4 83.1 -99999.99
6/27/2021 10:15:00 PM 24.03 75.254 0.172 218.8 82.8 -99999.99
6/27/2021 10:30:00 PM 23.9 75.02 0.172 240.8 82 -99999.99
6/27/2021 10:45:00 PM 23.85 74.93 0.172 237.8 81.7 -99999.99
6/27/2021 11:00:00 PM 23.76 74.768 0.172 247.2 81.6 -99999.99
6/27/2021 11:15:00 PM 23.68 74.624 0.172 222 81.6 -99999.99
6/27/2021 11:30:00 PM 23.59 74.462 0.172 225.7 81.4 -99999.99
6/27/2021 11:45:00 PM 23.52 74.336 0.172 222.6 80.8 -99999.99
6/28/2021 12:00:00 AM 23.44 74.192 0.172 224.1 81 -99999.99
6/28/2021 12:15:00 AM 23.35 74.03 0.172 252.9 80.7 -99999.99
6/28/2021 12:30:00 AM 23.27 73.886 0.172 230.8 80.8 -99999.99
6/28/2021 12:45:00 AM 23.18 73.724 0.172 243.6 80.6 -99999.99
6/28/2021 1:00:00 AM 23.1 73.58 0.172 228.9 80.7 -99999.99
6/28/2021 1:15:00 AM 23.03 73.454 0.172 238.5 80.8 -99999.99
6/28/2021 1:30:00 AM 22.95 73.31 0.172 251.4 80.8 -99999.99
6/28/2021 1:45:00 AM 22.87 73.166 0.172 267 80.8 -99999.99
6/28/2021 2:00:00 AM 22.79 73.022 0.172 290.7 81.1 -99999.99
6/28/2021 2:15:00 AM 22.72 72.896 0.171 249.7 81.3 -99999.99
6/28/2021 2:30:00 AM 22.65 72.77 0.171 238 81.1 -99999.99
6/28/2021 2:45:00 AM 22.58 72.644 0.171 238 81.5 -99999.99
6/28/2021 3:00:00 AM 22.5 72.5 0.171 240.3 81.6 -99999.99
6/28/2021 3:15:00 AM 22.42 72.356 0.171 240.6 81.6 -99999.99
6/28/2021 3:30:00 AM 22.35 72.23 0.171 242.9 81.8 -99999.99
6/28/2021 3:45:00 AM 22.28 72.104 0.171 243.5 81.9 -99999.99
6/28/2021 4:00:00 AM 22.21 71.978 0.171 254.3 81.7 -99999.99
6/28/2021 4:15:00 AM 22.13 71.834 0.171 253.3 82 -99999.99
6/28/2021 4:30:00 AM 22.06 71.708 0.171 252.7 81.8 -99999.99
6/28/2021 4:45:00 AM 21.99 71.582 0.171 234.6 81.9 -99999.99
6/28/2021 5:00:00 AM 21.92 71.456 0.171 241.3 81.8 -99999.99
6/28/2021 5:15:00 AM 21.84 71.312 0.171 229.1 81.8 -99999.99
6/28/2021 5:30:00 AM 21.79 71.222 0.171 292 81.9 -99999.99
6/28/2021 5:45:00 AM 21.73 71.114 0.171 242.7 82.1 -99999.99
6/28/2021 6:00:00 AM 21.66 70.988 0.171 247.9 82.4 -99999.99
6/28/2021 6:15:00 AM 21.6 70.88 0.171 229.9 82.7 -99999.99
6/28/2021 6:30:00 AM 21.54 70.772 0.171 242.4 82.5 -99999.99
6/28/2021 6:45:00 AM 21.49 70.682 0.17 252.9 82.9 -99999.99
6/28/2021 7:00:00 AM 21.46 70.628 0.17 275.5 83 -99999.99
6/28/2021 7:15:00 AM 21.43 70.574 0.17 265 83 -99999.99
6/28/2021 7:30:00 AM 21.39 70.502 0.17 208.5 83.8 -99999.99
6/28/2021 7:45:00 AM 21.37 70.466 0.17 262.6 84.5 -99999.99
6/28/2021 8:00:00 AM 21.35 70.43 0.17 270.2 85 -99999.99
6/28/2021 8:15:00 AM 21.34 70.412 0.17 252.3 85.6 -99999.99
6/28/2021 8:30:00 AM 21.34 70.412 0.17 261.7 86.3 -99999.99
6/28/2021 8:45:00 AM 21.35 70.43 0.17 229.2 86.1 -99999.99
6/28/2021 9:00:00 AM 21.36 70.448 0.17 203.9 86.6 -99999.99
6/28/2021 9:15:00 AM 21.38 70.484 0.17 215.3 86.8 -99999.99
6/28/2021 9:30:00 AM 21.41 70.538 0.17 229.5 86.9 -99999.99
6/28/2021 9:45:00 AM 21.46 70.628 0.17 227.8 87.9 -99999.99
6/28/2021 10:00:00 AM 21.52 70.736 0.17 224.5 87.8 -99999.99
6/28/2021 10:15:00 AM 21.59 70.862 0.17 233.2 88.4 -99999.99
6/28/2021 10:30:00 AM 21.69 71.042 0.17 240.5 89.5 -99999.99
6/28/2021 10:45:00 AM 21.79 71.222 0.17 256.3 90.8 -99999.99
6/28/2021 11:00:00 AM 21.95 71.51 0.169 258.2 91.8 -99999.99
6/28/2021 11:15:00 AM 22.14 71.852 0.169 263.7 93.6 -99999.99
6/28/2021 11:30:00 AM 22.3 72.14 0.169 260.8 93.9 -99999.99
6/28/2021 11:45:00 AM 22.56 72.608 0.169 278.8 96.1 -99999.99
6/28/2021 12:00:00 PM 22.8 73.04 0.169 265.3 98.3 -99999.99
6/28/2021 12:15:00 PM 23.16 73.688 0.169 270.7 100.1 -99999.99
6/28/2021 12:30:00 PM 23.5 74.3 0.169 264.3 101.9 -99999.99
6/28/2021 12:45:00 PM 23.85 74.93 0.169 253.9 103.4 -99999.99
6/28/2021 1:00:00 PM 24.24 75.632 0.169 264.9 104.5 -99999.99
6/28/2021 1:15:00 PM 24.62 76.316 0.169 269.7 105.8 -99999.99
6/28/2021 1:30:00 PM 24.88 76.784 0.169 265.7 106.5 -99999.99
6/28/2021 1:45:00 PM 25.19 77.342 0.169 263.5 106.9 -99999.99
6/28/2021 2:00:00 PM 25.45 77.81 0.169 268.1 107.2 -99999.99
6/28/2021 2:15:00 PM 25.72 78.296 0.169 252 106.6 -99999.99
6/28/2021 2:30:00 PM 26 78.8 0.169 261.1 107.3 -99999.99
6/28/2021 2:45:00 PM 26.38 79.484 0.169 260.7 107.9 -99999.99
6/28/2021 3:00:00 PM 26.72 80.096 0.169 261.6 108.8 -99999.99
6/28/2021 3:15:00 PM 26.95 80.51 0.169 258.5 109.6 -99999.99
6/28/2021 3:30:00 PM 27.07 80.726 0.169 211.3 109.2 -99999.99
6/28/2021 3:45:00 PM 27.11 80.798 0.169 202.3 108 -99999.99
6/28/2021 4:00:00 PM 27.19 80.942 0.169 204.5 106.6 -99999.99
6/28/2021 4:15:00 PM 27.23 81.014 0.169 202.9 105 -99999.99
6/28/2021 4:30:00 PM 27.26 81.068 0.17 204.5 104.1 -99999.99
6/28/2021 4:45:00 PM 27.3 81.14 0.17 203.2 103.6 -99999.99
6/28/2021 5:00:00 PM 27.32 81.176 0.17 205.9 102.4 -99999.99
6/28/2021 5:15:00 PM 27.33 81.194 0.17 200.5 101.4 -99999.99
6/28/2021 5:30:00 PM 27.33 81.194 0.17 204.3 100.3 -99999.99
6/28/2021 5:45:00 PM 27.34 81.212 0.17 202.3 99.5 -99999.99
6/28/2021 6:00:00 PM 27.33 81.194 0.17 200.2 98.2 -99999.99
6/28/2021 6:15:00 PM 27.3 81.14 0.17 201 96.9 -99999.99
6/28/2021 6:30:00 PM 27.27 81.086 0.171 192.3 95.6 -99999.99
6/28/2021 6:45:00 PM 27.19 80.942 0.171 199 94 -99999.99
6/28/2021 7:00:00 PM 27.06 80.708 0.171 207.1 92.3 -99999.99
6/28/2021 7:15:00 PM 26.94 80.492 0.172 201 90.4 -99999.99
6/28/2021 7:30:00 PM 26.85 80.33 0.172 199.8 89.5 -99999.99
6/28/2021 7:45:00 PM 26.73 80.114 0.172 194.7 88.4 -99999.99
6/28/2021 8:00:00 PM 26.63 79.934 0.172 205.8 86.9 -99999.99
6/28/2021 8:15:00 PM 26.5 79.7 0.172 198.9 85.8 -99999.99
6/28/2021 8:30:00 PM 26.35 79.43 0.173 201.6 84.9 -99999.99
6/28/2021 8:45:00 PM 26.23 79.214 0.173 206.7 84.5 -99999.99
6/28/2021 9:00:00 PM 26.1 78.98 0.173 205.1 83.9 -99999.99
6/28/2021 9:15:00 PM 25.96 78.728 0.173 211.5 82.8 -99999.99
6/28/2021 9:30:00 PM 25.82 78.476 0.173 210.9 81.8 -99999.99
6/28/2021 9:45:00 PM 25.65 78.17 0.173 246.8 81.4 -99999.99
6/28/2021 10:00:00 PM 25.52 77.936 0.174 247.5 80.8 -99999.99
6/28/2021 10:15:00 PM 25.39 77.702 0.174 216.5 80.6 -99999.99
6/28/2021 10:30:00 PM 25.26 77.468 0.174 225 79.9 -99999.99
6/28/2021 10:45:00 PM 25.14 77.252 0.174 333.2 79.8 -99999.99
6/28/2021 11:00:00 PM 25.01 77.018 0.174 310.9 79.7 -99999.99
6/28/2021 11:15:00 PM 24.89 76.802 0.174 364 79.2 -99999.99
6/28/2021 11:30:00 PM 24.79 76.622 0.174 408.6 78.4 -99999.99
6/28/2021 11:45:00 PM 24.66 76.388 0.174 704.5 78.1 -99999.99
6/29/2021 12:00:00 AM 24.55 76.19 0.174 612.8 77.6 -99999.99
6/29/2021 12:15:00 AM 24.43 75.974 0.174 364.3 78.6 -99999.99
6/29/2021 12:30:00 AM 24.33 75.794 0.173 503.9 78.3 -99999.99
6/29/2021 12:45:00 AM 24.23 75.614 0.173 587.6 79 -99999.99
6/29/2021 1:00:00 AM 24.13 75.434 0.173 599.1 79.4 -99999.99
6/29/2021 1:15:00 AM 24.03 75.254 0.173 683.9 79 -99999.99
6/29/2021 1:30:00 AM 23.93 75.074 0.173 645.5 79.4 -99999.99
6/29/2021 1:45:00 AM 23.84 74.912 0.173 758.2 79.3 -99999.99
6/29/2021 2:00:00 AM 23.76 74.768 0.173 877.8 79.7 -99999.99
6/29/2021 2:15:00 AM 23.68 74.624 0.173 1213 79.8 -99999.99
6/29/2021 2:30:00 AM 23.6 74.48 0.173 1247 79.2 -99999.99
6/29/2021 2:45:00 AM 23.51 74.318 0.173 1134 79.4 -99999.99
6/29/2021 3:00:00 AM 23.43 74.174 0.173 1349 78.1 -99999.99
6/29/2021 3:15:00 AM 23.36 74.048 0.173 1115 79.2 -99999.99
6/29/2021 3:30:00 AM 23.29 73.922 0.172 1247 79.8 -99999.99
6/29/2021 3:45:00 AM 23.21 73.778 0.172 1295 79.6 -99999.99
6/29/2021 4:00:00 AM 23.08 73.544 0.172 1093 80.3 -99999.99
6/29/2021 4:15:00 AM 22.99 73.382 0.172 870.2 80.7 -99999.99
6/29/2021 4:30:00 AM 22.93 73.274 0.172 701.2 80.8 -99999.99
6/29/2021 4:45:00 AM 22.86 73.148 0.172 824.6 80.6 -99999.99
6/29/2021 5:00:00 AM 22.79 73.022 0.172 849.2 80.8 -99999.99
6/29/2021 5:15:00 AM 22.7 72.86 0.172 678.7 80.9 -99999.99
6/29/2021 5:30:00 AM 22.62 72.716 0.172 453.9 81.2 -99999.99
6/29/2021 5:45:00 AM 22.55 72.59 0.172 370.2 80.9 -99999.99
6/29/2021 6:00:00 AM 22.48 72.464 0.172 385.7 81 -99999.99
6/29/2021 6:15:00 AM 22.41 72.338 0.172 598.5 79.8 -99999.99
6/29/2021 6:30:00 AM 22.34 72.212 0.172 239.2 81.2 -99999.99
6/29/2021 6:45:00 AM 22.26 72.068 0.172 282.5 81.9 -99999.99
6/29/2021 7:00:00 AM 22.2 71.96 0.172 545.6 82.2 -99999.99
6/29/2021 7:15:00 AM 22.15 71.87 0.172 464.8 82.5 -99999.99
6/29/2021 7:30:00 AM 22.1 71.78 0.172 253 82.8 -99999.99
6/29/2021 7:45:00 AM 22.06 71.708 0.172 393.7 83.2 -99999.99
6/29/2021 8:00:00 AM 22.02 71.636 0.171 366.4 83.5 -99999.99
6/29/2021 8:15:00 AM 22 71.6 0.171 461.2 84.3 -99999.99
6/29/2021 8:30:00 AM 21.99 71.582 0.171 331.1 84.6 -99999.99
6/29/2021 8:45:00 AM 22 71.6 0.171 196.7 85 -99999.99
6/29/2021 9:00:00 AM 22.02 71.636 0.171 219.1 85.7 -99999.99
6/29/2021 9:15:00 AM 22.04 71.672 0.171 211.5 86 -99999.99
6/29/2021 9:30:00 AM 22.08 71.744 0.171 224.5 86.5 -99999.99
6/29/2021 9:45:00 AM 22.12 71.816 0.171 194.7 86.6 -99999.99
6/29/2021 10:00:00 AM 22.19 71.942 0.171 170.2 87.9 -99999.99
6/29/2021 10:15:00 AM 22.27 72.086 0.171 191 88.6 -99999.99
6/29/2021 10:30:00 AM 22.35 72.23 0.17 209.3 89.8 -99999.99
6/29/2021 10:45:00 AM 22.47 72.446 0.17 175.6 90.9 -99999.99
6/29/2021 11:00:00 AM 22.61 72.698 0.17 194 91.8 -99999.99
6/29/2021 11:15:00 AM 22.74 72.932 0.17 171.8 87.1 -99999.99
6/29/2021 11:30:00 AM 22.92 73.256 0.17 182.3 87.8 -99999.99
6/29/2021 11:45:00 AM 23.15 73.67 0.17 194.4 89.5 -99999.99
6/29/2021 12:00:00 PM 23.39 74.102 0.17 248.5 91.9 -99999.99
6/29/2021 12:15:00 PM 23.71 74.67799 0.17 339.6 93.8 -99999.99
6/29/2021 12:30:00 PM 24.09 75.362 0.169 274.9 96.4 -99999.99
6/29/2021 12:45:00 PM 24.46 76.028 0.169 302 100.3 -99999.99
6/29/2021 1:00:00 PM 24.86 76.748 0.169 292 101.4 -99999.99
6/29/2021 1:15:00 PM 25.24 77.432 0.169 299.6 102.6 -99999.99
6/29/2021 1:30:00 PM 25.68 78.224 0.169 292.9 104 -99999.99
6/29/2021 1:45:00 PM 26.03 78.854 0.169 271.4 104 -99999.99
6/29/2021 2:00:00 PM 26.33 79.394 0.169 242.7 105.3 -99999.99
6/29/2021 2:15:00 PM 26.72 80.096 0.17 278.9 103.6 -99999.99
6/29/2021 2:30:00 PM 27.13 80.834 0.169 244.9 103.7 -99999.99
6/29/2021 2:45:00 PM 27.48 81.464 0.169 240.7 105.7 -99999.99
6/29/2021 3:00:00 PM 27.8 82.04 0.169 244.3 106.8 -99999.99
6/29/2021 3:15:00 PM 28.1 82.58 0.169 267.7 106.7 -99999.99
6/29/2021 3:30:00 PM 28.37 83.066 0.17 254.7 105.9 -99999.99
6/29/2021 3:45:00 PM 28.52 83.336 0.17 201.6 104 -99999.99
6/29/2021 4:00:00 PM 28.57 83.426 0.17 246.1 104.1 -99999.99
6/29/2021 4:15:00 PM 28.68 83.624 0.17 233.3 103.4 -99999.99
6/29/2021 4:30:00 PM 28.73 83.714 0.17 275.8 101.8 -99999.99
6/29/2021 4:45:00 PM 28.68 83.624 0.17 266.7 100.5 -99999.99
6/29/2021 5:00:00 PM 28.66 83.588 0.17 262.4 98.6 -99999.99
6/29/2021 5:15:00 PM 28.62 83.51601 0.17 263.3 96.4 -99999.99
6/29/2021 5:30:00 PM 28.57 83.426 0.171 277.8 92 -99999.99
6/29/2021 5:45:00 PM 28.52 83.336 0.171 254.1 91.6 -99999.99
6/29/2021 6:00:00 PM 28.51 83.318 0.171 252.4 91.1 -99999.99
6/29/2021 6:15:00 PM 28.48 83.264 0.171 251.6 88 -99999.99
6/29/2021 6:30:00 PM 28.4 83.12 0.172 264.5 86.1 -99999.99
6/29/2021 6:45:00 PM 28.29 82.922 0.172 281.5 89 -99999.99
6/29/2021 7:00:00 PM 28.13 82.634 0.172 248.2 86.2 -99999.99
6/29/2021 7:15:00 PM 28.05 82.49 0.172 289.9 82.9 -99999.99
6/29/2021 7:30:00 PM 27.91 82.238 0.173 268.9 82.2 -99999.99
6/29/2021 7:45:00 PM 27.74 81.932 0.173 289.4 81.6 -99999.99
6/29/2021 8:00:00 PM 27.5 81.5 0.174 318.7 79.4 -99999.99
6/29/2021 8:15:00 PM 27.42 81.356 0.173 281.8 80.6 -99999.99
6/29/2021 8:30:00 PM 27.27 81.086 0.174 310 80.9 -99999.99
6/29/2021 8:45:00 PM 27.13 80.834 0.174 249.4 80.7 -99999.99
6/29/2021 9:00:00 PM 26.99 80.582 0.174 311.2 81 -99999.99
6/29/2021 9:15:00 PM 26.84 80.312 0.174 271.6 80.1 -99999.99
6/29/2021 9:30:00 PM 26.67 80.006 0.174 300.3 77.2 -99999.99
6/29/2021 9:45:00 PM 26.56 79.808 0.174 238.5 71.4 -99999.99
6/29/2021 10:00:00 PM 26.39 79.502 0.174 261.9 71.8 -99999.99
6/29/2021 10:15:00 PM 26.25 79.25 0.174 270.2 73.3 -99999.99
6/29/2021 10:30:00 PM 26.08 78.944 0.174 236.9 74.8 -99999.99
6/29/2021 10:45:00 PM 25.92 78.656 0.174 220.8 76.3 -99999.99
6/29/2021 11:00:00 PM 25.78 78.404 0.174 260.7 74.4 -99999.99
6/29/2021 11:15:00 PM 25.61 78.098 0.174 170 74.1 -99999.99
6/29/2021 11:30:00 PM 25.45 77.81 0.174 239.3 73.2 -99999.99
6/29/2021 11:45:00 PM 25.36 77.648 0.174 268.1 75.9 -99999.99
6/30/2021 12:00:00 AM 25.24 77.432 0.174 223.4 76.5 -99999.99
6/30/2021 12:15:00 AM 25.12 77.216 0.174 176.6 75.1 -99999.99
6/30/2021 12:30:00 AM 25 77 0.174 257.2 74.3 -99999.99
6/30/2021 12:45:00 AM 24.9 76.82 0.174 177.3 76.7 -99999.99
6/30/2021 1:00:00 AM 24.81 76.658 0.174 247.5 77.8 -99999.99
6/30/2021 1:15:00 AM 24.71 76.478 0.174 207.2 77.9 -99999.99
6/30/2021 1:30:00 AM 24.63 76.334 0.174 295.6 76.8 -99999.99
6/30/2021 1:45:00 AM 24.52 76.136 0.174 328.8 74.4 -99999.99
6/30/2021 2:00:00 AM 24.42 75.956 0.174 412.7 76.2 -99999.99
6/30/2021 2:15:00 AM 24.33 75.794 0.173 366.7 77.6 -99999.99
6/30/2021 2:30:00 AM 24.23 75.614 0.173 406.2 78.5 -99999.99
6/30/2021 2:45:00 AM 24.14 75.452 0.173 407.4 78.6 -99999.99
6/30/2021 3:00:00 AM 24.05 75.29 0.173 533.1 78.7 -99999.99
6/30/2021 3:15:00 AM 23.96 75.128 0.173 422.2 79 -99999.99
6/30/2021 3:30:00 AM 23.87 74.966 0.173 380.9 79.1 -99999.99
6/30/2021 3:45:00 AM 23.78 74.804 0.173 473.1 79.3 -99999.99
6/30/2021 4:00:00 AM 23.69 74.642 0.173 405.7 79.4 -99999.99
6/30/2021 4:15:00 AM 23.6 74.48 0.173 382 79.4 -99999.99
6/30/2021 4:30:00 AM 23.51 74.318 0.173 388.7 79.5 -99999.99
6/30/2021 4:45:00 AM 23.41 74.138 0.173 315.1 79.7 -99999.99
6/30/2021 5:00:00 AM 23.32 73.976 0.173 351 79.9 -99999.99
6/30/2021 5:15:00 AM 23.23 73.814 0.173 471.8 79.9 -99999.99
6/30/2021 5:30:00 AM 23.13 73.634 0.173 389.3 79.9 -99999.99
6/30/2021 5:45:00 AM 23.08 73.544 0.172 359.8 78.7 -99999.99
6/30/2021 6:00:00 AM 22.97 73.346 0.172 249.7 79.6 -99999.99
6/30/2021 6:15:00 AM 22.88 73.184 0.172 315.8 80.1 -99999.99
6/30/2021 6:30:00 AM 22.81 73.058 0.172 289.3 79.6 -99999.99
6/30/2021 6:45:00 AM 22.73 72.914 0.172 245 79.7 -99999.99
6/30/2021 7:00:00 AM 22.66 72.788 0.172 211.2 80.2 -99999.99
6/30/2021 7:15:00 AM 22.6 72.68 0.172 231.8 80.6 -99999.99
6/30/2021 7:30:00 AM 22.54 72.57201 0.172 222.8 80.6 -99999.99
6/30/2021 7:45:00 AM 22.49 72.482 0.172 230.8 81.1 -99999.99
6/30/2021 8:00:00 AM 22.45 72.41 0.172 262.8 80.8 -99999.99
6/30/2021 8:15:00 AM 22.43 72.374 0.172 248.9 81.2 -99999.99
6/30/2021 8:30:00 AM 22.4 72.32 0.172 281.6 81.9 -99999.99
6/30/2021 8:45:00 AM 22.39 72.302 0.172 312.9 82.3 -99999.99
6/30/2021 9:00:00 AM 22.41 72.338 0.172 331.2 81.7 -99999.99
6/30/2021 9:15:00 AM 22.44 72.392 0.172 323.5 81.4 -99999.99
6/30/2021 9:30:00 AM 22.48 72.464 0.172 361.1 80.4 -99999.99
6/30/2021 9:45:00 AM 22.55 72.59 0.172 326.3 75.7 -99999.99
6/30/2021 10:00:00 AM 22.64 72.752 0.171 280.3 79.3 -99999.99
6/30/2021 10:15:00 AM 22.72 72.896 0.171 288.8 81.3 -99999.99
6/30/2021 10:30:00 AM 22.8 73.04 0.171 294.1 87.7 -99999.99
6/30/2021 10:45:00 AM 22.94 73.292 0.171 217.4 90.4 -99999.99
6/30/2021 11:00:00 AM 23.03 73.454 0.171 240.4 91.8 -99999.99
6/30/2021 11:15:00 AM 23.15 73.67 0.17 225.7 90.6 -99999.99
6/30/2021 11:30:00 AM 23.31 73.958 0.17 240.1 89.7 -99999.99
6/30/2021 11:45:00 AM 23.5 74.3 0.171 236.1 90 -99999.99
6/30/2021 12:00:00 PM 23.73 74.714 0.17 236.2 92.3 -99999.99
6/30/2021 12:15:00 PM 24 75.2 0.17 255.1 94.4 -99999.99
6/30/2021 12:30:00 PM 24.27 75.686 0.17 244.4 97.6 -99999.99
6/30/2021 12:45:00 PM 24.59 76.262 0.17 251 99.2 -99999.99
6/30/2021 1:00:00 PM 24.88 76.784 0.17 245.2 100.9 -99999.99
6/30/2021 1:15:00 PM 25.24 77.432 0.17 243.9 102.1 -99999.99
6/30/2021 1:30:00 PM 25.66 78.188 0.169 244.9 102.8 -99999.99
6/30/2021 1:45:00 PM 25.96 78.728 0.169 257.5 103.3 -99999.99
6/30/2021 2:00:00 PM 26.33 79.394 0.169 224.9 104.4 -99999.99
6/30/2021 2:15:00 PM 26.79 80.222 0.169 228.9 106 -99999.99
6/30/2021 2:30:00 PM 27.29 81.122 0.169 216.2 107.4 -99999.99
6/30/2021 2:45:00 PM 27.71 81.878 0.169 231.5 108.7 -99999.99
6/30/2021 3:00:00 PM 27.95 82.31 0.169 222.5 109.7 -99999.99
6/30/2021 3:15:00 PM 28.15 82.67 0.17 228.3 110 -99999.99
6/30/2021 3:30:00 PM 28.32 82.976 0.169 226.6 107.7 -99999.99
6/30/2021 3:45:00 PM 28.38 83.084 0.17 223.7 105.7 -99999.99
6/30/2021 4:00:00 PM 28.41 83.138 0.17 220.7 103.3 -99999.99
6/30/2021 4:15:00 PM 28.41 83.138 0.17 226.7 101.4 -99999.99
6/30/2021 4:30:00 PM 28.47 83.24599 0.17 226 98.4 -99999.99
6/30/2021 4:45:00 PM 28.49 83.282 0.17 224.6 98.2 -99999.99
6/30/2021 5:00:00 PM 28.49 83.282 0.17 214.4 94.3 -99999.99
6/30/2021 5:15:00 PM 28.47 83.24599 0.171 196 94 -99999.99
6/30/2021 5:30:00 PM 28.45 83.21001 0.171 196.3 91.4 -99999.99
6/30/2021 5:45:00 PM 28.4 83.12 0.171 249.8 90.2 -99999.99
6/30/2021 6:00:00 PM 28.33 82.994 0.171 235.5 85.9 -99999.99
6/30/2021 6:15:00 PM 28.27 82.886 0.171 228.3 79.7 -99999.99
6/30/2021 6:30:00 PM 28.21 82.778 0.171 232.9 81.3 -99999.99
6/30/2021 6:45:00 PM 28.13 82.634 0.172 232.4 79.4 -99999.99
6/30/2021 7:00:00 PM 28.04 82.472 0.172 234.8 79 -99999.99
6/30/2021 7:15:00 PM 27.92 82.256 0.172 229.8 73.2 -99999.99
6/30/2021 7:30:00 PM 27.79 82.022 0.172 232.6 77.9 -99999.99
6/30/2021 7:45:00 PM 27.69 81.842 0.173 239.9 73.7 -99999.99
6/30/2021 8:00:00 PM 27.53 81.554 0.173 234.1 77.6 -99999.99
6/30/2021 8:15:00 PM 27.36 81.248 0.173 241.8 77.6 -99999.99
6/30/2021 8:30:00 PM 27.21 80.978 0.173 234.6 76.1 -99999.99
6/30/2021 8:45:00 PM 27.07 80.726 0.173 235.4 66.3 -99999.99
6/30/2021 9:00:00 PM 26.91 80.438 0.173 237.6 64.2 -99999.99
6/30/2021 9:15:00 PM 26.74 80.132 0.173 246.8 67.6 -99999.99
6/30/2021 9:30:00 PM 26.57 79.826 0.173 242.1 67.3 -99999.99
6/30/2021 9:45:00 PM 26.42 79.556 0.173 246.5 66.3 -99999.99
6/30/2021 10:00:00 PM 26.25 79.25 0.174 270 62.6 -99999.99
6/30/2021 10:15:00 PM 26.05 78.89 0.174 257.7 63.3 -99999.99
6/30/2021 10:30:00 PM 25.93 78.674 0.174 269.7 65 -99999.99
6/30/2021 10:45:00 PM 25.78 78.404 0.174 263.2 63.1 -99999.99
6/30/2021 11:00:00 PM 25.65 78.17 0.174 245.1 67.1 -99999.99
6/30/2021 11:15:00 PM 25.53 77.954 0.174 234 71.7 -99999.99
6/30/2021 11:30:00 PM 25.42 77.756 0.174 236.2 71.7 -99999.99
6/30/2021 11:45:00 PM 25.29 77.522 0.174 233.2 67.1 -99999.99
7/1/2021 12:00:00 AM 25.16 77.288 0.174 237.8 71.9 -99999.99
7/1/2021 12:15:00 AM 25.06 77.108 0.174 234.6 74.3 -99999.99
7/1/2021 12:30:00 AM 24.95 76.91 0.174 225.9 74.6 -99999.99
7/1/2021 12:45:00 AM 24.85 76.73 0.174 224.8 75.3 -99999.99
7/1/2021 1:00:00 AM 24.76 76.568 0.174 239.5 75.7 -99999.99
7/1/2021 1:15:00 AM 24.66 76.388 0.174 241.8 75.5 -99999.99
7/1/2021 1:30:00 AM 24.57 76.226 0.174 222.1 74.9 -99999.99
7/1/2021 1:45:00 AM 24.49 76.082 0.174 219.3 72.2 -99999.99
7/1/2021 2:00:00 AM 24.41 75.938 0.174 212.5 72.5 -99999.99
7/1/2021 2:15:00 AM 24.31 75.758 0.174 210.4 75 -99999.99
7/1/2021 2:30:00 AM 24.22 75.596 0.174 211 75.3 -99999.99
7/1/2021 2:45:00 AM 24.14 75.452 0.174 211.7 75.8 -99999.99
7/1/2021 3:00:00 AM 24.04 75.272 0.174 220.6 75.9 -99999.99
7/1/2021 3:15:00 AM 23.95 75.11 0.174 215.8 75 -99999.99
7/1/2021 3:30:00 AM 23.87 74.966 0.174 205.6 75.9 -99999.99
7/1/2021 3:45:00 AM 23.77 74.786 0.174 204 75.7 -99999.99
7/1/2021 4:00:00 AM 23.68 74.624 0.174 221.2 75.5 -99999.99
7/1/2021 4:15:00 AM 23.6 74.48 0.174 214.4 75.9 -99999.99
7/1/2021 4:30:00 AM 23.52 74.336 0.173 197.7 76.1 -99999.99
7/1/2021 4:45:00 AM 23.43 74.174 0.174 208.7 76.1 -99999.99
7/1/2021 5:00:00 AM 23.34 74.012 0.173 186.3 75.1 -99999.99
7/1/2021 5:15:00 AM 23.25 73.85 0.173 98.88 76.6 -99999.99
7/1/2021 5:30:00 AM 23.16 73.688 0.173 179.2 76.8 -99999.99
7/1/2021 5:45:00 AM 23.07 73.526 0.173 183.3 77.4 -99999.99
7/1/2021 6:00:00 AM 22.99 73.382 0.173 209.9 77.7 -99999.99
7/1/2021 6:15:00 AM 22.92 73.256 0.173 264.6 77.2 -99999.99
7/1/2021 6:30:00 AM 22.86 73.148 0.173 261.6 76.3 -99999.99
7/1/2021 6:45:00 AM 22.79 73.022 0.173 216.8 75.8 -99999.99
7/1/2021 7:00:00 AM 22.76 72.968 0.173 215.2 73.8 -99999.99
7/1/2021 7:15:00 AM 22.68 72.824 0.173 217.5 77.1 -99999.99
7/1/2021 7:30:00 AM 22.63 72.734 0.172 229.1 78.5 -99999.99
7/1/2021 7:45:00 AM 22.59 72.662 0.172 229.7 78 -99999.99
7/1/2021 8:00:00 AM 22.55 72.59 0.172 204 68.6 -99999.99
7/1/2021 8:15:00 AM 22.52 72.536 0.172 201.8 78 -99999.99
7/1/2021 8:30:00 AM 22.49 72.482 0.172 214.7 79.3 -99999.99
7/1/2021 8:45:00 AM 22.49 72.482 0.172 210.9 74.9 -99999.99
7/1/2021 9:00:00 AM 22.5 72.5 0.172 221.1 78.9 -99999.99
7/1/2021 9:15:00 AM 22.54 72.57201 0.172 219 78.8 -99999.99
7/1/2021 9:30:00 AM 22.57 72.626 0.172 218.4 80.9 -99999.99
7/1/2021 9:45:00 AM 22.59 72.662 0.172 218.1 82.2 -99999.99
7/1/2021 10:00:00 AM 22.59 72.662 0.172 223.5 82.1 -99999.99
7/1/2021 10:15:00 AM 22.59 72.662 0.171 212.2 85.1 -99999.99
7/1/2021 10:30:00 AM 22.58 72.644 0.171 213.4 85.8 -99999.99
7/1/2021 10:45:00 AM 22.58 72.644 0.171 213.8 85.1 -99999.99
7/1/2021 11:00:00 AM 22.57 72.626 0.17 219.9 84.3 -99999.99
7/1/2021 11:15:00 AM 22.6 72.68 0.17 231 80.1 -99999.99
7/1/2021 11:30:00 AM 22.64 72.752 0.17 224.9 79.5 -99999.99
7/1/2021 11:45:00 AM 22.69 72.842 0.17 217 78.2 -99999.99
7/1/2021 12:00:00 PM 22.73 72.914 0.169 203.9 75.9 -99999.99
7/1/2021 12:15:00 PM 22.85 73.13 0.168 196.8 74.4 -99999.99
7/1/2021 12:30:00 PM 22.96 73.328 0.167 199.3 79.4 -99999.99
7/1/2021 12:45:00 PM 23.09 73.562 0.167 222 86.2 -99999.99
7/1/2021 1:00:00 PM 23.26 73.868 0.166 224.4 87.9 -99999.99
7/1/2021 1:15:00 PM 23.39 74.102 0.166 194.6 92.6 -99999.99
7/1/2021 1:30:00 PM 23.51 74.318 0.166 199.6 93.5 -99999.99
7/1/2021 1:45:00 PM 23.59 74.462 0.166 210.1 94 -99999.99
7/1/2021 2:00:00 PM 23.7 74.66 0.166 212.8 93.1 -99999.99
7/1/2021 2:15:00 PM 23.9 75.02 0.166 238.7 92.8 -99999.99
7/1/2021 2:30:00 PM 24.06 75.308 0.165 202.9 95.7 -99999.99
7/1/2021 2:45:00 PM 24.24 75.632 0.165 220.1 99.3 -99999.99
7/1/2021 3:00:00 PM 24.34 75.812 0.166 260.3 101.8 -99999.99
7/1/2021 3:15:00 PM 24.37 75.866 0.166 279 100.1 -99999.99
7/1/2021 3:30:00 PM 24.36 75.848 0.165 395.7 94.6 -99999.99
7/1/2021 3:45:00 PM 24.34 75.812 0.165 366 83.7 -99999.99
7/1/2021 4:00:00 PM 24.32 75.776 0.166 387.5 77.1 -99999.99
7/1/2021 4:15:00 PM 24.28 75.704 0.166 373.6 78.6 -99999.99
7/1/2021 4:30:00 PM 24.25 75.65 0.166 338.8 69.1 -99999.99
7/1/2021 4:45:00 PM 24.21 75.578 0.166 411.5 73.6 -99999.99
7/1/2021 5:00:00 PM 24.12 75.416 0.164 435.4 78.8 -99999.99
7/1/2021 5:15:00 PM 24.11 75.398 0.165 438.8 70.1 -99999.99
7/1/2021 5:30:00 PM 24.11 75.398 0.165 425.9 68.5 -99999.99
7/1/2021 5:45:00 PM 24.11 75.398 0.165 523.9 66.8 -99999.99
7/1/2021 6:00:00 PM 24.09 75.362 0.165 566.7 66.6 -99999.99
7/1/2021 6:15:00 PM 24.07 75.326 0.164 747.3 64.2 -99999.99
7/1/2021 6:30:00 PM 24.04 75.272 0.164 788.4 75.1 -99999.99
7/1/2021 6:45:00 PM 23.99 75.182 0.164 832 76 -99999.99
7/1/2021 7:00:00 PM 23.93 75.074 0.165 902.5 72.2 -99999.99
7/1/2021 7:15:00 PM 23.83 74.894 0.166 836.8 71.4 -99999.99
7/1/2021 7:30:00 PM 23.78 74.804 0.166 4889 70.2 -99999.99
7/1/2021 7:45:00 PM 23.71 74.67799 0.166 4720 68.2 -99999.99
7/1/2021 8:00:00 PM 23.63 74.534 0.167 2729 76 -99999.99
7/1/2021 8:15:00 PM 23.58 74.444 0.167 2423 79.2 -99999.99
7/1/2021 8:30:00 PM 23.51 74.318 0.167 2547 81.4 -99999.99
7/1/2021 8:45:00 PM 23.45 74.21 0.167 2472 81.9 -99999.99
7/1/2021 9:00:00 PM 23.39 74.102 0.166 2288 81.2 -99999.99
7/1/2021 9:15:00 PM 23.3 73.94 0.166 1389 78.1 -99999.99
7/1/2021 9:30:00 PM 23.16 73.688 0.16 1024 80 -99999.99
7/1/2021 9:45:00 PM 23.08 73.544 0.16 1042 80.6 -99999.99
7/1/2021 10:00:00 PM 23 73.4 0.16 1280 80.3 -99999.99
7/1/2021 10:15:00 PM 22.92 73.256 0.159 1851 79.3 -99999.99
7/1/2021 10:30:00 PM 22.84 73.112 0.159 2142 79.9 -99999.99
7/1/2021 10:45:00 PM 22.76 72.968 0.16 1224 80.1 -99999.99
7/1/2021 11:00:00 PM 22.68 72.824 0.161 1104 80 -99999.99
7/1/2021 11:15:00 PM 22.62 72.716 0.162 1108 80.1 -99999.99
7/1/2021 11:30:00 PM 22.55 72.59 0.163 662.2 80.1 -99999.99
7/1/2021 11:45:00 PM 22.49 72.482 0.163 920.3 80 -99999.99
7/2/2021 12:00:00 AM 22.41 72.338 0.163 943.9 80 -99999.99
7/2/2021 12:15:00 AM 22.34 72.212 0.163 973.5 80.2 -99999.99
7/2/2021 12:30:00 AM 22.28 72.104 0.163 955.4 80.4 -99999.99
7/2/2021 12:45:00 AM 22.22 71.996 0.163 934.3 80.5 -99999.99
7/2/2021 1:00:00 AM 22.15 71.87 0.163 926.4 80.8 -99999.99
7/2/2021 1:15:00 AM 22.08 71.744 0.162 1058 80.8 -99999.99
7/2/2021 1:30:00 AM 22.01 71.618 0.161 2187 81.1 -99999.99
7/2/2021 1:45:00 AM 21.94 71.492 0.161 1006 81.2 -99999.99
7/2/2021 2:00:00 AM 21.89 71.402 0.161 1016 81.1 -99999.99
7/2/2021 2:15:00 AM 21.84 71.312 0.161 1002 81.3 -99999.99
7/2/2021 2:30:00 AM 21.8 71.24 0.161 1091 81.2 -99999.99
7/2/2021 2:45:00 AM 21.76 71.168 0.162 1102 80.8 -99999.99
7/2/2021 3:00:00 AM 21.72 71.096 0.162 1070 80.8 -99999.99
7/2/2021 3:15:00 AM 21.68 71.024 0.162 922.3 81.1 -99999.99
7/2/2021 3:30:00 AM 21.64 70.952 0.162 889.6 81.3 -99999.99
7/2/2021 3:45:00 AM 21.6 70.88 0.163 1246 81.4 -99999.99
7/2/2021 4:00:00 AM 21.56 70.808 0.163 1841 81.7 -99999.99
7/2/2021 4:15:00 AM 21.52 70.736 0.163 1974 82.1 -99999.99
7/2/2021 4:30:00 AM 21.47 70.646 0.163 1972 82.3 -99999.99
7/2/2021 4:45:00 AM 21.43 70.574 0.162 1938 82.4 -99999.99
7/2/2021 5:00:00 AM 21.4 70.52 0.162 1974 82.4 -99999.99
7/2/2021 5:15:00 AM 21.37 70.466 0.162 1695 82.4 -99999.99
7/2/2021 5:30:00 AM 21.34 70.412 0.162 1666 82.2 -99999.99
7/2/2021 5:45:00 AM 21.32 70.376 0.162 1560 82.1 -99999.99
7/2/2021 6:00:00 AM 21.29 70.32201 0.163 1426 82.2 -99999.99
7/2/2021 6:15:00 AM 21.26 70.268 0.163 1458 82.3 -99999.99
7/2/2021 6:30:00 AM 21.23 70.214 0.163 1451 82.3 -99999.99
7/2/2021 6:45:00 AM 21.21 70.17799 0.163 1420 82.4 -99999.99
7/2/2021 7:00:00 AM 21.18 70.124 0.163 1450 82.3 -99999.99
7/2/2021 7:15:00 AM 21.17 70.106 0.163 1402 81.9 -99999.99
7/2/2021 7:30:00 AM 21.14 70.052 0.163 1026 82.4 -99999.99
7/2/2021 7:45:00 AM 21.12 70.016 0.163 1036 82.3 -99999.99
7/2/2021 8:00:00 AM 21.09 69.962 0.163 816.7 82.3 -99999.99
7/2/2021 8:15:00 AM 21.08 69.944 0.163 761.7 82.3 -99999.99
7/2/2021 8:30:00 AM 21.06 69.908 0.163 739 82.7 -99999.99
7/2/2021 8:45:00 AM 21.04 69.872 0.163 704.8 82.7 -99999.99
7/2/2021 9:00:00 AM 21.03 69.854 0.163 1287 83.7 -99999.99
7/2/2021 9:15:00 AM 21.03 69.854 0.163 665.1 84.5 -99999.99
7/2/2021 9:30:00 AM 21.04 69.872 0.163 588.7 85.1 -99999.99
7/2/2021 9:45:00 AM 21.05 69.89 0.163 402.9 85.9 -99999.99
7/2/2021 10:00:00 AM 21.07 69.926 0.163 417.7 85.9 -99999.99
7/2/2021 10:15:00 AM 21.09 69.962 0.163 708.5 85.2 -99999.99
7/2/2021 10:30:00 AM 21.12 70.016 0.163 742 85.5 -99999.99
7/2/2021 10:45:00 AM 21.15 70.07 0.163 497.6 84 -99999.99
7/2/2021 11:00:00 AM 21.19 70.142 0.163 494 83.9 -99999.99
7/2/2021 11:15:00 AM 21.24 70.232 0.163 595.2 85.7 -99999.99
7/2/2021 11:30:00 AM 21.28 70.304 0.163 596.9 87.1 -99999.99
7/2/2021 11:45:00 AM 21.33 70.394 0.164 572.5 82.7 -99999.99
7/2/2021 12:00:00 PM 21.42 70.556 0.163 551.3 82.1 -99999.99
7/2/2021 12:15:00 PM 21.51 70.718 0.163 565.7 85.5 -99999.99
7/2/2021 12:30:00 PM 21.61 70.898 0.163 562.4 86.1 -99999.99
7/2/2021 12:45:00 PM 21.68 71.024 0.162 432.5 88.4 -99999.99
7/2/2021 1:00:00 PM 21.78 71.204 0.163 428.2 91 -99999.99
7/2/2021 1:15:00 PM 21.98 71.564 0.162 407.5 92.7 -99999.99
7/2/2021 1:30:00 PM 22.14 71.852 0.162 324.5 95.2 -99999.99
7/2/2021 1:45:00 PM 22.32 72.176 0.162 4459 96.4 -99999.99
7/2/2021 2:00:00 PM 22.54 72.57201 0.162 4386 100.4 -99999.99
7/2/2021 2:15:00 PM 22.75 72.95 0.162 4108 102.4 -99999.99
7/2/2021 2:30:00 PM 22.99 73.382 0.162 4032 103.8 -99999.99
7/2/2021 2:45:00 PM 23.15 73.67 0.162 4067 104.6 -99999.99
7/2/2021 3:00:00 PM 23.22 73.796 0.163 4091 104.9 -99999.99
7/2/2021 3:15:00 PM 23.24 73.832 0.163 3982 102.1 -99999.99
7/2/2021 3:30:00 PM 23.22 73.796 0.164 4018 96.8 -99999.99
7/2/2021 3:45:00 PM 23.24 73.832 0.164 4048 94.4 -99999.99
7/2/2021 4:00:00 PM 23.3 73.94 0.164 4022 94.3 -99999.99
7/2/2021 4:15:00 PM 23.44 74.192 0.165 3972 96.6 -99999.99
7/2/2021 4:30:00 PM 23.58 74.444 0.166 3925 97.4 -99999.99
7/2/2021 4:45:00 PM 23.57 74.426 0.167 3866 97.3 -99999.99
7/2/2021 5:00:00 PM 23.53 74.354 0.167 3855 90.5 -99999.99
7/2/2021 5:15:00 PM 23.44 74.192 0.168 3844 89.3 -99999.99
7/2/2021 5:30:00 PM 23.37 74.066 0.169 3888 90.8 -99999.99
7/2/2021 5:45:00 PM 23.35 74.03 0.169 3834 90.5 -99999.99
7/2/2021 6:00:00 PM 23.35 74.03 0.169 3817 85.9 -99999.99
7/2/2021 6:15:00 PM 23.33 73.994 0.169 3756 83.3 -99999.99
7/2/2021 6:30:00 PM 23.3 73.94 0.169 3735 79.2 -99999.99
7/2/2021 6:45:00 PM 23.23 73.814 0.17 3589 81.3 -99999.99
7/2/2021 7:00:00 PM 23.18 73.724 0.17 3570 86.8 -99999.99
7/2/2021 7:15:00 PM 23.1 73.58 0.17 3530 84.3 -99999.99
7/2/2021 7:30:00 PM 23.01 73.418 0.171 3616 82.2 -99999.99
7/2/2021 7:45:00 PM 22.91 73.238 0.171 3584 81.7 -99999.99
7/2/2021 8:00:00 PM 22.81 73.058 0.171 3584 82.1 -99999.99
7/2/2021 8:15:00 PM 22.7 72.86 0.171 3543 81.7 -99999.99
7/2/2021 8:30:00 PM 22.58 72.644 0.171 3568 84.1 -99999.99
7/2/2021 8:45:00 PM 22.46 72.42799 0.171 3537 84.1 -99999.99
7/2/2021 9:00:00 PM 22.35 72.23 0.172 3475 83.8 -99999.99
7/2/2021 9:15:00 PM 22.23 72.014 0.171 3478 83.6 -99999.99
7/2/2021 9:30:00 PM 22.11 71.798 0.171 3427 82.8 -99999.99
7/2/2021 9:45:00 PM 21.99 71.582 0.171 3472 82.5 -99999.99
7/2/2021 10:00:00 PM 21.87 71.366 0.17 2851 81.7 -99999.99
7/2/2021 10:15:00 PM 21.76 71.168 0.17 2859 81.3 -99999.99
7/2/2021 10:30:00 PM 21.64 70.952 0.17 2926 81.4 -99999.99
7/2/2021 10:45:00 PM 21.51 70.718 0.17 3036 81.2 -99999.99
7/2/2021 11:00:00 PM 21.39 70.502 0.169 2349 80.9 -99999.99
7/2/2021 11:15:00 PM 21.27 70.286 0.169 2952 80.5 -99999.99
7/2/2021 11:30:00 PM 21.14 70.052 0.169 2993 80.6 -99999.99
7/2/2021 11:45:00 PM 21.04 69.872 0.169 2875 80.1 -99999.99
7/3/2021 12:00:00 AM 20.92 69.656 0.169 2933 80.3 -99999.99
7/3/2021 12:15:00 AM 20.81 69.458 0.168 2935 80.2 -99999.99
7/3/2021 12:30:00 AM 20.71 69.278 0.168 2874 80 -99999.99
7/3/2021 12:45:00 AM 20.61 69.098 0.168 2876 80 -99999.99
7/3/2021 1:00:00 AM 20.51 68.918 0.168 2822 80.1 -99999.99
7/3/2021 1:15:00 AM 20.42 68.756 0.168 2854 79.8 -99999.99
7/3/2021 1:30:00 AM 20.32 68.576 0.167 2985 80.2 -99999.99
7/3/2021 1:45:00 AM 20.22 68.396 0.167 2885 80.2 -99999.99
7/3/2021 2:00:00 AM 20.1 68.18 0.167 2897 80.3 -99999.99
7/3/2021 2:15:00 AM 20 68 0.167 2943 80.6 -99999.99
7/3/2021 2:30:00 AM 19.89 67.802 0.167 2819 80.7 -99999.99
7/3/2021 2:45:00 AM 19.8 67.64 0.167 2781 80.9 -99999.99
7/3/2021 3:00:00 AM 19.71 67.478 0.166 2802 80.8 -99999.99
7/3/2021 3:15:00 AM 19.6 67.28 0.166 2804 81 -99999.99
7/3/2021 3:30:00 AM 19.51 67.118 0.166 2809 81.1 -99999.99
7/3/2021 3:45:00 AM 19.43 66.974 0.166 2773 81.4 -99999.99
7/3/2021 4:00:00 AM 19.34 66.812 0.166 2750 81.4 -99999.99
7/3/2021 4:15:00 AM 19.25 66.65 0.166 2737 81.2 -99999.99
7/3/2021 4:30:00 AM 19.17 66.506 0.166 2741 81.5 -99999.99
7/3/2021 4:45:00 AM 19.08 66.344 0.166 2777 81.6 -99999.99
7/3/2021 5:00:00 AM 18.99 66.182 0.166 2783 81.9 -99999.99
7/3/2021 5:15:00 AM 18.92 66.056 0.165 2758 82 -99999.99
7/3/2021 5:30:00 AM 18.85 65.93 0.165 2779 81.7 -99999.99
7/3/2021 5:45:00 AM 18.78 65.804 0.165 2763 81.5 -99999.99
7/3/2021 6:00:00 AM 18.71 65.67799 0.165 2743 81.6 -99999.99
7/3/2021 6:15:00 AM 18.66 65.588 0.165 2755 81.2 -99999.99
7/3/2021 6:30:00 AM 18.58 65.444 0.165 2773 81.4 -99999.99
7/3/2021 6:45:00 AM 18.51 65.318 0.165 2780 80.4 -99999.99
7/3/2021 7:00:00 AM 18.44 65.192 0.165 3313 81.6 -99999.99
7/3/2021 7:15:00 AM 18.41 65.138 0.165 3251 82.2 -99999.99
7/3/2021 7:30:00 AM 18.38 65.084 0.165 3250 82.5 -99999.99
7/3/2021 7:45:00 AM 18.33 64.994 0.165 3266 82.5 -99999.99
7/3/2021 8:00:00 AM 18.32 64.976 0.165 3102 83.1 -99999.99
7/3/2021 8:15:00 AM 18.31 64.958 0.165 2991 83.5 -99999.99
7/3/2021 8:30:00 AM 18.31 64.958 0.165 2983 83.3 -99999.99
7/3/2021 8:45:00 AM 18.31 64.958 0.165 2921 83 -99999.99
7/3/2021 9:00:00 AM 18.32 64.976 0.165 161.8 82.2 -99999.99
7/3/2021 9:15:00 AM 18.34 65.012 0.166 50.27 80.2 -99999.99
7/3/2021 9:30:00 AM 18.36 65.048 0.166 48.08 81.5 -99999.99
7/3/2021 9:45:00 AM 18.38 65.084 0.165 45.19 81 -99999.99
7/3/2021 10:00:00 AM 18.41 65.138 0.165 48.94 80 -99999.99
7/3/2021 10:15:00 AM 18.44 65.192 0.166 43.62 78.4 -99999.99
7/3/2021 10:30:00 AM 18.52 65.336 0.166 48.15 79.5 -99999.99
7/3/2021 10:45:00 AM 18.6 65.48 0.165 50.97 77.4 -99999.99
7/3/2021 11:00:00 AM 18.68 65.624 0.165 35.54 82.6 -99999.99
7/3/2021 11:15:00 AM 18.74 65.732 0.165 40.32 84.3 -99999.99
7/3/2021 11:30:00 AM 18.87 65.966 0.164 41.43 86.4 -99999.99
7/3/2021 11:45:00 AM 18.96 66.128 0.164 44.96 91.7 -99999.99
7/3/2021 12:00:00 PM 19.13 66.434 0.164 49.66 94.2 -99999.99
7/3/2021 12:15:00 PM 19.26 66.668 0.164 41.45 96.4 -99999.99
7/3/2021 12:30:00 PM 19.58 67.244 0.164 104.7 97.6 -99999.99
7/3/2021 12:45:00 PM 19.73 67.514 0.164 53.62 98.7 -99999.99
7/3/2021 1:00:00 PM 20.07 68.126 0.164 58.27 101.1 -99999.99
7/3/2021 1:15:00 PM 20.3 68.54 0.163 109.7 101.8 -99999.99
7/3/2021 1:30:00 PM 20.62 69.116 0.163 41.33 103.7 -99999.99
7/3/2021 1:45:00 PM 20.87 69.566 0.164 41.45 104.6 -99999.99
7/3/2021 2:00:00 PM 21.17 70.106 0.163 50.42 104.6 -99999.99
7/3/2021 2:15:00 PM 21.3 70.34 0.164 33.61 104.7 -99999.99
7/3/2021 2:30:00 PM 21.42 70.556 0.164 35.67 102.9 -99999.99
7/3/2021 2:45:00 PM 21.81 71.258 0.164 32.21 103.1 -99999.99
7/3/2021 3:00:00 PM 22.08 71.744 0.164 31.81 102.4 -99999.99
7/3/2021 3:15:00 PM 22.31 72.158 0.164 31.89 103.3 -99999.99
7/3/2021 3:30:00 PM 22.35 72.23 0.164 33.44 102.6 -99999.99
7/3/2021 3:45:00 PM 22.42 72.356 0.165 42.17 103.1 -99999.99
7/3/2021 4:00:00 PM 22.56 72.608 0.164 43.64 102.8 -99999.99
7/3/2021 4:15:00 PM 22.59 72.662 0.165 31.57 100.2 -99999.99
7/3/2021 4:30:00 PM 22.62 72.716 0.165 37.4 99.5 -99999.99
7/3/2021 4:45:00 PM 22.66 72.788 0.165 33.12 100.6 -99999.99
7/3/2021 5:00:00 PM 22.65 72.77 0.165 32.88 100.5 -99999.99
7/3/2021 5:15:00 PM 22.55 72.59 0.165 36.55 98 -99999.99
7/3/2021 5:30:00 PM 22.47 72.446 0.165 35.82 97.7 -99999.99
7/3/2021 5:45:00 PM 22.39 72.302 0.165 38.8 97.1 -99999.99
7/3/2021 6:00:00 PM 22.34 72.212 0.165 38.24 96.2 -99999.99
7/3/2021 6:15:00 PM 22.29 72.122 0.166 34.71 93.9 -99999.99
7/3/2021 6:30:00 PM 22.26 72.068 0.166 38.37 88.7 -99999.99
7/3/2021 6:45:00 PM 22.22 71.996 0.166 40.42 85.9 -99999.99
7/3/2021 7:00:00 PM 22.16 71.888 0.166 38.86 87.9 -99999.99
7/3/2021 7:15:00 PM 22.1 71.78 0.166 39.21 88.5 -99999.99
7/3/2021 7:30:00 PM 22.02 71.636 0.166 41.81 91.3 -99999.99
7/3/2021 7:45:00 PM 21.94 71.492 0.167 38.18 90.9 -99999.99
7/3/2021 8:00:00 PM 21.83 71.294 0.167 42.54 91.8 -99999.99
7/3/2021 8:15:00 PM 21.71 71.078 0.167 41.36 91.2 -99999.99
7/3/2021 8:30:00 PM 21.59 70.862 0.168 39.13 90 -99999.99
7/3/2021 8:45:00 PM 21.46 70.628 0.168 40.5 88.8 -99999.99
7/3/2021 9:00:00 PM 21.33 70.394 0.168 42.34 87.9 -99999.99
7/3/2021 9:15:00 PM 21.19 70.142 0.168 45.69 87.3 -99999.99
7/3/2021 9:30:00 PM 21.08 69.944 0.169 44.23 86.6 -99999.99
7/3/2021 9:45:00 PM 20.95 69.71 0.169 40.61 85.7 -99999.99
7/3/2021 10:00:00 PM 20.84 69.512 0.169 48.29 85.1 -99999.99
7/3/2021 10:15:00 PM 20.73 69.314 0.169 40.54 84.6 -99999.99
7/3/2021 10:30:00 PM 20.63 69.134 0.169 40.73 84.2 -99999.99
7/3/2021 10:45:00 PM 20.53 68.954 0.169 38.55 84 -99999.99
7/3/2021 11:00:00 PM 20.42 68.756 0.169 43.07 84 -99999.99
7/3/2021 11:15:00 PM 20.32 68.576 0.169 40.55 83.6 -99999.99
7/3/2021 11:30:00 PM 20.2 68.36 0.169 41.22 83.7 -99999.99
7/3/2021 11:45:00 PM 20.12 68.216 0.169 42.17 83.6 -99999.99
7/4/2021 12:00:00 AM 20.01 68.018 0.169 43.77 83.5 -99999.99
7/4/2021 12:15:00 AM 19.92 67.856 0.169 43.95 83.3 -99999.99
7/4/2021 12:30:00 AM 19.85 67.73 0.169 42.49 83.2 -99999.99
7/4/2021 12:45:00 AM 19.76 67.568 0.169 48.98 83.2 -99999.99
7/4/2021 1:00:00 AM 19.69 67.442 0.169 46.98 83.1 -99999.99
7/4/2021 1:15:00 AM 19.61 67.298 0.169 45.98 83.1 -99999.99
7/4/2021 1:30:00 AM 19.53 67.154 0.169 46.99 83.1 -99999.99
7/4/2021 1:45:00 AM 19.46 67.028 0.169 49.17 82.8 -99999.99
7/4/2021 2:00:00 AM 19.41 66.938 0.169 47.28 82.9 -99999.99
7/4/2021 2:15:00 AM 19.35 66.83 0.169 79.4 82.8 -99999.99
7/4/2021 2:30:00 AM 19.28 66.704 0.169 46.09 82.8 -99999.99
7/4/2021 2:45:00 AM 19.22 66.596 0.169 49.39 83 -99999.99
7/4/2021 3:00:00 AM 19.17 66.506 0.169 48.02 82.7 -99999.99
7/4/2021 3:15:00 AM 19.11 66.398 0.169 46.17 82.9 -99999.99
7/4/2021 3:30:00 AM 19.06 66.308 0.169 47.56 83.1 -99999.99
7/4/2021 3:45:00 AM 19.02 66.236 0.169 46.72 83.1 -99999.99
7/4/2021 4:00:00 AM 18.96 66.128 0.169 46.1 83.3 -99999.99
7/4/2021 4:15:00 AM 18.91 66.038 0.169 46.54 83.2 -99999.99
7/4/2021 4:30:00 AM 18.87 65.966 0.169 47.75 83.4 -99999.99
7/4/2021 4:45:00 AM 18.83 65.894 0.169 44.88 83.5 -99999.99
7/4/2021 5:00:00 AM 18.78 65.804 0.169 45.96 83.8 -99999.99
7/4/2021 5:15:00 AM 18.74 65.732 0.169 46.79 83.6 -99999.99
7/4/2021 5:30:00 AM 18.68 65.624 0.169 47.28 83.5 -99999.99
7/4/2021 5:45:00 AM 18.64 65.552 0.169 46.28 83.1 -99999.99
7/4/2021 6:00:00 AM 18.61 65.498 0.169 48.27 83.4 -99999.99
7/4/2021 6:15:00 AM 18.57 65.426 0.169 47.19 81.5 -99999.99
7/4/2021 6:30:00 AM 18.53 65.354 0.169 45.45 80 -99999.99
7/4/2021 6:45:00 AM 18.48 65.264 0.169 35.23 78.9 -99999.99
7/4/2021 7:00:00 AM 18.46 65.228 0.169 48.54 77.2 -99999.99
7/4/2021 7:15:00 AM 18.39 65.102 0.17 277.8 79.7 -99999.99
7/4/2021 7:30:00 AM 18.4 65.12 0.169 57.7 74.5 -99999.99
7/4/2021 7:45:00 AM 18.37 65.066 0.169 30.55 76.2 -99999.99
7/4/2021 8:00:00 AM 18.32 64.976 0.169 77.29 79.1 -99999.99
7/4/2021 8:15:00 AM 18.33 64.994 0.169 80.28 76.8 -99999.99
7/4/2021 8:30:00 AM 18.31 64.958 0.169 57.56 77 -99999.99
7/4/2021 8:45:00 AM 18.31 64.958 0.169 25.28 78.9 -99999.99
7/4/2021 9:00:00 AM 18.32 64.976 0.169 37.47 77.5 -99999.99
7/4/2021 9:15:00 AM 18.34 65.012 0.169 27.12 76.6 -99999.99
7/4/2021 9:30:00 AM 18.36 65.048 0.169 34.92 76.7 -99999.99
7/4/2021 9:45:00 AM 18.38 65.084 0.169 38.97 74.8 -99999.99
7/4/2021 10:00:00 AM 18.41 65.138 0.169 41.59 73.7 -99999.99
7/4/2021 10:15:00 AM 18.47 65.246 0.169 24.48 74.4 -99999.99
7/4/2021 10:30:00 AM 18.53 65.354 0.169 25.28 74.3 -99999.99
7/4/2021 10:45:00 AM 18.61 65.498 0.169 48.53 79 -99999.99
7/4/2021 11:00:00 AM 18.76 65.768 0.168 49.53 83.4 -99999.99
7/4/2021 11:15:00 AM 18.91 66.038 0.168 190 88.2 -99999.99
7/4/2021 11:30:00 AM 19.09 66.362 0.167 49.57 91.3 -99999.99
7/4/2021 11:45:00 AM 19.28 66.704 0.167 43.58 94.3 -99999.99
7/4/2021 12:00:00 PM 19.51 67.118 0.167 23.22 96.3 -99999.99
7/4/2021 12:15:00 PM 19.76 67.568 0.166 24.36 98.1 -99999.99
7/4/2021 12:30:00 PM 20.07 68.126 0.167 22.76 101 -99999.99
7/4/2021 12:45:00 PM 20.35 68.63 0.167 152.2 103 -99999.99
7/4/2021 1:00:00 PM 20.66 69.188 0.167 25.86 105.1 -99999.99
7/4/2021 1:15:00 PM 20.98 69.764 0.166 31.53 103.8 -99999.99
7/4/2021 1:30:00 PM 21.41 70.538 0.166 30.25 106.9 -99999.99
7/4/2021 1:45:00 PM 21.99 71.582 0.166 29.71 108.3 -99999.99
7/4/2021 2:00:00 PM 22.48 72.464 0.166 29.54 111.7 -99999.99
7/4/2021 2:15:00 PM 22.92 73.256 0.166 27.75 113.4 -99999.99
7/4/2021 2:30:00 PM 23.34 74.012 0.166 27.24 114.9 -99999.99
7/4/2021 2:45:00 PM 23.71 74.67799 0.167 28.04 116.6 -99999.99
7/4/2021 3:00:00 PM 24.05 75.29 0.167 41.12 115.7 -99999.99
7/4/2021 3:15:00 PM 24.36 75.848 0.166 27.06 116.2 -99999.99
7/4/2021 3:30:00 PM 24.57 76.226 0.166 28.04 116.6 -99999.99
7/4/2021 3:45:00 PM 24.79 76.622 0.166 27.42 115.7 -99999.99
7/4/2021 4:00:00 PM 24.89 76.802 0.166 26.74 114.8 -99999.99
7/4/2021 4:15:00 PM 24.92 76.856 0.166 27.81 112.6 -99999.99
7/4/2021 4:30:00 PM 24.97 76.946 0.167 26.53 109.2 -99999.99
7/4/2021 4:45:00 PM 24.96 76.92799 0.167 27.64 108.9 -99999.99
7/4/2021 5:00:00 PM 24.93 76.874 0.167 27 106.3 -99999.99
7/4/2021 5:15:00 PM 24.87 76.766 0.167 28.5 105.2 -99999.99
7/4/2021 5:30:00 PM 24.79 76.622 0.167 31.45 101.9 -99999.99
7/4/2021 5:45:00 PM 24.75 76.55 0.168 33.42 99.5 -99999.99
7/4/2021 6:00:00 PM 24.69 76.442 0.168 30.37 98.7 -99999.99
7/4/2021 6:15:00 PM 24.62 76.316 0.168 29.68 93.9 -99999.99
7/4/2021 6:30:00 PM 24.54 76.172 0.168 41.84 95.8 -99999.99
7/4/2021 6:45:00 PM 24.43 75.974 0.169 30.44 94.7 -99999.99
7/4/2021 7:00:00 PM 24.29 75.722 0.169 44.81 95.3 -99999.99
7/4/2021 7:15:00 PM 24.16 75.488 0.17 31.29 94 -99999.99
7/4/2021 7:30:00 PM 24.01 75.218 0.17 29.53 92.5 -99999.99
7/4/2021 7:45:00 PM 23.86 74.948 0.17 35.02 91.1 -99999.99
7/4/2021 8:00:00 PM 23.7 74.66 0.171 29.49 89.6 -99999.99
7/4/2021 8:15:00 PM 23.53 74.354 0.171 33.09 88.3 -99999.99
7/4/2021 8:30:00 PM 23.39 74.102 0.171 31.48 87.6 -99999.99
7/4/2021 8:45:00 PM 23.22 73.796 0.171 33.19 87 -99999.99
7/4/2021 9:00:00 PM 23.06 73.508 0.171 30.74 86.2 -99999.99
7/4/2021 9:15:00 PM 22.92 73.256 0.172 30.72 85.7 -99999.99
7/4/2021 9:30:00 PM 22.76 72.968 0.172 32.9 85.1 -99999.99
7/4/2021 9:45:00 PM 22.59 72.662 0.172 32.87 84.4 -99999.99
7/4/2021 10:00:00 PM 22.47 72.446 0.172 32.86 83.9 -99999.99
7/4/2021 10:15:00 PM 22.32 72.176 0.172 38.54 83.5 -99999.99
7/4/2021 10:30:00 PM 22.18 71.924 0.172 37.06 83.2 -99999.99
7/4/2021 10:45:00 PM 22.03 71.654 0.172 35.89 83 -99999.99
7/4/2021 11:00:00 PM 21.89 71.402 0.172 33.04 82.9 -99999.99
7/4/2021 11:15:00 PM 21.76 71.168 0.172 35.02 82.7 -99999.99
7/4/2021 11:30:00 PM 21.64 70.952 0.172 38.1 82.7 -99999.99
7/4/2021 11:45:00 PM 21.54 70.772 0.172 36.09 82.5 -99999.99
7/5/2021 12:00:00 AM 21.41 70.538 0.172 37.17 82.3 -99999.99
7/5/2021 12:15:00 AM 21.3 70.34 0.172 37.66 82.3 -99999.99
7/5/2021 12:30:00 AM 21.21 70.17799 0.171 41.59 82.3 -99999.99
7/5/2021 12:45:00 AM 21.12 70.016 0.172 37.4 82.3 -99999.99
7/5/2021 1:00:00 AM 21.01 69.818 0.171 38.1 82.4 -99999.99
7/5/2021 1:15:00 AM 20.93 69.674 0.171 39.71 82.3 -99999.99
7/5/2021 1:30:00 AM 20.81 69.458 0.171 38.81 82.2 -99999.99
7/5/2021 1:45:00 AM 20.73 69.314 0.171 39.09 82.3 -99999.99
7/5/2021 2:00:00 AM 20.63 69.134 0.171 39.17 82.6 -99999.99
7/5/2021 2:15:00 AM 20.54 68.972 0.171 38.57 82.6 -99999.99
7/5/2021 2:30:00 AM 20.45 68.81 0.171 38.5 82.5 -99999.99
7/5/2021 2:45:00 AM 20.35 68.63 0.171 41.45 82.4 -99999.99
7/5/2021 3:00:00 AM 20.26 68.468 0.171 41.77 82.6 -99999.99
7/5/2021 3:15:00 AM 20.16 68.288 0.171 42.3 82.6 -99999.99
7/5/2021 3:30:00 AM 20.05 68.09 0.171 41.36 82.7 -99999.99
7/5/2021 3:45:00 AM 19.97 67.946 0.171 35.23 82.9 -99999.99
7/5/2021 4:00:00 AM 19.86 67.748 0.171 36.19 83.1 -99999.99
7/5/2021 4:15:00 AM 19.78 67.604 0.171 35.84 83.1 -99999.99
7/5/2021 4:30:00 AM 19.68 67.424 0.171 36.07 83.4 -99999.99
7/5/2021 4:45:00 AM 19.6 67.28 0.171 36.83 83 -99999.99
7/5/2021 5:00:00 AM 19.51 67.118 0.171 39.2 83 -99999.99
7/5/2021 5:15:00 AM 19.42 66.956 0.171 38.89 82.9 -99999.99
7/5/2021 5:30:00 AM 19.31 66.758 0.171 40.08 82.7 -99999.99
7/5/2021 5:45:00 AM 19.22 66.596 0.17 40.31 82.8 -99999.99
7/5/2021 6:00:00 AM 19.12 66.416 0.171 42.61 82.3 -99999.99
7/5/2021 6:15:00 AM 19.07 66.326 0.17 43.23 81.2 -99999.99
7/5/2021 6:30:00 AM 18.98 66.164 0.17 51.88 81.2 -99999.99
7/5/2021 6:45:00 AM 18.91 66.038 0.171 44.73 83 -99999.99
7/5/2021 7:00:00 AM 18.86 65.948 0.17 69.9 82.4 -99999.99
7/5/2021 7:15:00 AM 18.78 65.804 0.17 58.69 83.5 -99999.99
7/5/2021 7:30:00 AM 18.72 65.696 0.17 54.31 84.3 -99999.99
7/5/2021 7:45:00 AM 18.69 65.642 0.17 53.51 84.9 -99999.99
7/5/2021 8:00:00 AM 18.64 65.552 0.17 49.96 84.1 -99999.99
7/5/2021 8:15:00 AM 18.63 65.534 0.17 50.61 84.5 -99999.99
7/5/2021 8:30:00 AM 18.61 65.498 0.17 58.15 83.8 -99999.99
7/5/2021 8:45:00 AM 18.62 65.516 0.17 61.49 83.3 -99999.99
7/5/2021 9:00:00 AM 18.63 65.534 0.17 43.46 84.1 -99999.99
7/5/2021 9:15:00 AM 18.65 65.57 0.17 51.67 83.4 -99999.99
7/5/2021 9:30:00 AM 18.69 65.642 0.17 68.43 83.6 -99999.99
7/5/2021 9:45:00 AM 18.75 65.75 0.169 55.84 81.7 -99999.99
7/5/2021 10:00:00 AM 18.79 65.82201 0.17 44.97 83.6 -99999.99
7/5/2021 10:15:00 AM 18.9 66.02 0.17 38.51 85.4 -99999.99
7/5/2021 10:30:00 AM 19.01 66.218 0.169 38.57 88.5 -99999.99
7/5/2021 10:45:00 AM 19.18 66.524 0.168 36.79 91.1 -99999.99
7/5/2021 11:00:00 AM 19.3 66.74 0.168 36.93 92.7 -99999.99
7/5/2021 11:15:00 AM 19.46 67.028 0.168 36.57 94.2 -99999.99
7/5/2021 11:30:00 AM 19.63 67.334 0.167 35.53 96.5 -99999.99
7/5/2021 11:45:00 AM 19.81 67.658 0.167 35.96 98.8 -99999.99
7/5/2021 12:00:00 PM 20.1 68.18 0.167 35.91 101.6 -99999.99
7/5/2021 12:15:00 PM 20.38 68.684 0.167 36.08 104.2 -99999.99
7/5/2021 12:30:00 PM 20.63 69.134 0.167 35.36 106.3 -99999.99
7/5/2021 12:45:00 PM 20.97 69.746 0.166 35.45 107.7 -99999.99
7/5/2021 1:00:00 PM 21.26 70.268 0.166 35.26 108.9 -99999.99
7/5/2021 1:15:00 PM 21.51 70.718 0.166 35.56 109.9 -99999.99
7/5/2021 1:30:00 PM 21.94 71.492 0.166 35.22 110.5 -99999.99
7/5/2021 1:45:00 PM 22.37 72.266 0.166 35.65 113.1 -99999.99
7/5/2021 2:00:00 PM 22.81 73.058 0.166 34.68 114.1 -99999.99
7/5/2021 2:15:00 PM 23.18 73.724 0.166 34.5 115.1 -99999.99
7/5/2021 2:30:00 PM 23.56 74.408 0.166 36.16 116 -99999.99
7/5/2021 2:45:00 PM 23.76 74.768 0.166 37.46 117.5 -99999.99
7/5/2021 3:00:00 PM 24.05 75.29 0.166 37.15 114.9 -99999.99
7/5/2021 3:15:00 PM 24.21 75.578 0.166 36.11 114.6 -99999.99
7/5/2021 3:30:00 PM 24.27 75.686 0.166 36.12 116.7 -99999.99
7/5/2021 3:45:00 PM 24.45 76.01 0.166 35.97 115 -99999.99
7/5/2021 4:00:00 PM 24.62 76.316 0.166 36.21 111 -99999.99
7/5/2021 4:15:00 PM 24.7 76.46 0.166 36.49 112.8 -99999.99
7/5/2021 4:30:00 PM 24.73 76.514 0.166 36.56 109.8 -99999.99
7/5/2021 4:45:00 PM 24.76 76.568 0.166 35.77 109.1 -99999.99
7/5/2021 5:00:00 PM 24.78 76.604 0.166 36.2 102.4 -99999.99
7/5/2021 5:15:00 PM 24.8 76.64 0.167 35.76 101.5 -99999.99
7/5/2021 5:30:00 PM 24.79 76.622 0.167 36.54 100.1 -99999.99
7/5/2021 5:45:00 PM 24.78 76.604 0.167 34.76 100 -99999.99
7/5/2021 6:00:00 PM 24.77 76.586 0.168 41.88 98.8 -99999.99
7/5/2021 6:15:00 PM 24.77 76.586 0.168 38.9 99.1 -99999.99
7/5/2021 6:30:00 PM 24.75 76.55 0.168 40.42 98.8 -99999.99
7/5/2021 6:45:00 PM 24.71 76.478 0.169 40.08 102.4 -99999.99
7/5/2021 7:00:00 PM 24.65 76.37 0.169 43.2 99 -99999.99
7/5/2021 7:15:00 PM 24.58 76.244 0.169 43.49 99.3 -99999.99
7/5/2021 7:30:00 PM 24.5 76.1 0.17 46.85 97.6 -99999.99
7/5/2021 7:45:00 PM 24.39 75.902 0.17 44.57 95.6 -99999.99
7/5/2021 8:00:00 PM 24.27 75.686 0.17 44.05 94.1 -99999.99
7/5/2021 8:15:00 PM 24.16 75.488 0.171 45.15 91.9 -99999.99
7/5/2021 8:30:00 PM 24.04 75.272 0.171 44.02 90.9 -99999.99
7/5/2021 8:45:00 PM 23.92 75.056 0.171 44.01 89.5 -99999.99
7/5/2021 9:00:00 PM 23.8 74.84 0.172 46.85 88.6 -99999.99
7/5/2021 9:15:00 PM 23.68 74.624 0.172 47.5 87.4 -99999.99
7/5/2021 9:30:00 PM 23.56 74.408 0.172 46.12 86.2 -99999.99
7/5/2021 9:45:00 PM 23.44 74.192 0.172 45.66 85.3 -99999.99
7/5/2021 10:00:00 PM 23.33 73.994 0.173 46.64 84.4 -99999.99
7/5/2021 10:15:00 PM 23.23 73.814 0.173 48.35 83.7 -99999.99
7/5/2021 10:30:00 PM 23.12 73.616 0.173 46.88 83.5 -99999.99
7/5/2021 10:45:00 PM 23 73.4 0.173 46.45 83 -99999.99
7/5/2021 11:00:00 PM 22.89 73.202 0.173 48.76 82.8 -99999.99
7/5/2021 11:15:00 PM 22.78 73.004 0.173 50.79 82.5 -99999.99
7/5/2021 11:30:00 PM 22.68 72.824 0.173 50.25 82.2 -99999.99
7/5/2021 11:45:00 PM 22.57 72.626 0.173 51.9 82 -99999.99
7/6/2021 12:00:00 AM 22.47 72.446 0.173 50.2 81.8 -99999.99
7/6/2021 12:15:00 AM 22.37 72.266 0.174 50.52 81.5 -99999.99
7/6/2021 12:30:00 AM 22.28 72.104 0.174 50.85 81.5 -99999.99
7/6/2021 12:45:00 AM 22.19 71.942 0.174 49.21 81.4 -99999.99
7/6/2021 1:00:00 AM 22.09 71.762 0.174 52.51 81.6 -99999.99
7/6/2021 1:15:00 AM 22.01 71.618 0.174 50.65 81.5 -99999.99
7/6/2021 1:30:00 AM 21.94 71.492 0.174 50.26 81.1 -99999.99
7/6/2021 1:45:00 AM 21.87 71.366 0.174 54.13 81.3 -99999.99
7/6/2021 2:00:00 AM 21.8 71.24 0.173 50.28 81.5 -99999.99
7/6/2021 2:15:00 AM 21.72 71.096 0.173 53.17 81.6 -99999.99
7/6/2021 2:30:00 AM 21.64 70.952 0.173 51.59 81.4 -99999.99
7/6/2021 2:45:00 AM 21.55 70.79 0.173 51.62 81.5 -99999.99
7/6/2021 3:00:00 AM 21.46 70.628 0.173 53.74 81.5 -99999.99
7/6/2021 3:15:00 AM 21.39 70.502 0.173 54.85 81.2 -99999.99
7/6/2021 3:30:00 AM 21.32 70.376 0.173 52.49 81.4 -99999.99
7/6/2021 3:45:00 AM 21.24 70.232 0.173 53.59 81.6 -99999.99
7/6/2021 4:00:00 AM 21.17 70.106 0.172 55.68 81.5 -99999.99
7/6/2021 4:15:00 AM 21.09 69.962 0.172 50.26 82.2 -99999.99
7/6/2021 4:30:00 AM 21.03 69.854 0.172 55.91 81.9 -99999.99
7/6/2021 4:45:00 AM 20.96 69.728 0.172 53.05 81.9 -99999.99
7/6/2021 5:00:00 AM 20.89 69.602 0.172 54.32 81.8 -99999.99
7/6/2021 5:15:00 AM 20.82 69.476 0.172 57.19 82 -99999.99
7/6/2021 5:30:00 AM 20.76 69.368 0.172 55.27 81.8 -99999.99
7/6/2021 5:45:00 AM 20.69 69.242 0.172 54.29 81.9 -99999.99
7/6/2021 6:00:00 AM 20.62 69.116 0.172 55.03 82.2 -99999.99
7/6/2021 6:15:00 AM 20.59 69.062 0.172 23.5 80.6 -99999.99
7/6/2021 6:30:00 AM 20.54 68.972 0.172 26.56 81.6 -99999.99
7/6/2021 6:45:00 AM 20.49 68.882 0.172 23.94 80.8 -99999.99
7/6/2021 7:00:00 AM 20.43 68.774 0.172 24.69 79.4 -99999.99
7/6/2021 7:15:00 AM 20.41 68.738 0.171 25.87 78.4 -99999.99
7/6/2021 7:30:00 AM 20.38 68.684 0.171 26.52 78.8 -99999.99
7/6/2021 7:45:00 AM 20.35 68.63 0.171 27.35 83.8 -99999.99
7/6/2021 8:00:00 AM 20.35 68.63 0.171 30.89 77.7 -99999.99
7/6/2021 8:15:00 AM 20.35 68.63 0.171 26.62 80.2 -99999.99
7/6/2021 8:30:00 AM 20.34 68.612 0.171 26.25 83.6 -99999.99
7/6/2021 8:45:00 AM 20.34 68.612 0.171 26.3 84.7 -99999.99
7/6/2021 9:00:00 AM 20.36 68.648 0.171 27.44 80.8 -99999.99
7/6/2021 9:15:00 AM 20.39 68.702 0.171 41.55 78.3 -99999.99
7/6/2021 9:30:00 AM 20.41 68.738 0.171 29.52 77.5 -99999.99
7/6/2021 9:45:00 AM 20.45 68.81 0.171 32.17 76.3 -99999.99
7/6/2021 10:00:00 AM 20.53 68.954 0.17 32.11 83.2 -99999.99
7/6/2021 10:15:00 AM 20.64 69.152 0.17 39.05 84.6 -99999.99
7/6/2021 10:30:00 AM 20.76 69.368 0.169 40.84 86.3 -99999.99
7/6/2021 10:45:00 AM 20.89 69.602 0.169 41.05 90 -99999.99
7/6/2021 11:00:00 AM 21.01 69.818 0.169 48.38 91.3 -99999.99
7/6/2021 11:15:00 AM 21.08 69.944 0.169 47.86 96.1 -99999.99
7/6/2021 11:30:00 AM 21.32 70.376 0.168 48.36 96.7 -99999.99
7/6/2021 11:45:00 AM 21.54 70.772 0.168 49 98.7 -99999.99
7/6/2021 12:00:00 PM 21.8 71.24 0.168 53.21 100.8 -99999.99
7/6/2021 12:15:00 PM 22.13 71.834 0.167 49.32 103 -99999.99
7/6/2021 12:30:00 PM 22.4 72.32 0.167 48.72 106.8 -99999.99
7/6/2021 12:45:00 PM 22.81 73.058 0.167 48.21 108.7 -99999.99
7/6/2021 1:00:00 PM 23.19 73.742 0.167 52.46 111.6 -99999.99
7/6/2021 1:15:00 PM 23.55 74.39 0.167 49.26 113.7 -99999.99
7/6/2021 1:30:00 PM 23.97 75.146 0.166 48.95 115.8 -99999.99
7/6/2021 1:45:00 PM 24.4 75.92 0.167 49.73 117.3 -99999.99
7/6/2021 2:00:00 PM 24.86 76.748 0.166 49.13 118.7 -99999.99
7/6/2021 2:15:00 PM 25.23 77.414 0.167 48.45 119.4 -99999.99
7/6/2021 2:30:00 PM 25.65 78.17 0.166 50.82 119.7 -99999.99
7/6/2021 2:45:00 PM 26.04 78.872 0.166 47.6 120.3 -99999.99
7/6/2021 3:00:00 PM 26.22 79.196 0.166 46.89 120.8 -99999.99
7/6/2021 3:15:00 PM 26.48 79.664 0.167 48.23 121.7 -99999.99
7/6/2021 3:30:00 PM 26.64 79.952 0.167 46.49 119.7 -99999.99
7/6/2021 3:45:00 PM 26.93 80.474 0.166 48.35 117.5 -99999.99
7/6/2021 4:00:00 PM 27.01 80.618 0.166 49.23 114.7 -99999.99
7/6/2021 4:15:00 PM 27.15 80.87 0.166 70.39 113.9 -99999.99
7/6/2021 4:30:00 PM 27.25 81.05 0.166 47.54 112.2 -99999.99
7/6/2021 4:45:00 PM 27.3 81.14 0.166 46.39 111.2 -99999.99
7/6/2021 5:00:00 PM 27.31 81.158 0.167 47.41 108.3 -99999.99
7/6/2021 5:15:00 PM 27.3 81.14 0.167 47.81 107.4 -99999.99
7/6/2021 5:30:00 PM 27.28 81.104 0.167 48.96 104.5 -99999.99
7/6/2021 5:45:00 PM 27.26 81.068 0.167 50.34 101.6 -99999.99
7/6/2021 6:00:00 PM 27.26 81.068 0.167 48.81 99.5 -99999.99
7/6/2021 6:15:00 PM 27.24 81.032 0.168 49.05 98.1 -99999.99
7/6/2021 6:30:00 PM 27.22 80.996 0.168 47.04 96.6 -99999.99
7/6/2021 6:45:00 PM 27.12 80.816 0.169 52.37 95.4 -99999.99
7/6/2021 7:00:00 PM 27.03 80.654 0.169 52.76 92.8 -99999.99
7/6/2021 7:15:00 PM 26.97 80.546 0.169 64.51 83.6 -99999.99
7/6/2021 7:30:00 PM 26.91 80.438 0.17 49.41 88.1 -99999.99
7/6/2021 7:45:00 PM 26.82 80.276 0.17 48.84 88.6 -99999.99
7/6/2021 8:00:00 PM 26.69 80.042 0.171 52.53 87.6 -99999.99
7/6/2021 8:15:00 PM 26.58 79.844 0.171 52.58 91.1 -99999.99
7/6/2021 8:30:00 PM 26.5 79.7 0.171 51.81 86.5 -99999.99
7/6/2021 8:45:00 PM 26.41 79.538 0.171 50.9 83.1 -99999.99
7/6/2021 9:00:00 PM 26.28 79.304 0.172 51.07 79.7 -99999.99
7/6/2021 9:15:00 PM 26.15 79.07 0.172 49.34 78.8 -99999.99
7/6/2021 9:30:00 PM 26.04 78.872 0.172 49.64 77.7 -99999.99
7/6/2021 9:45:00 PM 25.91 78.638 0.173 49.61 76.2 -99999.99
7/6/2021 10:00:00 PM 25.76 78.368 0.173 53.66 74.5 -99999.99
7/6/2021 10:15:00 PM 25.65 78.17 0.174 51.48 75.9 -99999.99
7/6/2021 10:30:00 PM 25.53 77.954 0.174 50.78 70.8 -99999.99
7/6/2021 10:45:00 PM 25.41 77.738 0.174 51.13 69.9 -99999.99
7/6/2021 11:00:00 PM 25.29 77.522 0.174 54.07 70 -99999.99
7/6/2021 11:15:00 PM 25.18 77.324 0.174 52.69 71.4 -99999.99
7/6/2021 11:30:00 PM 25.06 77.108 0.174 53.37 71.5 -99999.99
7/6/2021 11:45:00 PM 24.96 76.92799 0.175 52.5 72.6 -99999.99
7/7/2021 12:00:00 AM 24.85 76.73 0.175 53.91 74 -99999.99
7/7/2021 12:15:00 AM 24.77 76.586 0.175 54.18 73 -99999.99
7/7/2021 12:30:00 AM 24.68 76.424 0.175 56.09 70.9 -99999.99
7/7/2021 12:45:00 AM 24.56 76.208 0.175 58.65 75.1 -99999.99
7/7/2021 1:00:00 AM 24.48 76.064 0.175 58.17 75.1 -99999.99
7/7/2021 1:15:00 AM 24.39 75.902 0.175 57.8 72.3 -99999.99
7/7/2021 1:30:00 AM 24.3 75.74 0.175 57.42 75.8 -99999.99
7/7/2021 1:45:00 AM 24.21 75.578 0.174 57.27 76.4 -99999.99
7/7/2021 2:00:00 AM 24.13 75.434 0.174 57.66 74.1 -99999.99
7/7/2021 2:15:00 AM 24.03 75.254 0.174 56.52 74.3 -99999.99
7/7/2021 2:30:00 AM 23.95 75.11 0.174 57.21 75.3 -99999.99
7/7/2021 2:45:00 AM 23.86 74.948 0.174 56.45 73.1 -99999.99
7/7/2021 3:00:00 AM 23.78 74.804 0.174 56.17 74.8 -99999.99
7/7/2021 3:15:00 AM 23.69 74.642 0.174 54.23 75 -99999.99
7/7/2021 3:30:00 AM 23.61 74.498 0.174 55.95 75.4 -99999.99
7/7/2021 3:45:00 AM 23.52 74.336 0.174 52.81 75.6 -99999.99
7/7/2021 4:00:00 AM 23.44 74.192 0.174 54.45 75.9 -99999.99
7/7/2021 4:15:00 AM 23.35 74.03 0.174 58.99 73.7 -99999.99
7/7/2021 4:30:00 AM 23.28 73.904 0.174 60.04 75.1 -99999.99
7/7/2021 4:45:00 AM 23.19 73.742 0.173 56.85 74.1 -99999.99
7/7/2021 5:00:00 AM 23.11 73.598 0.173 58.8 75.2 -99999.99
7/7/2021 5:15:00 AM 23.03 73.454 0.173 59.22 76 -99999.99
7/7/2021 5:30:00 AM 22.94 73.292 0.173 57.99 75.7 -99999.99
7/7/2021 5:45:00 AM 22.87 73.166 0.173 58.62 76 -99999.99
7/7/2021 6:00:00 AM 22.8 73.04 0.173 61.04 75.1 -99999.99
7/7/2021 6:15:00 AM 22.72 72.896 0.173 60.45 74.1 -99999.99
7/7/2021 6:30:00 AM 22.64 72.752 0.173 59.19 76.5 -99999.99
7/7/2021 6:45:00 AM 22.55 72.59 0.173 59.16 71.3 -99999.99
7/7/2021 7:00:00 AM 22.48 72.464 0.173 60.98 71.7 -99999.99
7/7/2021 7:15:00 AM 22.43 72.374 0.173 60.39 72.2 -99999.99
7/7/2021 7:30:00 AM 22.37 72.266 0.173 63.87 74.5 -99999.99
7/7/2021 7:45:00 AM 22.32 72.176 0.173 58.56 75.6 -99999.99
7/7/2021 8:00:00 AM 22.28 72.104 0.172 66.56 73.7 -99999.99
7/7/2021 8:15:00 AM 22.24 72.032 0.172 65.51 75.1 -99999.99
7/7/2021 8:30:00 AM 22.2 71.96 0.172 126.5 76.2 -99999.99
7/7/2021 8:45:00 AM 22.2 71.96 0.172 68.66 78.7 -99999.99
7/7/2021 9:00:00 AM 22.2 71.96 0.172 48.1 77.7 -99999.99
7/7/2021 9:15:00 AM 22.2 71.96 0.172 51.85 76.2 -99999.99
7/7/2021 9:30:00 AM 22.22 71.996 0.172 77.08 71.5 -99999.99
7/7/2021 9:45:00 AM 22.23 72.014 0.172 69.65 71.9 -99999.99
7/7/2021 10:00:00 AM 22.26 72.068 0.172 72.84 74.5 -99999.99
7/7/2021 10:15:00 AM 22.33 72.194 0.172 69.65 76.8 -99999.99
7/7/2021 10:30:00 AM 22.4 72.32 0.17 677.4 75.5 -99999.99
7/7/2021 10:45:00 AM 22.49 72.482 0.17 682.5 78.5 -99999.99
7/7/2021 11:00:00 AM 22.63 72.734 0.17 684.1 82.6 -99999.99
7/7/2021 11:15:00 AM 22.77 72.986 0.169 685 90.6 -99999.99
7/7/2021 11:30:00 AM 22.99 73.382 0.169 683.6 93.8 -99999.99
7/7/2021 11:45:00 AM 23.18 73.724 0.169 691.9 97.1 -99999.99
7/7/2021 12:00:00 PM 23.4 74.12 0.168 701.9 101.9 -99999.99
7/7/2021 12:15:00 PM 23.62 74.516 0.168 693.3 105.6 -99999.99
7/7/2021 12:30:00 PM 23.97 75.146 0.168 694.7 107.5 -99999.99
7/7/2021 12:45:00 PM 24.31 75.758 0.167 693.3 109.1 -99999.99
7/7/2021 1:00:00 PM 24.62 76.316 0.167 657.4 111.2 -99999.99
7/7/2021 1:15:00 PM 24.94 76.892 0.167 610.7 113.5 -99999.99
7/7/2021 1:30:00 PM 25.27 77.486 0.167 614.4 115.2 -99999.99
7/7/2021 1:45:00 PM 25.49 77.882 0.167 625.9 116 -99999.99
7/7/2021 2:00:00 PM 25.82 78.476 0.166 635.3 116 -99999.99
7/7/2021 2:15:00 PM 26.12 79.016 0.167 636.2 117.4 -99999.99
7/7/2021 2:30:00 PM 26.51 79.718 0.167 635.9 118.1 -99999.99
7/7/2021 2:45:00 PM 26.92 80.456 0.166 638 120 -99999.99
7/7/2021 3:00:00 PM 27.23 81.014 0.167 634 121.1 -99999.99
7/7/2021 3:15:00 PM 27.45 81.41 0.167 638.5 120.9 -99999.99
7/7/2021 3:30:00 PM 27.71 81.878 0.167 635.5 119.5 -99999.99
7/7/2021 3:45:00 PM 27.83 82.094 0.166 636.4 121 -99999.99
7/7/2021 4:00:00 PM 27.91 82.238 0.166 630.4 119.4 -99999.99
7/7/2021 4:15:00 PM 27.98 82.364 0.166 633.2 118.3 -99999.99
7/7/2021 4:30:00 PM 28.02 82.436 0.166 645.2 115.8 -99999.99
7/7/2021 4:45:00 PM 28.01 82.418 0.166 641.6 113.5 -99999.99
7/7/2021 5:00:00 PM 27.99 82.382 0.166 639.4 111.8 -99999.99
7/7/2021 5:15:00 PM 27.95 82.31 0.167 641 111.3 -99999.99
7/7/2021 5:30:00 PM 27.9 82.22 0.168 645.5 110.3 -99999.99
7/7/2021 5:45:00 PM 27.82 82.076 0.168 653.2 106.2 -99999.99
7/7/2021 6:00:00 PM 27.76 81.968 0.169 653.1 105.4 -99999.99
7/7/2021 6:15:00 PM 27.72 81.896 0.169 651.5 101.8 -99999.99
7/7/2021 6:30:00 PM 27.63 81.734 0.169 656.4 99.4 -99999.99
7/7/2021 6:45:00 PM 27.54 81.57201 0.169 658.1 96.9 -99999.99
7/7/2021 7:00:00 PM 27.4 81.32 0.17 657.1 94.7 -99999.99
7/7/2021 7:15:00 PM 27.27 81.086 0.17 657.8 94 -99999.99
7/7/2021 7:30:00 PM 27.15 80.87 0.17 663.6 92.5 -99999.99
7/7/2021 7:45:00 PM 27.02 80.636 0.171 667.9 91.1 -99999.99
7/7/2021 8:00:00 PM 26.88 80.384 0.171 694.6 87.4 -99999.99
7/7/2021 8:15:00 PM 26.8 80.24 0.171 689.1 86.4 -99999.99
7/7/2021 8:30:00 PM 26.68 80.024 0.172 689.3 81.6 -99999.99
7/7/2021 8:45:00 PM 26.56 79.808 0.172 692.4 72.3 -99999.99
7/7/2021 9:00:00 PM 26.45 79.61 0.173 694.1 76.6 -99999.99
7/7/2021 9:15:00 PM 26.32 79.376 0.173 697.5 79.1 -99999.99
7/7/2021 9:30:00 PM 26.2 79.16 0.173 697 72.8 -99999.99
7/7/2021 9:45:00 PM 26.08 78.944 0.174 695.4 78 -99999.99
7/7/2021 10:00:00 PM 25.96 78.728 0.174 700.1 77.9 -99999.99
7/7/2021 10:15:00 PM 25.81 78.458 0.174 699.1 74.3 -99999.99
7/7/2021 10:30:00 PM 25.67 78.206 0.175 698.8 77.6 -99999.99
7/7/2021 10:45:00 PM 25.55 77.99 0.175 705.9 77.9 -99999.99
7/7/2021 11:00:00 PM 25.44 77.792 0.175 706.5 78.1 -99999.99
7/7/2021 11:15:00 PM 25.32 77.576 0.175 708.4 78 -99999.99
7/7/2021 11:30:00 PM 25.23 77.414 0.175 721.5 77.9 -99999.99
7/7/2021 11:45:00 PM 25.12 77.216 0.175 725.2 77.6 -99999.99
7/8/2021 12:00:00 AM 25.02 77.036 0.175 717.4 77.3 -99999.99
7/8/2021 12:15:00 AM 24.89 76.802 0.175 715.9 77.3 -99999.99
7/8/2021 12:30:00 AM 24.79 76.622 0.176 725.6 77.1 -99999.99
7/8/2021 12:45:00 AM 24.71 76.478 0.175 727.3 77.1 -99999.99
7/8/2021 1:00:00 AM 24.61 76.298 0.175 739.8 77 -99999.99
7/8/2021 1:15:00 AM 24.53 76.154 0.176 737.2 77 -99999.99
7/8/2021 1:30:00 AM 24.49 76.082 0.175 741.7 76.8 -99999.99
7/8/2021 1:45:00 AM 24.41 75.938 0.175 739.1 76.6 -99999.99
7/8/2021 2:00:00 AM 24.32 75.776 0.175 742.7 75.9 -99999.99
7/8/2021 2:15:00 AM 24.24 75.632 0.175 737.5 75 -99999.99
7/8/2021 2:30:00 AM 24.15 75.47 0.175 745.8 75.7 -99999.99
7/8/2021 2:45:00 AM 24.08 75.344 0.175 739.9 76.1 -99999.99
7/8/2021 3:00:00 AM 24 75.2 0.175 745.2 77.1 -99999.99
7/8/2021 3:15:00 AM 23.91 75.038 0.175 773.2 77.4 -99999.99
7/8/2021 3:30:00 AM 23.83 74.894 0.175 803.8 77.1 -99999.99
7/8/2021 3:45:00 AM 23.75 74.75 0.175 784.7 77.4 -99999.99
7/8/2021 4:00:00 AM 23.67 74.606 0.174 786.3 77.5 -99999.99
7/8/2021 4:15:00 AM 23.59 74.462 0.174 765.4 77.4 -99999.99
7/8/2021 4:30:00 AM 23.53 74.354 0.174 776.7 75.7 -99999.99
7/8/2021 4:45:00 AM 23.44 74.192 0.174 768.7 77.1 -99999.99
7/8/2021 5:00:00 AM 23.37 74.066 0.174 780.2 77.4 -99999.99
7/8/2021 5:15:00 AM 23.3 73.94 0.174 777.5 77.4 -99999.99
7/8/2021 5:30:00 AM 23.23 73.814 0.174 777.1 77.5 -99999.99
7/8/2021 5:45:00 AM 23.16 73.688 0.174 770.5 77.6 -99999.99
7/8/2021 6:00:00 AM 23.09 73.562 0.173 768.4 77.5 -99999.99
7/8/2021 6:15:00 AM 23.03 73.454 0.174 774.9 77.1 -99999.99
7/8/2021 6:30:00 AM 22.97 73.346 0.173 781.1 77 -99999.99
7/8/2021 6:45:00 AM 22.92 73.256 0.173 779 76.2 -99999.99
7/8/2021 7:00:00 AM 22.84 73.112 0.173 784.5 77.2 -99999.99
7/8/2021 7:15:00 AM 22.82 73.076 0.173 774.5 77.7 -99999.99
7/8/2021 7:30:00 AM 22.79 73.022 0.173 135.2 77.5 -99999.99
7/8/2021 7:45:00 AM 22.74 72.932 0.173 128.3 74.1 -99999.99
7/8/2021 8:00:00 AM 22.72 72.896 0.173 128.7 73.7 -99999.99
7/8/2021 8:15:00 AM 22.69 72.842 0.173 138.3 77.1 -99999.99
7/8/2021 8:30:00 AM 22.68 72.824 0.173 114.5 77.3 -99999.99
7/8/2021 8:45:00 AM 22.68 72.824 0.173 134.6 77.5 -99999.99
7/8/2021 9:00:00 AM 22.68 72.824 0.173 130.2 77.6 -99999.99
7/8/2021 9:15:00 AM 22.7 72.86 0.173 132.4 76.9 -99999.99
7/8/2021 9:30:00 AM 22.72 72.896 0.173 127.9 77.2 -99999.99
7/8/2021 9:45:00 AM 22.75 72.95 0.173 117.8 77.6 -99999.99
7/8/2021 10:00:00 AM 22.78 73.004 0.173 144.6 75.5 -99999.99
7/8/2021 10:15:00 AM 22.82 73.076 0.173 138.1 72.3 -99999.99
7/8/2021 10:30:00 AM 22.84 73.112 0.173 136 77.9 -99999.99
7/8/2021 10:45:00 AM 22.88 73.184 0.172 135.2 80.3 -99999.99
7/8/2021 11:00:00 AM 22.92 73.256 0.172 133.5 83.5 -99999.99
7/8/2021 11:15:00 AM 22.96 73.328 0.172 131.8 84.7 -99999.99
7/8/2021 11:30:00 AM 23.01 73.418 0.172 131.5 86.6 -99999.99
7/8/2021 11:45:00 AM 23.09 73.562 0.171 145.9 87.6 -99999.99
7/8/2021 12:00:00 PM 23.24 73.832 0.171 636.2 91.3 -99999.99
7/8/2021 12:15:00 PM 23.39 74.102 0.17 462.9 93.9 -99999.99
7/8/2021 12:30:00 PM 23.6 74.48 0.17 475.8 98.2 -99999.99
7/8/2021 12:45:00 PM 23.8 74.84 0.17 467.5 103.9 -99999.99
7/8/2021 1:00:00 PM 24.01 75.218 0.169 416.1 108.1 -99999.99
7/8/2021 1:15:00 PM 24.24 75.632 0.168 414.8 110.6 -99999.99
7/8/2021 1:30:00 PM 24.46 76.028 0.168 487.4 112.9 -99999.99
7/8/2021 1:45:00 PM 24.68 76.424 0.169 415.4 114.4 -99999.99
7/8/2021 2:00:00 PM 24.81 76.658 0.168 460.3 115.4 -99999.99
7/8/2021 2:15:00 PM 24.95 76.91 0.168 413.1 116.1 -99999.99
7/8/2021 2:30:00 PM 25.11 77.198 0.167 443.3 117 -99999.99
7/8/2021 2:45:00 PM 25.19 77.342 0.167 503.9 117 -99999.99
7/8/2021 3:00:00 PM 25.26 77.468 0.167 399.2 115.4 -99999.99
7/8/2021 3:15:00 PM 25.33 77.594 0.167 361.9 115.1 -99999.99
7/8/2021 3:30:00 PM 25.45 77.81 0.167 379.1 114.4 -99999.99
7/8/2021 3:45:00 PM 25.56 78.008 0.167 367.7 113.6 -99999.99
7/8/2021 4:00:00 PM 25.66 78.188 0.167 388.6 112.7 -99999.99
7/8/2021 4:15:00 PM 25.7 78.26 0.166 325.2 111.4 -99999.99
7/8/2021 4:30:00 PM 25.71 78.278 0.167 352.1 110.4 -99999.99
7/8/2021 4:45:00 PM 25.71 78.278 0.167 358.8 110 -99999.99
7/8/2021 5:00:00 PM 25.69 78.242 0.167 366.6 108.5 -99999.99
7/8/2021 5:15:00 PM 25.65 78.17 0.167 347.4 102.6 -99999.99
7/8/2021 5:30:00 PM 25.59 78.062 0.168 368.5 99.5 -99999.99
7/8/2021 5:45:00 PM 25.53 77.954 0.168 353.3 94.9 -99999.99
7/8/2021 6:00:00 PM 25.47 77.846 0.168 361.8 91.5 -99999.99
7/8/2021 6:15:00 PM 25.4 77.72 0.169 364 88.9 -99999.99
7/8/2021 6:30:00 PM 25.33 77.594 0.169 326.8 86.7 -99999.99
7/8/2021 6:45:00 PM 25.28 77.504 0.169 342.7 87 -99999.99
7/8/2021 7:00:00 PM 25.22 77.396 0.169 321.1 81.1 -99999.99
7/8/2021 7:15:00 PM 25.15 77.27 0.17 356.4 76.4 -99999.99
7/8/2021 7:30:00 PM 25.08 77.144 0.17 327.9 78.1 -99999.99
7/8/2021 7:45:00 PM 25.01 77.018 0.17 418.3 74.6 -99999.99
7/8/2021 8:00:00 PM 24.97 76.946 0.17 406 79.7 -99999.99
7/8/2021 8:15:00 PM 24.91 76.838 0.171 361.8 80.5 -99999.99
7/8/2021 8:30:00 PM 24.86 76.748 0.171 354.6 76.5 -99999.99
7/8/2021 8:45:00 PM 24.78 76.604 0.171 358.6 71.9 -99999.99
7/8/2021 9:00:00 PM 24.69 76.442 0.172 328 65.9 -99999.99
7/8/2021 9:15:00 PM 24.6 76.28 0.173 417.3 65.8 -99999.99
7/8/2021 9:30:00 PM 24.51 76.118 0.173 779.1 62 -99999.99
7/8/2021 9:45:00 PM 24.42 75.956 0.174 783.2 66.9 -99999.99
7/8/2021 10:00:00 PM 24.33 75.794 0.174 783.9 68.4 -99999.99
7/8/2021 10:15:00 PM 24.25 75.65 0.174 739.3 68.4 -99999.99
7/8/2021 10:30:00 PM 24.18 75.524 0.174 579.6 70.3 -99999.99
7/8/2021 10:45:00 PM 24.11 75.398 0.174 740.6 71.8 -99999.99
7/8/2021 11:00:00 PM 24.02 75.236 0.175 526.3 72.4 -99999.99
7/8/2021 11:15:00 PM 23.95 75.11 0.175 701.2 71.7 -99999.99
7/8/2021 11:30:00 PM 23.86 74.948 0.175 762.8 72.1 -99999.99
7/8/2021 11:45:00 PM 23.78 74.804 0.175 805.1 71 -99999.99
7/9/2021 12:00:00 AM 23.72 74.696 0.175 730.9 72.2 -99999.99
7/9/2021 12:15:00 AM 23.64 74.552 0.175 765.5 70.2 -99999.99
7/9/2021 12:30:00 AM 23.55 74.39 0.175 716.8 72.1 -99999.99
7/9/2021 12:45:00 AM 23.5 74.3 0.175 690.5 71.4 -99999.99
7/9/2021 1:00:00 AM 23.44 74.192 0.175 729.9 72 -99999.99
7/9/2021 1:15:00 AM 23.37 74.066 0.175 717.8 71.6 -99999.99
7/9/2021 1:30:00 AM 23.29 73.922 0.175 805.4 71.8 -99999.99
7/9/2021 1:45:00 AM 23.14 73.652 0.17 748.4 71.8 -99999.99
7/9/2021 2:00:00 AM 22.97 73.346 0.161 734.3 71.3 -99999.99
7/9/2021 2:15:00 AM 22.88 73.184 0.158 837.5 71.1 -99999.99
7/9/2021 2:30:00 AM 22.82 73.076 0.16 778.8 68.9 -99999.99
7/9/2021 2:45:00 AM 22.77 72.986 0.159 757.2 69.3 -99999.99
7/9/2021 3:00:00 AM 22.71 72.878 0.161 706.6 71.4 -99999.99
7/9/2021 3:15:00 AM 22.65 72.77 0.161 705.4 73.4 -99999.99
7/9/2021 3:30:00 AM 22.6 72.68 0.161 726.4 72.8 -99999.99
7/9/2021 3:45:00 AM 22.55 72.59 0.161 693.4 72.8 -99999.99
7/9/2021 4:00:00 AM 22.51 72.518 0.163 730.9 73 -99999.99
7/9/2021 4:15:00 AM 22.47 72.446 0.164 816.4 72.9 -99999.99
7/9/2021 4:30:00 AM 22.44 72.392 0.165 697.5 72.1 -99999.99
7/9/2021 4:45:00 AM 22.41 72.338 0.166 684.2 73.1 -99999.99
7/9/2021 5:00:00 AM 22.39 72.302 0.168 665.4 73.6 -99999.99
7/9/2021 5:15:00 AM 22.36 72.248 0.168 661.5 71.7 -99999.99
7/9/2021 5:30:00 AM 22.33 72.194 0.169 654.7 72.9 -99999.99
7/9/2021 5:45:00 AM 22.29 72.122 0.17 629.6 73.1 -99999.99
7/9/2021 6:00:00 AM 22.25 72.05 0.17 705 73.8 -99999.99
7/9/2021 6:15:00 AM 22.21 71.978 0.17 748.8 74.6 -99999.99
7/9/2021 6:30:00 AM 22.16 71.888 0.17 702.9 74.6 -99999.99
7/9/2021 6:45:00 AM 22.12 71.816 0.17 728 73.2 -99999.99
7/9/2021 7:00:00 AM 22.07 71.726 0.17 796.7 73 -99999.99
7/9/2021 7:15:00 AM 22.04 71.672 0.169 786.8 74.4 -99999.99
7/9/2021 7:30:00 AM 22 71.6 0.169 755.5 76.4 -99999.99
7/9/2021 7:45:00 AM 21.96 71.528 0.169 785.7 76.7 -99999.99
7/9/2021 8:00:00 AM 21.94 71.492 0.169 806.2 78.7 -99999.99
7/9/2021 8:15:00 AM 21.91 71.438 0.169 793.3 76.3 -99999.99
7/9/2021 8:30:00 AM 21.9 71.42 0.169 777.7 76.6 -99999.99
7/9/2021 8:45:00 AM 21.88 71.384 0.169 778.8 78.6 -99999.99
7/9/2021 9:00:00 AM 21.88 71.384 0.169 773.7 77 -99999.99
7/9/2021 9:15:00 AM 21.87 71.366 0.169 775.6 79.5 -99999.99
7/9/2021 9:30:00 AM 21.87 71.366 0.169 765.3 79.4 -99999.99
7/9/2021 9:45:00 AM 21.88 71.384 0.169 768.1 76.1 -99999.99
7/9/2021 10:00:00 AM 21.9 71.42 0.169 776.1 72.9 -99999.99
7/9/2021 10:15:00 AM 21.93 71.474 0.169 791.9 75.8 -99999.99
7/9/2021 10:30:00 AM 21.98 71.564 0.169 780.4 78.1 -99999.99
7/9/2021 10:45:00 AM 22.07 71.726 0.169 776.1 80.7 -99999.99
7/9/2021 11:00:00 AM 22.22 71.996 0.169 764 79.2 -99999.99
7/9/2021 11:15:00 AM 22.34 72.212 0.168 762.5 83.2 -99999.99
7/9/2021 11:30:00 AM 22.5 72.5 0.168 809.4 89.6 -99999.99
7/9/2021 11:45:00 AM 22.68 72.824 0.168 809.8 91.5 -99999.99
7/9/2021 12:00:00 PM 22.89 73.202 0.167 806.7 95.6 -99999.99
7/9/2021 12:15:00 PM 23.06 73.508 0.167 805.8 98 -99999.99
7/9/2021 12:30:00 PM 23.29 73.922 0.167 809.1 99.2 -99999.99
7/9/2021 12:45:00 PM 23.54 74.372 0.167 807.7 101.3 -99999.99
7/9/2021 1:00:00 PM 23.75 74.75 0.167 807.7 103.7 -99999.99
7/9/2021 1:15:00 PM 23.93 75.074 0.167 810.7 105.9 -99999.99
7/9/2021 1:30:00 PM 24.21 75.578 0.166 801.4 107.9 -99999.99
7/9/2021 1:45:00 PM 24.41 75.938 0.167 799.9 109.4 -99999.99
7/9/2021 2:00:00 PM 24.69 76.442 0.166 787.1 110.3 -99999.99
7/9/2021 2:15:00 PM 24.97 76.946 0.166 811.7 110.6 -99999.99
7/9/2021 2:30:00 PM 25.12 77.216 0.166 806.9 110.9 -99999.99
7/9/2021 2:45:00 PM 25.24 77.432 0.166 805.6 111.4 -99999.99
7/9/2021 3:00:00 PM 25.5 77.9 0.166 797.1 110.4 -99999.99
7/9/2021 3:15:00 PM 25.69 78.242 0.166 706.9 109.4 -99999.99
7/9/2021 3:30:00 PM 25.92 78.656 0.166 689.6 109.4 -99999.99
7/9/2021 3:45:00 PM 26.02 78.836 0.166 694.1 108.3 -99999.99
7/9/2021 4:00:00 PM 26.01 78.818 0.166 723.2 105.6 -99999.99
7/9/2021 4:15:00 PM 25.98 78.764 0.167 722.1 102.5 -99999.99
7/9/2021 4:30:00 PM 25.74 78.332 0.16 723.2 99 -99999.99
7/9/2021 4:45:00 PM 25.21 77.378 0.145 728.7 95 -99999.99
7/9/2021 5:00:00 PM 25.17 77.306 0.139 713.8 90 -99999.99
7/9/2021 5:15:00 PM 25.17 77.306 0.143 655.2 85.3 -99999.99
7/9/2021 5:30:00 PM 25.13 77.234 0.145 661.9 80.7 -99999.99
7/9/2021 5:45:00 PM 25.08 77.144 0.144 674.5 83.2 -99999.99
7/9/2021 6:00:00 PM 25.06 77.108 0.144 666.8 79.7 -99999.99
7/9/2021 6:15:00 PM 25.02 77.036 0.145 677.4 77.5 -99999.99
7/9/2021 6:30:00 PM 24.95 76.91 0.147 675.2 79.7 -99999.99
7/9/2021 6:45:00 PM 24.72 76.496 0.153 688.8 80.3 -99999.99
7/9/2021 7:00:00 PM 24.42 75.956 0.143 683.3 82.8 -99999.99
7/9/2021 7:15:00 PM 24.24 75.632 0.146 677.2 79.4 -99999.99
7/9/2021 7:30:00 PM 24.04 75.272 0.145 672.9 80 -99999.99
7/9/2021 7:45:00 PM 23.74 74.732 0.142 760.7 80.6 -99999.99
7/9/2021 8:00:00 PM 23.41 74.138 0.14 893.2 76.9 -99999.99
7/9/2021 8:15:00 PM 23.18 73.724 0.139 944 71.4 -99999.99
7/9/2021 8:30:00 PM 23.02 73.436 0.136 874.2 71 -99999.99
7/9/2021 8:45:00 PM 22.85 73.13 0.133 820.7 75 -99999.99
7/9/2021 9:00:00 PM 22.66 72.788 0.13 854 76.7 -99999.99
7/9/2021 9:15:00 PM 22.55 72.59 0.132 886.6 72.5 -99999.99
7/9/2021 9:30:00 PM 22.46 72.42799 0.134 897.3 71.9 -99999.99
7/9/2021 9:45:00 PM 22.39 72.302 0.135 996 71.1 -99999.99
7/9/2021 10:00:00 PM 22.34 72.212 0.136 920.5 67.5 -99999.99
7/9/2021 10:15:00 PM 22.26 72.068 0.135 895.8 67.4 -99999.99
7/9/2021 10:30:00 PM 22.13 71.834 0.134 436.2 70.9 -99999.99
7/9/2021 10:45:00 PM 22.02 71.636 0.134 433 73.5 -99999.99
7/9/2021 11:00:00 PM 21.93 71.474 0.133 430.4 73.3 -99999.99
7/9/2021 11:15:00 PM 21.87 71.366 0.132 444.1 76.9 -99999.99
7/9/2021 11:30:00 PM 21.81 71.258 0.131 472 77.8 -99999.99
7/9/2021 11:45:00 PM 21.75 71.15 0.129 478.4 78 -99999.99
7/10/2021 12:00:00 AM 21.69 71.042 0.129 487.2 78.7 -99999.99
7/10/2021 12:15:00 AM 21.62 70.916 0.129 510.5 78.4 -99999.99
7/10/2021 12:30:00 AM 21.56 70.808 0.129 527.9 73.8 -99999.99
7/10/2021 12:45:00 AM 21.5 70.7 0.128 568.7 71.4 -99999.99
7/10/2021 1:00:00 AM 21.46 70.628 0.128 697 66.6 -99999.99
7/10/2021 1:15:00 AM 21.41 70.538 0.128 754.2 65.8 -99999.99
7/10/2021 1:30:00 AM 21.37 70.466 0.129 708.8 70.6 -99999.99
7/10/2021 1:45:00 AM 21.36 70.448 0.13 689.9 73.9 -99999.99
7/10/2021 2:00:00 AM 21.36 70.448 0.119 612.9 76.4 -99999.99
7/10/2021 2:15:00 AM 21.35 70.43 0.133 492.9 73.8 -99999.99
7/10/2021 2:30:00 AM 21.34 70.412 0.134 356.8 74.6 -99999.99
7/10/2021 2:45:00 AM 21.32 70.376 0.135 352.8 74.7 -99999.99
7/10/2021 3:00:00 AM 21.31 70.358 0.136 352 73.9 -99999.99
7/10/2021 3:15:00 AM 21.27 70.286 0.137 357.5 74.2 -99999.99
7/10/2021 3:30:00 AM 21.22 70.196 0.138 361.6 72.8 -99999.99
7/10/2021 3:45:00 AM 21.17 70.106 0.139 354.8 72.4 -99999.99
7/10/2021 4:00:00 AM 21.13 70.034 0.139 347.7 68.8 -99999.99
7/10/2021 4:15:00 AM 21.09 69.962 0.14 349.5 69.3 -99999.99
7/10/2021 4:30:00 AM 21.02 69.836 0.141 356.2 69.9 -99999.99
7/10/2021 4:45:00 AM 20.96 69.728 0.143 430.1 69.2 -99999.99
7/10/2021 5:00:00 AM 20.89 69.602 0.145 282.4 71.9 -99999.99
7/10/2021 5:15:00 AM 20.84 69.512 0.146 275.4 71.3 -99999.99
7/10/2021 5:30:00 AM 20.77 69.386 0.147 273.5 72.4 -99999.99
7/10/2021 5:45:00 AM 20.72 69.296 0.148 277 72.1 -99999.99
7/10/2021 6:00:00 AM 20.66 69.188 0.149 272.7 71.3 -99999.99
7/10/2021 6:15:00 AM 20.59 69.062 0.15 280.8 72.7 -99999.99
7/10/2021 6:30:00 AM 20.55 68.99 0.15 284.6 72.7 -99999.99
7/10/2021 6:45:00 AM 20.5 68.9 0.151 284.7 70.7 -99999.99
7/10/2021 7:00:00 AM 20.46 68.828 0.151 285.8 66.1 -99999.99
7/10/2021 7:15:00 AM 20.4 68.72 0.151 282.4 72.7 -99999.99
7/10/2021 7:30:00 AM 20.36 68.648 0.151 282.8 72 -99999.99
7/10/2021 7:45:00 AM 20.36 68.648 0.151 289.8 65.9 -99999.99
7/10/2021 8:00:00 AM 20.31 68.558 0.151 286.8 68.6 -99999.99
7/10/2021 8:15:00 AM 20.29 68.522 0.15 292.6 73 -99999.99
7/10/2021 8:30:00 AM 20.29 68.522 0.15 289.9 70.1 -99999.99
7/10/2021 8:45:00 AM 20.29 68.522 0.15 290.7 70.8 -99999.99
7/10/2021 9:00:00 AM 20.29 68.522 0.15 291 69.1 -99999.99
7/10/2021 9:15:00 AM 20.3 68.54 0.15 290.5 71.5 -99999.99
7/10/2021 9:30:00 AM 20.3 68.54 0.15 292.9 72.3 -99999.99
7/10/2021 9:45:00 AM 20.32 68.576 0.15 293.7 74.7 -99999.99
7/10/2021 10:00:00 AM 20.35 68.63 0.15 296.8 69.9 -99999.99
7/10/2021 10:15:00 AM 20.39 68.702 0.15 348 68.2 -99999.99
7/10/2021 10:30:00 AM 20.43 68.774 0.15 329.1 64.6 -99999.99
7/10/2021 10:45:00 AM 20.53 68.954 0.15 325.7 61.2 -99999.99
7/10/2021 11:00:00 AM 20.63 69.134 0.15 329.8 62 -99999.99
7/10/2021 11:15:00 AM 20.75 69.35 0.15 331.2 63.7 -99999.99
7/10/2021 11:30:00 AM 20.89 69.602 0.15 330.4 65.9 -99999.99
7/10/2021 11:45:00 AM 21.04 69.872 0.15 329.9 76 -99999.99
7/10/2021 12:00:00 PM 21.17 70.106 0.15 330.4 71.8 -99999.99
7/10/2021 12:15:00 PM 21.31 70.358 0.15 333.8 69.7 -99999.99
7/10/2021 12:30:00 PM 21.43 70.574 0.15 237.2 70.4 -99999.99
7/10/2021 12:45:00 PM 21.55 70.79 0.15 241.8 66.3 -99999.99
7/10/2021 1:00:00 PM 21.7 71.06 0.15 245.6 64.1 -99999.99
7/10/2021 1:15:00 PM 21.88 71.384 0.15 244.9 74 -99999.99
7/10/2021 1:30:00 PM 22.13 71.834 0.15 243 77.2 -99999.99
7/10/2021 1:45:00 PM 22.33 72.194 0.15 245.9 78.9 -99999.99
7/10/2021 2:00:00 PM 22.54 72.57201 0.15 246.6 80.6 -99999.99
7/10/2021 2:15:00 PM 22.79 73.022 0.151 243.5 79.4 -99999.99
7/10/2021 2:30:00 PM 23.03 73.454 0.151 242.8 75 -99999.99
7/10/2021 2:45:00 PM 23.26 73.868 0.151 242.6 74.8 -99999.99
7/10/2021 3:00:00 PM 23.4 74.12 0.151 242.3 77.1 -99999.99
7/10/2021 3:15:00 PM 23.59 74.462 0.151 242.1 82.4 -99999.99
7/10/2021 3:30:00 PM 23.78 74.804 0.151 244.1 81.5 -99999.99
7/10/2021 3:45:00 PM 23.85 74.93 0.151 244.9 79.2 -99999.99
7/10/2021 4:00:00 PM 23.93 75.074 0.151 243.7 80.9 -99999.99
7/10/2021 4:15:00 PM 24.02 75.236 0.152 245.2 80.7 -99999.99
7/10/2021 4:30:00 PM 24.09 75.362 0.152 243.3 79.5 -99999.99
7/10/2021 4:45:00 PM 24.16 75.488 0.152 242.4 79 -99999.99
7/10/2021 5:00:00 PM 24.15 75.47 0.153 241 78.9 -99999.99
7/10/2021 5:15:00 PM 24.12 75.416 0.153 239.4 75.5 -99999.99
7/10/2021 5:30:00 PM 24.06 75.308 0.154 243.2 75 -99999.99
7/10/2021 5:45:00 PM 24.01 75.218 0.154 243.4 72.8 -99999.99
7/10/2021 6:00:00 PM 23.96 75.128 0.155 245.4 77 -99999.99
7/10/2021 6:15:00 PM 23.94 75.092 0.155 247 73 -99999.99
7/10/2021 6:30:00 PM 23.88 74.984 0.156 246.1 69.1 -99999.99
7/10/2021 6:45:00 PM 23.83 74.894 0.156 247.8 70.8 -99999.99
7/10/2021 7:00:00 PM 23.78 74.804 0.157 245.8 81.8 -99999.99
7/10/2021 7:15:00 PM 23.71 74.67799 0.157 246.5 74.7 -99999.99
7/10/2021 7:30:00 PM 23.65 74.57 0.158 246.2 84.2 -99999.99
7/10/2021 7:45:00 PM 23.58 74.444 0.159 248.2 82.9 -99999.99
7/10/2021 8:00:00 PM 23.51 74.318 0.159 250.4 77.5 -99999.99
7/10/2021 8:15:00 PM 23.42 74.156 0.159 249 78 -99999.99
7/10/2021 8:30:00 PM 23.31 73.958 0.16 248.1 78.1 -99999.99
7/10/2021 8:45:00 PM 23.22 73.796 0.161 254.8 72.1 -99999.99
7/10/2021 9:00:00 PM 23.15 73.67 0.16 255.8 67.4 -99999.99
7/10/2021 9:15:00 PM 23.07 73.526 0.161 257.1 76.3 -99999.99
7/10/2021 9:30:00 PM 22.95 73.31 0.162 183.1 72.7 -99999.99
7/10/2021 9:45:00 PM 22.84 73.112 0.162 187 71 -99999.99
7/10/2021 10:00:00 PM 22.74 72.932 0.163 188.4 75.1 -99999.99
7/10/2021 10:15:00 PM 22.66 72.788 0.162 188.8 80.1 -99999.99
7/10/2021 10:30:00 PM 22.55 72.59 0.163 191 77 -99999.99
7/10/2021 10:45:00 PM 22.45 72.41 0.163 194 75.1 -99999.99
7/10/2021 11:00:00 PM 22.31 72.158 0.162 198.3 64.7 -99999.99
7/10/2021 11:15:00 PM 22.15 71.87 0.163 201.9 58.6 -99999.99
7/10/2021 11:30:00 PM 22.05 71.69 0.162 195.3 63.9 -99999.99
7/10/2021 11:45:00 PM 22.03 71.654 0.162 203.1 63.9 -99999.99
7/11/2021 12:00:00 AM 22.01 71.618 0.163 198.4 63.1 -99999.99
7/11/2021 12:15:00 AM 21.97 71.546 0.162 198.6 71.3 -99999.99
7/11/2021 12:30:00 AM 21.9 71.42 0.162 196.7 73.3 -99999.99
7/11/2021 12:45:00 AM 21.84 71.312 0.162 202.3 75.7 -99999.99
7/11/2021 1:00:00 AM 21.77 71.186 0.163 198.5 74 -99999.99
7/11/2021 1:15:00 AM 21.69 71.042 0.163 203.6 79 -99999.99
7/11/2021 1:30:00 AM 21.61 70.898 0.163 199.9 80 -99999.99
7/11/2021 1:45:00 AM 21.55 70.79 0.163 201.5 80 -99999.99
7/11/2021 2:00:00 AM 21.49 70.682 0.163 201.6 79.5 -99999.99
7/11/2021 2:15:00 AM 21.39 70.502 0.163 202.6 80.3 -99999.99
7/11/2021 2:30:00 AM 21.34 70.412 0.163 203.1 80 -99999.99
7/11/2021 2:45:00 AM 21.27 70.286 0.163 202.2 80.1 -99999.99
7/11/2021 3:00:00 AM 21.2 70.16 0.163 202.3 80.7 -99999.99
7/11/2021 3:15:00 AM 21.14 70.052 0.163 203.3 80.4 -99999.99
7/11/2021 3:30:00 AM 21.09 69.962 0.163 203.1 80.5 -99999.99
7/11/2021 3:45:00 AM 21.02 69.836 0.163 203.6 80.1 -99999.99
7/11/2021 4:00:00 AM 21.02 69.836 0.163 206.3 79.1 -99999.99
7/11/2021 4:15:00 AM 20.95 69.71 0.163 206 79.6 -99999.99
7/11/2021 4:30:00 AM 20.9 69.62 0.163 205 80.1 -99999.99
7/11/2021 4:45:00 AM 20.87 69.566 0.163 207.4 80.3 -99999.99
7/11/2021 5:00:00 AM 20.81 69.458 0.163 207.8 80.6 -99999.99
7/11/2021 5:15:00 AM 20.79 69.422 0.163 204.6 80.1 -99999.99
7/11/2021 5:30:00 AM 20.74 69.332 0.163 205.5 80.4 -99999.99
7/11/2021 5:45:00 AM 20.72 69.296 0.163 204.3 78.8 -99999.99
7/11/2021 6:00:00 AM 20.69 69.242 0.163 204.1 79.6 -99999.99
7/11/2021 6:15:00 AM 20.65 69.17 0.163 209.3 79.9 -99999.99
7/11/2021 6:30:00 AM 20.59 69.062 0.161 210.4 76.3 -99999.99
7/11/2021 6:45:00 AM 20.53 68.954 0.155 210.7 77.5 -99999.99
7/11/2021 7:00:00 AM 20.51 68.918 0.154 219.5 80.1 -99999.99
7/11/2021 7:15:00 AM 20.49 68.882 0.156 223.7 79.8 -99999.99
7/11/2021 7:30:00 AM 20.47 68.846 0.156 201.7 77.7 -99999.99
7/11/2021 7:45:00 AM 20.47 68.846 0.156 202.8 76.4 -99999.99
7/11/2021 8:00:00 AM 20.47 68.846 0.156 203.2 76.9 -99999.99
7/11/2021 8:15:00 AM 20.49 68.882 0.156 205.8 76.8 -99999.99
7/11/2021 8:30:00 AM 20.5 68.9 0.157 204.4 69.3 -99999.99
7/11/2021 8:45:00 AM 20.52 68.936 0.157 207.2 71.2 -99999.99
7/11/2021 9:00:00 AM 20.54 68.972 0.158 208.8 70.6 -99999.99
7/11/2021 9:15:00 AM 20.56 69.008 0.158 199.9 78.3 -99999.99
7/11/2021 9:30:00 AM 20.58 69.044 0.158 213.4 69.8 -99999.99
7/11/2021 9:45:00 AM 20.58 69.044 0.159 204.7 63 -99999.99
7/11/2021 10:00:00 AM 20.6 69.08 0.158 205.1 65.6 -99999.99
7/11/2021 10:15:00 AM 20.61 69.098 0.159 204.3 62.4 -99999.99
7/11/2021 10:30:00 AM 20.63 69.134 0.159 205.5 59.2 -99999.99
7/11/2021 10:45:00 AM 20.64 69.152 0.158 198.6 58.9 -99999.99
7/11/2021 11:00:00 AM 20.68 69.224 0.158 198.2 56.6 -99999.99
7/11/2021 11:15:00 AM 20.73 69.314 0.158 197.5 32.6 -99999.99
7/11/2021 11:30:00 AM 20.8 69.44 0.158 201.3 21.5 -99999.99
7/11/2021 11:45:00 AM 20.87 69.566 0.157 200.9 14.5 -99999.99
7/11/2021 12:00:00 PM 20.94 69.692 0.157 194.8 20.9 -99999.99
7/11/2021 12:15:00 PM 21.06 69.908 0.156 195.2 38.1 -99999.99
7/11/2021 12:30:00 PM 21.12 70.016 0.157 195.1 49.2 -99999.99
7/11/2021 12:45:00 PM 21.17 70.106 0.157 197.1 57.8 -99999.99
7/11/2021 1:00:00 PM 21.41 70.538 0.158 198.8 65.7 -99999.99
7/11/2021 1:15:00 PM 21.57 70.826 0.158 196.3 77.3 -99999.99
7/11/2021 1:30:00 PM 21.85 71.33 0.157 197.6 81.2 -99999.99
7/11/2021 1:45:00 PM 21.97 71.546 0.157 197.8 83.4 -99999.99
7/11/2021 2:00:00 PM 22.17 71.906 0.157 196.8 77.5 -99999.99
7/11/2021 2:15:00 PM 22.27 72.086 0.157 200 78.5 -99999.99
7/11/2021 2:30:00 PM 22.47 72.446 0.157 200.9 78.3 -99999.99
7/11/2021 2:45:00 PM 22.58 72.644 0.157 197.5 78.6 -99999.99
7/11/2021 3:00:00 PM 22.7 72.86 0.157 193.9 84.6 -99999.99
7/11/2021 3:15:00 PM 23.03 73.454 0.157 191.8 84.2 -99999.99
7/11/2021 3:30:00 PM 23.24 73.832 0.156 191.5 77.6 -99999.99
7/11/2021 3:45:00 PM 23.3 73.94 0.157 196.5 76.1 -99999.99
7/11/2021 4:00:00 PM 23.44 74.192 0.158 201 76 -99999.99
7/11/2021 4:15:00 PM 23.63 74.534 0.158 201.9 86.5 -99999.99
7/11/2021 4:30:00 PM 23.75 74.75 0.158 194.9 87.4 -99999.99
7/11/2021 4:45:00 PM 23.63 74.534 0.158 195.7 87.1 -99999.99
7/11/2021 5:00:00 PM 23.47 74.246 0.159 195.4 85.7 -99999.99
7/11/2021 5:15:00 PM 23.41 74.138 0.159 194.2 84.4 -99999.99
7/11/2021 5:30:00 PM 23.36 74.048 0.16 196.2 78.7 -99999.99
7/11/2021 5:45:00 PM 23.45 74.21 0.16 193.3 77 -99999.99
7/11/2021 6:00:00 PM 23.39 74.102 0.16 195.1 76.9 -99999.99
7/11/2021 6:15:00 PM 23.38 74.084 0.16 202 76.4 -99999.99
7/11/2021 6:30:00 PM 23.4 74.12 0.161 197.4 74.5 -99999.99
7/11/2021 6:45:00 PM 23.31 73.958 0.161 200.5 77.6 -99999.99
7/11/2021 7:00:00 PM 23.23 73.814 0.161 200.5 73.8 -99999.99
7/11/2021 7:15:00 PM 23.2 73.76 0.161 200.7 76 -99999.99
7/11/2021 7:30:00 PM 23.16 73.688 0.161 201 65.9 -99999.99
7/11/2021 7:45:00 PM 23.18 73.724 0.162 202.7 55.5 -99999.99
7/11/2021 8:00:00 PM 23.1 73.58 0.163 200.3 38.8 -99999.99
7/11/2021 8:15:00 PM 23.06 73.508 0.163 201.1 60.8 -99999.99
7/11/2021 8:30:00 PM 22.96 73.328 0.163 202.3 70.4 -99999.99
7/11/2021 8:45:00 PM 22.99 73.382 0.162 201.3 74.3 -99999.99
7/11/2021 9:00:00 PM 22.93 73.274 0.163 214.3 75.5 -99999.99
7/11/2021 9:15:00 PM 22.86 73.148 0.163 198 74.4 -99999.99
7/11/2021 9:30:00 PM 22.86 73.148 0.163 201.3 68.3 -99999.99
7/11/2021 9:45:00 PM 22.84 73.112 0.163 196.7 71.4 -99999.99
7/11/2021 10:00:00 PM 22.82 73.076 0.163 199.6 69.2 -99999.99
7/11/2021 10:15:00 PM 22.79 73.022 0.164 201.5 69.2 -99999.99
7/11/2021 10:30:00 PM 22.75 72.95 0.164 202 70.7 -99999.99
7/11/2021 10:45:00 PM 22.7 72.86 0.163 201.2 64.6 -99999.99
7/11/2021 11:00:00 PM 22.66 72.788 0.164 202.3 21.5 -99999.99
7/11/2021 11:15:00 PM 22.62 72.716 0.163 197.8 11.8 -99999.99
7/11/2021 11:30:00 PM 22.59 72.662 0.163 197.5 10.7 -99999.99
7/11/2021 11:45:00 PM 22.56 72.608 0.163 195.3 42.2 -99999.99
7/12/2021 12:00:00 AM 22.51 72.518 0.164 194.7 60.6 -99999.99
7/12/2021 12:15:00 AM 22.48 72.464 0.164 193.8 42.2 -99999.99
7/12/2021 12:30:00 AM 22.43 72.374 0.165 198.8 19.2 -99999.99
7/12/2021 12:45:00 AM 22.39 72.302 0.165 195.3 17.6 -99999.99
7/12/2021 1:00:00 AM 22.33 72.194 0.164 203.4 42.9 -99999.99
7/12/2021 1:15:00 AM 22.3 72.14 0.164 201.6 35.7 -99999.99
7/12/2021 1:30:00 AM 22.26 72.068 0.165 198.8 31.6 -99999.99
7/12/2021 1:45:00 AM 22.22 71.996 0.165 178 37.5 -99999.99
7/12/2021 2:00:00 AM 22.18 71.924 0.165 186.2 49.6 -99999.99
7/12/2021 2:15:00 AM 22.14 71.852 0.165 269.2 66.2 -99999.99
7/12/2021 2:30:00 AM 22.1 71.78 0.165 395.6 70.5 -99999.99
7/12/2021 2:45:00 AM 22.06 71.708 0.165 377.3 70.2 -99999.99
7/12/2021 3:00:00 AM 22.02 71.636 0.165 368.5 67.8 -99999.99
7/12/2021 3:15:00 AM 21.99 71.582 0.164 372.3 64.7 -99999.99
7/12/2021 3:30:00 AM 21.95 71.51 0.164 368.7 64.6 -99999.99
7/12/2021 3:45:00 AM 21.92 71.456 0.164 368.6 63.7 -99999.99
7/12/2021 4:00:00 AM 21.88 71.384 0.164 364.3 55.5 -99999.99
7/12/2021 4:15:00 AM 21.85 71.33 0.164 369.8 52.3 -99999.99
7/12/2021 4:30:00 AM 21.79 71.222 0.165 365.3 60.5 -99999.99
7/12/2021 4:45:00 AM 21.75 71.15 0.167 359.9 51.5 -99999.99
7/12/2021 5:00:00 AM 21.72 71.096 0.166 360.6 67.7 -99999.99
7/12/2021 5:15:00 AM 21.66 70.988 0.165 369.2 73.9 -99999.99
7/12/2021 5:30:00 AM 21.62 70.916 0.165 367 75.3 -99999.99
7/12/2021 5:45:00 AM 21.59 70.862 0.164 367.3 73.9 -99999.99
7/12/2021 6:00:00 AM 21.56 70.808 0.164 371.3 73.5 -99999.99
7/12/2021 6:15:00 AM 21.52 70.736 0.164 367.7 67.9 -99999.99
7/12/2021 6:30:00 AM 21.51 70.718 0.164 370.6 64.8 -99999.99
7/12/2021 6:45:00 AM 21.48 70.664 0.164 370.3 46.4 -99999.99
7/12/2021 7:00:00 AM 21.45 70.61 0.164 371.5 46.6 -99999.99
7/12/2021 7:15:00 AM 21.42 70.556 0.164 378.8 58.1 -99999.99
7/12/2021 7:30:00 AM 21.4 70.52 0.164 376.8 54.7 -99999.99
7/12/2021 7:45:00 AM 21.41 70.538 0.164 382.1 43.8 -99999.99
7/12/2021 8:00:00 AM 21.37 70.466 0.165 376 25.8 -99999.99
7/12/2021 8:15:00 AM 21.36 70.448 0.165 377.7 30.4 -99999.99
7/12/2021 8:30:00 AM 21.35 70.43 0.164 376 27.5 -99999.99
7/12/2021 8:45:00 AM 21.36 70.448 0.164 377.4 36.4 -99999.99
7/12/2021 9:00:00 AM 21.38 70.484 0.164 375 37.8 -99999.99
7/12/2021 9:15:00 AM 21.4 70.52 0.164 375.8 34.5 -99999.99
7/12/2021 9:30:00 AM 21.44 70.592 0.163 375 36.9 -99999.99
7/12/2021 9:45:00 AM 21.48 70.664 0.163 375.6 38.5 -99999.99
7/12/2021 10:00:00 AM 21.52 70.736 0.162 377.2 35.4 -99999.99
7/12/2021 10:15:00 AM 21.57 70.826 0.162 373.7 30.3 -99999.99
7/12/2021 10:30:00 AM 21.63 70.934 0.162 379.1 24.9 -99999.99
7/12/2021 10:45:00 AM 21.64 70.952 0.162 376.6 15.8 -99999.99
7/12/2021 11:00:00 AM 21.67 71.006 0.163 368.6 10.5 -99999.99
7/12/2021 11:15:00 AM 21.75 71.15 0.162 366.7 12.1 -99999.99
7/12/2021 11:30:00 AM 21.91 71.438 0.162 367.3 22.5 -99999.99
7/12/2021 11:45:00 AM 22.08 71.744 0.162 366.4 29.8 -99999.99
7/12/2021 12:00:00 PM 22.4 72.32 0.162 371.8 33.2 -99999.99
7/12/2021 12:15:00 PM 22.72 72.896 0.162 368.4 32.1 -99999.99
7/12/2021 12:30:00 PM 23 73.4 0.161 369.2 33.5 -99999.99
7/12/2021 12:45:00 PM 23.3 73.94 0.161 369 29.6 -99999.99
7/12/2021 1:00:00 PM 23.51 74.318 0.161 368.1 34.8 -99999.99
7/12/2021 1:15:00 PM 23.59 74.462 0.162 367.4 55.9 -99999.99
7/12/2021 1:30:00 PM 23.72 74.696 0.162 361.8 53.7 -99999.99
7/12/2021 1:45:00 PM 24.14 75.452 0.162 362.6 58.9 -99999.99
7/12/2021 2:00:00 PM 24.44 75.992 0.162 359 68.1 -99999.99
7/12/2021 2:15:00 PM 24.84 76.712 0.162 364.2 57.3 -99999.99
7/12/2021 2:30:00 PM 25.3 77.54 0.162 397.5 65.7 -99999.99
7/12/2021 2:45:00 PM 25.75 78.35 0.162 356.5 60.3 -99999.99
7/12/2021 3:00:00 PM 26.11 78.998 0.162 354.3 67 -99999.99
7/12/2021 3:15:00 PM 26.29 79.32201 0.162 352.8 73.8 -99999.99
7/12/2021 3:30:00 PM 26.54 79.772 0.163 348.8 74.9 -99999.99
7/12/2021 3:45:00 PM 26.61 79.898 0.163 350.8 75.4 -99999.99
7/12/2021 4:00:00 PM 26.68 80.024 0.163 354.7 80.1 -99999.99
7/12/2021 4:15:00 PM 26.67 80.006 0.163 355 78.6 -99999.99
7/12/2021 4:30:00 PM 26.59 79.862 0.163 358 85.1 -99999.99
7/12/2021 4:45:00 PM 26.51 79.718 0.164 351.2 85.2 -99999.99
7/12/2021 5:00:00 PM 26.45 79.61 0.164 350.4 80.4 -99999.99
7/12/2021 5:15:00 PM 26.32 79.376 0.165 348.6 81.5 -99999.99
7/12/2021 5:30:00 PM 26.22 79.196 0.165 348.8 83.1 -99999.99
7/12/2021 5:45:00 PM 26.18 79.124 0.165 351.6 79.9 -99999.99
7/12/2021 6:00:00 PM 26.16 79.088 0.166 348.1 77.9 -99999.99
7/12/2021 6:15:00 PM 26 78.8 0.166 342.4 78 -99999.99
7/12/2021 6:30:00 PM 25.86 78.548 0.166 340.3 73.9 -99999.99
7/12/2021 6:45:00 PM 25.68 78.224 0.167 337 74.2 -99999.99
7/12/2021 7:00:00 PM 25.57 78.026 0.163 335.5 72.2 -99999.99
7/12/2021 7:15:00 PM 25.46 77.828 0.165 336.3 68.9 -99999.99
7/12/2021 7:30:00 PM 25.42 77.756 0.164 336 57.9 -99999.99
7/12/2021 7:45:00 PM 25.2 77.36 0.165 337.9 64.1 -99999.99
7/12/2021 8:00:00 PM 25.03 77.054 0.165 338.4 68.7 -99999.99
7/12/2021 8:15:00 PM 24.94 76.892 0.165 336.5 65.6 -99999.99
7/12/2021 8:30:00 PM 24.94 76.892 0.165 336.5 53.9 -99999.99
7/12/2021 8:45:00 PM 24.68 76.424 0.165 335.6 67.5 -99999.99
7/12/2021 9:00:00 PM 24.6 76.28 0.165 334 66.6 -99999.99
7/12/2021 9:15:00 PM 24.54 76.172 0.165 339.3 62.4 -99999.99
7/12/2021 9:30:00 PM 24.45 76.01 0.165 239.2 64.6 -99999.99
7/12/2021 9:45:00 PM 24.43 75.974 0.166 259.3 64.5 -99999.99
7/12/2021 10:00:00 PM 24.36 75.848 0.166 250.5 63.1 -99999.99
7/12/2021 10:15:00 PM 24.31 75.758 0.166 265.5 55.8 -99999.99
7/12/2021 10:30:00 PM 24.27 75.686 0.166 254.7 50.6 -99999.99
7/12/2021 10:45:00 PM 24.21 75.578 0.166 258.1 69 -99999.99
7/12/2021 11:00:00 PM 24.13 75.434 0.166 256.9 72.8 -99999.99
7/12/2021 11:15:00 PM 24.04 75.272 0.166 254.8 76.9 -99999.99
7/12/2021 11:30:00 PM 23.97 75.146 0.165 255 75.9 -99999.99
7/12/2021 11:45:00 PM 23.89 75.002 0.167 260.6 64.5 -99999.99
7/13/2021 12:00:00 AM 23.85 74.93 0.166 255.7 61.4 -99999.99
7/13/2021 12:15:00 AM 23.76 74.768 0.167 266.8 63.5 -99999.99
7/13/2021 12:30:00 AM 23.72 74.696 0.166 268 70.1 -99999.99
7/13/2021 12:45:00 AM 23.65 74.57 0.166 224.4 55.6 -99999.99
7/13/2021 1:00:00 AM 23.58 74.444 0.166 231.3 48.3 -99999.99
7/13/2021 1:15:00 AM 23.5 74.3 0.167 231.8 62.7 -99999.99
7/13/2021 1:30:00 AM 23.44 74.192 0.167 230.6 61.2 -99999.99
7/13/2021 1:45:00 AM 23.36 74.048 0.167 230.7 68.3 -99999.99
7/13/2021 2:00:00 AM 23.29 73.922 0.168 236.4 62.1 -99999.99
7/13/2021 2:15:00 AM 23.21 73.778 0.168 233.2 73.2 -99999.99
7/13/2021 2:30:00 AM 23.14 73.652 0.169 237.3 77.5 -99999.99
7/13/2021 2:45:00 AM 23.07 73.526 0.169 237.8 74.5 -99999.99
7/13/2021 3:00:00 AM 22.99 73.382 0.169 242.3 71.2 -99999.99
7/13/2021 3:15:00 AM 22.93 73.274 0.17 241.7 61.1 -99999.99
7/13/2021 3:30:00 AM 22.88 73.184 0.17 245.5 68.8 -99999.99
7/13/2021 3:45:00 AM 22.82 73.076 0.169 243.8 72.7 -99999.99
7/13/2021 4:00:00 AM 22.77 72.986 0.169 246.9 74.1 -99999.99
7/13/2021 4:15:00 AM 22.73 72.914 0.169 247.8 73 -99999.99
7/13/2021 4:30:00 AM 22.7 72.86 0.169 241.7 73.4 -99999.99
7/13/2021 4:45:00 AM 22.64 72.752 0.17 245.8 72.2 -99999.99
7/13/2021 5:00:00 AM 22.61 72.698 0.17 237.7 72.7 -99999.99
7/13/2021 5:15:00 AM 22.57 72.626 0.17 238.4 69.7 -99999.99
7/13/2021 5:30:00 AM 22.52 72.536 0.169 172.5 73.5 -99999.99
7/13/2021 5:45:00 AM 22.49 72.482 0.168 238.7 73.5 -99999.99
7/13/2021 6:00:00 AM 22.5 72.5 0.168 252.5 70.8 -99999.99
7/13/2021 6:15:00 AM 22.49 72.482 0.169 264.1 62.8 -99999.99
7/13/2021 6:30:00 AM 22.47 72.446 0.169 259 63.1 -99999.99
7/13/2021 6:45:00 AM 22.45 72.41 0.169 265.9 30.8 -99999.99
7/13/2021 7:00:00 AM 22.43 72.374 0.171 268.5 31.2 -99999.99
7/13/2021 7:15:00 AM 22.43 72.374 0.172 269.2 18.2 -99999.99
7/13/2021 7:30:00 AM 22.41 72.338 0.173 269.1 18.4 -99999.99
7/13/2021 7:45:00 AM 22.4 72.32 0.174 266.8 14.8 -99999.99
7/13/2021 8:00:00 AM 22.42 72.356 0.173 269.5 12.9 -99999.99
7/13/2021 8:15:00 AM 22.41 72.338 0.174 273 8.1 -99999.99
7/13/2021 8:30:00 AM 22.43 72.374 0.174 279.1 7.4 -99999.99
7/13/2021 8:45:00 AM 22.42 72.356 0.172 270 9.4 -99999.99
7/13/2021 9:00:00 AM 22.41 72.338 0.17 261.8 16.4 -99999.99
7/13/2021 9:15:00 AM 22.41 72.338 0.169 265.7 14.9 -99999.99
7/13/2021 9:30:00 AM 22.42 72.356 0.169 260.9 13.7 -99999.99
7/13/2021 9:45:00 AM 22.44 72.392 0.168 258.5 14.5 -99999.99
7/13/2021 10:00:00 AM 22.46 72.42799 0.168 262.2 21.7 -99999.99
7/13/2021 10:15:00 AM 22.51 72.518 0.164 265.7 28.7 -99999.99
7/13/2021 10:30:00 AM 22.55 72.59 0.163 267.8 38.9 -99999.99
7/13/2021 10:45:00 AM 22.65 72.77 0.159 259.9 34.7 -99999.99
7/13/2021 11:00:00 AM 22.7 72.86 0.157 265.6 39.9 -99999.99
7/13/2021 11:15:00 AM 22.82 73.076 0.156 260.1 58.1 -99999.99
7/13/2021 11:30:00 AM 22.98 73.364 0.156 260.3 56.3 -99999.99
7/13/2021 11:45:00 AM 23.14 73.652 0.156 302.9 49.4 -99999.99
7/13/2021 12:00:00 PM 23.27 73.886 0.156 259.9 48 -99999.99
7/13/2021 12:15:00 PM 23.4 74.12 0.156 261.6 37.2 -99999.99
7/13/2021 12:30:00 PM 23.57 74.426 0.156 262.1 58.4 -99999.99
7/13/2021 12:45:00 PM 23.87 74.966 0.156 266.1 54 -99999.99
7/13/2021 1:00:00 PM 24.31 75.758 0.156 285.4 49.3 -99999.99
7/13/2021 1:15:00 PM 24.59 76.262 0.157 265.4 46.6 -99999.99
7/13/2021 1:30:00 PM 24.84 76.712 0.157 298.6 50.8 -99999.99
7/13/2021 1:45:00 PM 25.07 77.126 0.157 298.2 51 -99999.99
7/13/2021 2:00:00 PM 25.36 77.648 0.157 322.8 59.3 -99999.99
7/13/2021 2:15:00 PM 25.54 77.972 0.157 361.2 53.6 -99999.99
7/13/2021 2:30:00 PM 25.7 78.26 0.157 318.8 66.1 -99999.99
7/13/2021 2:45:00 PM 25.81 78.458 0.157 340.3 61.4 -99999.99
7/13/2021 3:00:00 PM 25.93 78.674 0.157 307.4 69.9 -99999.99
7/13/2021 3:15:00 PM 26.14 79.052 0.157 310.8 74.4 -99999.99
7/13/2021 3:30:00 PM 26.41 79.538 0.157 308.4 73.4 -99999.99
7/13/2021 3:45:00 PM 26.58 79.844 0.157 322.5 67.2 -99999.99
7/13/2021 4:00:00 PM 26.73 80.114 0.157 315.5 61.1 -99999.99
7/13/2021 4:15:00 PM 26.82 80.276 0.158 316.5 66.2 -99999.99
7/13/2021 4:30:00 PM 26.79 80.222 0.158 306.7 54.5 -99999.99
7/13/2021 4:45:00 PM 26.78 80.204 0.159 362.4 58.5 -99999.99
7/13/2021 5:00:00 PM 26.8 80.24 0.159 363.6 61.4 -99999.99
7/13/2021 5:15:00 PM 26.79 80.222 0.16 3143 53.6 -99999.99
7/13/2021 5:30:00 PM 26.79 80.222 0.16 355.6 50.7 -99999.99
7/13/2021 5:45:00 PM 26.79 80.222 0.161 323.6 51.5 -99999.99
7/13/2021 6:00:00 PM 26.75 80.15 0.16 308.9 66.8 -99999.99
7/13/2021 6:15:00 PM 26.75 80.15 0.16 831.3 58.4 -99999.99
7/13/2021 6:30:00 PM 26.75 80.15 0.16 999.7 60.4 -99999.99
7/13/2021 6:45:00 PM 26.7 80.06 0.16 1737 49.1 -99999.99
7/13/2021 7:00:00 PM 26.64 79.952 0.16 4535 47.5 -99999.99
7/13/2021 7:15:00 PM 26.56 79.808 0.161 5146 32.6 -99999.99
7/13/2021 7:30:00 PM 26.47 79.646 0.162 950 44.8 -99999.99
7/13/2021 7:45:00 PM 26.37 79.466 0.162 750.2 56 -99999.99
7/13/2021 8:00:00 PM 26.26 79.268 0.163 381.6 56.8 -99999.99
7/13/2021 8:15:00 PM 26.14 79.052 0.164 378.6 49.6 -99999.99
7/13/2021 8:30:00 PM 26.04 78.872 0.164 367.7 60.2 -99999.99
7/13/2021 8:45:00 PM 25.93 78.674 0.165 372.3 49.1 -99999.99
7/13/2021 9:00:00 PM 25.82 78.476 0.165 357.1 50.7 -99999.99
7/13/2021 9:15:00 PM 25.72 78.296 0.166 351.9 51.4 -99999.99
7/13/2021 9:30:00 PM 25.62 78.116 0.166 370.7 42.5 -99999.99
7/13/2021 9:45:00 PM 25.52 77.936 0.166 1269 43.7 -99999.99
7/13/2021 10:00:00 PM 25.42 77.756 0.167 1190 40.8 -99999.99
7/13/2021 10:15:00 PM 25.32 77.576 0.168 446.3 52.7 -99999.99
7/13/2021 10:30:00 PM 25.21 77.378 0.167 400.2 61.7 -99999.99
7/13/2021 10:45:00 PM 25.12 77.216 0.167 429.9 55.1 -99999.99
7/13/2021 11:00:00 PM 25.04 77.07201 0.168 447.3 49.9 -99999.99
7/13/2021 11:15:00 PM 24.95 76.91 0.168 621.1 49.8 -99999.99
7/13/2021 11:30:00 PM 24.84 76.712 0.168 425.2 48.2 -99999.99
7/13/2021 11:45:00 PM 24.76 76.568 0.168 555.1 54.6 -99999.99
7/14/2021 12:00:00 AM 24.68 76.424 0.169 1355 44.8 -99999.99
7/14/2021 12:15:00 AM 24.57 76.226 0.17 441.9 52.3 -99999.99
7/14/2021 12:30:00 AM 24.49 76.082 0.17 535.9 56.3 -99999.99
7/14/2021 12:45:00 AM 24.41 75.938 0.17 400.9 53.3 -99999.99
7/14/2021 1:00:00 AM 24.35 75.83 0.17 417 59.8 -99999.99
7/14/2021 1:15:00 AM 24.24 75.632 0.17 380.3 65.4 -99999.99
7/14/2021 1:30:00 AM 24.18 75.524 0.17 351.1 68.8 -99999.99
7/14/2021 1:45:00 AM 24.1 75.38 0.17 313.2 66.5 -99999.99
7/14/2021 2:00:00 AM 24.03 75.254 0.171 315.1 57.9 -99999.99
7/14/2021 2:15:00 AM 23.96 75.128 0.17 298.9 67.9 -99999.99
7/14/2021 2:30:00 AM 23.88 74.984 0.17 303.9 71 -99999.99
7/14/2021 2:45:00 AM 23.82 74.876 0.171 311.9 69.8 -99999.99
7/14/2021 3:00:00 AM 23.75 74.75 0.17 323.1 70.6 -99999.99
7/14/2021 3:15:00 AM 23.69 74.642 0.17 325.2 68.8 -99999.99
7/14/2021 3:30:00 AM 23.61 74.498 0.17 296.7 57.5 -99999.99
7/14/2021 3:45:00 AM 23.55 74.39 0.17 324.2 65.5 -99999.99
7/14/2021 4:00:00 AM 23.48 74.264 0.172 307.5 66.4 -99999.99
7/14/2021 4:15:00 AM 23.4 74.12 0.171 308.8 58.8 -99999.99
7/14/2021 4:30:00 AM 23.31 73.958 0.171 312 66.8 -99999.99
7/14/2021 4:45:00 AM 23.27 73.886 0.17 297.6 66.3 -99999.99
7/14/2021 5:00:00 AM 23.21 73.778 0.17 306.7 68.7 -99999.99
7/14/2021 5:15:00 AM 23.2 73.76 0.17 331.2 55.7 -99999.99
7/14/2021 5:30:00 AM 23.15 73.67 0.17 324.5 44.1 -99999.99
7/14/2021 5:45:00 AM 23.08 73.544 0.17 289.9 40.4 -99999.99
7/14/2021 6:00:00 AM 23 73.4 0.17 300.9 46.4 -99999.99
7/14/2021 6:15:00 AM 22.94 73.292 0.17 290.4 47.7 -99999.99
7/14/2021 6:30:00 AM 22.86 73.148 0.17 304.7 50.3 -99999.99
7/14/2021 6:45:00 AM 22.79 73.022 0.17 297.6 43.2 -99999.99
7/14/2021 7:00:00 AM 22.75 72.95 0.169 290.2 1.2 -99999.99
7/14/2021 7:15:00 AM 22.68 72.824 0.17 290.4 0 -99999.99
7/14/2021 7:30:00 AM 22.66 72.788 0.169 287.2 0 -99999.99
7/14/2021 7:45:00 AM 22.6 72.68 0.17 288.4 0 -99999.99
7/14/2021 8:00:00 AM 22.58 72.644 0.17 287.5 0 -99999.99
7/14/2021 8:15:00 AM 22.52 72.536 0.17 287.2 0 -99999.99
7/14/2021 8:30:00 AM 22.5 72.5 0.169 290.9 0 -99999.99
7/14/2021 8:45:00 AM 22.5 72.5 0.169 288.5 0 -99999.99
7/14/2021 9:00:00 AM 22.49 72.482 0.169 287.7 0 -99999.99
7/14/2021 9:15:00 AM 22.49 72.482 0.169 288.2 0 -99999.99
7/14/2021 9:30:00 AM 22.51 72.518 0.169 290.2 0 -99999.99
7/14/2021 9:45:00 AM 22.53 72.554 0.169 294.1 0 -99999.99
7/14/2021 10:00:00 AM 22.56 72.608 0.169 296.2 0 -99999.99
7/14/2021 10:15:00 AM 22.59 72.662 0.169 285.6 0 -99999.99
7/14/2021 10:30:00 AM 22.64 72.752 0.169 289.9 0 -99999.99
7/14/2021 10:45:00 AM 22.69 72.842 0.169 289 0 -99999.99
7/14/2021 11:00:00 AM 22.77 72.986 0.169 300.5 0 -99999.99
7/14/2021 11:15:00 AM 22.92 73.256 0.169 294.4 0 -99999.99
7/14/2021 11:30:00 AM 23.09 73.562 0.168 290 0 -99999.99
7/14/2021 11:45:00 AM 23.26 73.868 0.168 290 0 -99999.99
7/14/2021 12:00:00 PM 23.48 74.264 0.168 284.7 0 -99999.99
7/14/2021 12:15:00 PM 23.71 74.67799 0.168 290 0 -99999.99
7/14/2021 12:30:00 PM 24 75.2 0.168 286.8 0 -99999.99
7/14/2021 12:45:00 PM 24.34 75.812 0.168 293.8 0 -99999.99
7/14/2021 1:00:00 PM 24.62 76.316 0.167 293.3 0 -99999.99
7/14/2021 1:15:00 PM 25 77 0.167 293 0 -99999.99
7/14/2021 1:30:00 PM 25.37 77.666 0.167 295.2 0 -99999.99
7/14/2021 1:45:00 PM 25.71 78.278 0.167 289.3 0 -99999.99
7/14/2021 2:00:00 PM 25.94 78.692 0.167 289.7 0 -99999.99
7/14/2021 2:15:00 PM 26.17 79.106 0.166 288.9 0 -99999.99
7/14/2021 2:30:00 PM 26.38 79.484 0.168 288.1 0 -99999.99
7/14/2021 2:45:00 PM 26.47 79.646 0.168 284 0 -99999.99
7/14/2021 3:00:00 PM 26.51 79.718 0.165 282.9 0 -99999.99
7/14/2021 3:15:00 PM 26.53 79.754 0.166 284.8 0 -99999.99
7/14/2021 3:30:00 PM 26.65 79.97 0.168 282.8 0 -99999.99
7/14/2021 3:45:00 PM 26.91 80.438 0.16 293.2 0 -99999.99
7/14/2021 4:00:00 PM 27.13 80.834 0.164 329.4 0 -99999.99
7/14/2021 4:15:00 PM 27.3 81.14 0.167 313.2 0 -99999.99
7/14/2021 4:30:00 PM 27.41 81.338 0.168 301.2 0 -99999.99
7/14/2021 4:45:00 PM 27.48 81.464 0.168 261.3 0 -99999.99
7/14/2021 5:00:00 PM 27.49 81.482 0.168 335.2 0 -99999.99
7/14/2021 5:15:00 PM 27.48 81.464 0.167 332.2 0 -99999.99
7/14/2021 5:30:00 PM 27.4 81.32 0.168 332.5 0 -99999.99
7/14/2021 5:45:00 PM 27.32 81.176 0.168 335.4 0 -99999.99
7/14/2021 6:00:00 PM 27.19 80.942 0.162 336.4 0 -99999.99
7/14/2021 6:15:00 PM 27.11 80.798 0.169 336.9 0 -99999.99
7/14/2021 6:30:00 PM 27.04 80.672 0.166 337.5 0 -99999.99
7/14/2021 6:45:00 PM 27 80.6 0.17 324.2 0 -99999.99
7/14/2021 7:00:00 PM 26.91 80.438 0.17 335.2 0 -99999.99
7/14/2021 7:15:00 PM 26.85 80.33 0.17 335.5 0 -99999.99
7/14/2021 7:30:00 PM 26.77 80.186 0.17 345 0 -99999.99
7/14/2021 7:45:00 PM 26.7 80.06 0.171 296.7 0 -99999.99
7/14/2021 8:00:00 PM 26.63 79.934 0.171 380.2 0 -99999.99
7/14/2021 8:15:00 PM 26.37 79.466 0.167 393.6 0 -99999.99
7/14/2021 8:30:00 PM 26.19 79.142 0.163 378.1 0 -99999.99
7/14/2021 8:45:00 PM 26.02 78.836 0.165 394.5 0 -99999.99
7/14/2021 9:00:00 PM 25.85 78.53 0.162 403.4 0 -99999.99
7/14/2021 9:15:00 PM 25.68 78.224 0.162 407.9 0 -99999.99
7/14/2021 9:30:00 PM 25.52 77.936 0.162 412.6 0 -99999.99
7/14/2021 9:45:00 PM 25.35 77.63 0.163 401.6 0 -99999.99
7/14/2021 10:00:00 PM 25.2 77.36 0.164 408.9 0 -99999.99
7/14/2021 10:15:00 PM 25.07 77.126 0.165 414.8 0 -99999.99
7/14/2021 10:30:00 PM 24.95 76.91 0.166 452 0 -99999.99
7/14/2021 10:45:00 PM 24.82 76.676 0.164 426.1 0 -99999.99
7/14/2021 11:00:00 PM 24.73 76.514 0.164 502.3 0 -99999.99
7/14/2021 11:15:00 PM 24.62 76.316 0.163 491.8 0 -99999.99
7/14/2021 11:30:00 PM 24.53 76.154 0.163 474.2 0 -99999.99
7/14/2021 11:45:00 PM 24.44 75.992 0.162 475.9 0 -99999.99
7/15/2021 12:00:00 AM 24.35 75.83 0.161 482.7 0 -99999.99
7/15/2021 12:15:00 AM 24.25 75.65 0.161 479.7 0 -99999.99
7/15/2021 12:30:00 AM 24.14 75.452 0.16 491.3 0 -99999.99
7/15/2021 12:45:00 AM 24.04 75.272 0.16 464.7 0 -99999.99
7/15/2021 1:00:00 AM 23.93 75.074 0.16 472.4 0 -99999.99
7/15/2021 1:15:00 AM 23.79 74.82201 0.161 413.1 0 -99999.99
7/15/2021 1:30:00 AM 23.73 74.714 0.162 428.8 0 -99999.99
7/15/2021 1:45:00 AM 23.63 74.534 0.163 416.3 0 -99999.99
7/15/2021 2:00:00 AM 23.56 74.408 0.164 418.5 0 -99999.99
7/15/2021 2:15:00 AM 23.47 74.246 0.164 380.7 0 -99999.99
7/15/2021 2:30:00 AM 23.4 74.12 0.164 383.4 0 -99999.99
7/15/2021 2:45:00 AM 23.33 73.994 0.164 384 0 -99999.99
7/15/2021 3:00:00 AM 23.26 73.868 0.164 388.2 0 -99999.99
7/15/2021 3:15:00 AM 23.17 73.706 0.165 432.9 0 -99999.99
7/15/2021 3:30:00 AM 23.1 73.58 0.165 382 0 -99999.99
7/15/2021 3:45:00 AM 23.01 73.418 0.166 384.7 0 -99999.99
7/15/2021 4:00:00 AM 22.95 73.31 0.166 385.6 0 -99999.99
7/15/2021 4:15:00 AM 22.83 73.094 0.167 369.7 0 -99999.99
7/15/2021 4:30:00 AM 22.74 72.932 0.166 368 0 -99999.99
7/15/2021 4:45:00 AM 22.66 72.788 0.166 365.4 0 -99999.99
7/15/2021 5:00:00 AM 22.6 72.68 0.166 376 0 -99999.99
7/15/2021 5:15:00 AM 22.54 72.57201 0.166 387.1 0 -99999.99
7/15/2021 5:30:00 AM 22.5 72.5 0.166 373.1 0 -99999.99
7/15/2021 5:45:00 AM 22.47 72.446 0.166 383.2 0 -99999.99
7/15/2021 6:00:00 AM 22.43 72.374 0.166 378.8 0 -99999.99
7/15/2021 6:15:00 AM 22.4 72.32 0.166 387.7 0 -99999.99
7/15/2021 6:30:00 AM 22.36 72.248 0.166 362.7 0 -99999.99
7/15/2021 6:45:00 AM 22.32 72.176 0.166 374.1 0 -99999.99
7/15/2021 7:00:00 AM 22.28 72.104 0.166 382.5 0 -99999.99
7/15/2021 7:15:00 AM 22.23 72.014 0.165 373.8 0 -99999.99
7/15/2021 7:30:00 AM 22.18 71.924 0.165 373 0 -99999.99
7/15/2021 7:45:00 AM 22.14 71.852 0.165 372.6 0 -99999.99
7/15/2021 8:00:00 AM 22.12 71.816 0.165 372.6 0 -99999.99
7/15/2021 8:15:00 AM 22.08 71.744 0.165 374.3 0 -99999.99
7/15/2021 8:30:00 AM 22.07 71.726 0.165 366.2 0 -99999.99
7/15/2021 8:45:00 AM 22.05 71.69 0.165 366.7 0 -99999.99
7/15/2021 9:00:00 AM 22.05 71.69 0.166 365.3 0 -99999.99
7/15/2021 9:15:00 AM 22.06 71.708 0.166 368.1 0 -99999.99
7/15/2021 9:30:00 AM 22.08 71.744 0.166 365.4 0 -99999.99
7/15/2021 9:45:00 AM 22.11 71.798 0.166 369.6 0 -99999.99
7/15/2021 10:00:00 AM 22.14 71.852 0.166 369.1 0 -99999.99
7/15/2021 10:15:00 AM 22.2 71.96 0.166 371.2 0 -99999.99
7/15/2021 10:30:00 AM 22.27 72.086 0.165 364.9 0 -99999.99
7/15/2021 10:45:00 AM 22.36 72.248 0.165 382.9 0 -99999.99
7/15/2021 11:00:00 AM 22.48 72.464 0.164 390.4 0 -99999.99
7/15/2021 11:15:00 AM 22.61 72.698 0.163 392.1 0 -99999.99
7/15/2021 11:30:00 AM 22.76 72.968 0.162 389.5 0 -99999.99
7/15/2021 11:45:00 AM 22.93 73.274 0.161 392.5 0 -99999.99
7/15/2021 12:00:00 PM 23.12 73.616 0.16 382.1 0 -99999.99
7/15/2021 12:15:00 PM 23.31 73.958 0.159 385.6 0 -99999.99
7/15/2021 12:30:00 PM 23.5 74.3 0.157 383 0 -99999.99
7/15/2021 12:45:00 PM 23.79 74.82201 0.156 378.8 0 -99999.99
7/15/2021 1:00:00 PM 24.09 75.362 0.155 377.6 0 -99999.99
7/15/2021 1:15:00 PM 24.4 75.92 0.155 375.4 0 -99999.99
7/15/2021 1:30:00 PM 24.67 76.406 0.154 372.3 0 -99999.99
7/15/2021 1:45:00 PM 24.96 76.92799 0.154 366.2 0 -99999.99
7/15/2021 2:00:00 PM 25.3 77.54 0.153 345.6 0 -99999.99
7/15/2021 2:15:00 PM 25.66 78.188 0.153 338.2 0 -99999.99
7/15/2021 2:30:00 PM 26 78.8 0.153 359.6 0 -99999.99
7/15/2021 2:45:00 PM 26.29 79.32201 0.152 358.7 0 -99999.99
7/15/2021 3:00:00 PM 26.45 79.61 0.152 408.6 0 -99999.99
7/15/2021 3:15:00 PM 26.71 80.078 0.152 371.1 0 -99999.99
7/15/2021 3:30:00 PM 26.83 80.294 0.152 365.3 0 -99999.99
7/15/2021 3:45:00 PM 26.96 80.528 0.152 359.7 0 -99999.99
7/15/2021 4:00:00 PM 27.06 80.708 0.151 358.4 0 -99999.99
7/15/2021 4:15:00 PM 27.1 80.78 0.151 366.2 0 -99999.99
7/15/2021 4:30:00 PM 27.1 80.78 0.151 355.8 0 -99999.99
7/15/2021 4:45:00 PM 27.08 80.744 0.151 353 0 -99999.99
7/15/2021 5:00:00 PM 27.04 80.672 0.151 353.3 0 -99999.99
7/15/2021 5:15:00 PM 26.98 80.564 0.151 355.5 0 -99999.99
7/15/2021 5:30:00 PM 26.94 80.492 0.151 355.1 0 -99999.99
7/15/2021 5:45:00 PM 26.86 80.348 0.151 363.1 0 -99999.99
7/15/2021 6:00:00 PM 26.78 80.204 0.151 354.6 0 -99999.99
7/15/2021 6:15:00 PM 26.67 80.006 0.152 358.3 0 -99999.99
7/15/2021 6:30:00 PM 26.56 79.808 0.152 358.5 0 -99999.99
7/15/2021 6:45:00 PM 26.53 79.754 0.152 423.6 0 -99999.99
7/15/2021 7:00:00 PM 26.44 79.592 0.152 368.1 0 -99999.99
7/15/2021 7:15:00 PM 26.33 79.394 0.153 365.2 0 -99999.99
7/15/2021 7:30:00 PM 26.22 79.196 0.153 366.5 0 -99999.99
7/15/2021 7:45:00 PM 26.13 79.034 0.154 367.9 0 -99999.99
7/15/2021 8:00:00 PM 26.03 78.854 0.154 369.8 0 -99999.99
7/15/2021 8:15:00 PM 25.9 78.62 0.155 354.9 0 -99999.99
7/15/2021 8:30:00 PM 25.82 78.476 0.155 362.9 0 -99999.99
7/15/2021 8:45:00 PM 25.71 78.278 0.156 361.3 0 -99999.99
7/15/2021 9:00:00 PM 25.58 78.044 0.157 363.1 0 -99999.99
7/15/2021 9:15:00 PM 25.45 77.81 0.157 377.7 0 -99999.99
7/15/2021 9:30:00 PM 25.35 77.63 0.157 368.2 0 -99999.99
7/15/2021 9:45:00 PM 25.24 77.432 0.157 370.7 0 -99999.99
7/15/2021 10:00:00 PM 25.1 77.18 0.158 369.3 0 -99999.99
7/15/2021 10:15:00 PM 25.03 77.054 0.158 367.8 0 -99999.99
7/15/2021 10:30:00 PM 24.94 76.892 0.158 371.8 0 -99999.99
7/15/2021 10:45:00 PM 24.85 76.73 0.158 364.3 0 -99999.99
7/15/2021 11:00:00 PM 24.75 76.55 0.158 365.5 0 -99999.99
7/15/2021 11:15:00 PM 24.7 76.46 0.159 474.8 0 -99999.99
7/15/2021 11:30:00 PM 24.6 76.28 0.159 454.9 0 -99999.99
7/15/2021 11:45:00 PM 24.52 76.136 0.159 384.1 0 -99999.99
7/16/2021 12:00:00 AM 24.44 75.992 0.159 384.9 0 -99999.99
7/16/2021 12:15:00 AM 24.37 75.866 0.16 402 0 -99999.99
7/16/2021 12:30:00 AM 24.3 75.74 0.16 389.4 0 -99999.99
7/16/2021 12:45:00 AM 24.22 75.596 0.16 569.8 0 -99999.99
7/16/2021 1:00:00 AM 24.15 75.47 0.16 532.2 0 -99999.99
7/16/2021 1:15:00 AM 24.07 75.326 0.16 466.7 0 -99999.99
7/16/2021 1:30:00 AM 24 75.2 0.16 459.6 0 -99999.99
7/16/2021 1:45:00 AM 23.92 75.056 0.161 464.6 0 -99999.99
7/16/2021 2:00:00 AM 23.84 74.912 0.161 446.1 0 -99999.99
7/16/2021 2:15:00 AM 23.76 74.768 0.161 880 0 -99999.99
7/16/2021 2:30:00 AM 23.67 74.606 0.162 601.9 0 -99999.99
7/16/2021 2:45:00 AM 23.6 74.48 0.162 514 0 -99999.99
7/16/2021 3:00:00 AM 23.52 74.336 0.162 502.1